Darstellungsparameter: Aktuell verwendete Einstellungen:
Skalierung der Graphiken ... ?
xyx+y,   Skalierungsfaktor:      Skalierung: Modus: x, Faktor: 1
Darstellungszeitraum ... ?
Vom - - bis: - -   Zeitraum: 13.12.2019 - 10.01.2020
Min/Max/Avg-Anzeige ... ?
Zeige MMA aktuell
Zeige MMA Monat
Zeige MMA alles
Zeige --A aktuell
Zeige --A Monat
Zeige --A alles
Keine MMA-Anzeige
MMA:
Average (ber die Originaldaten)
MMA-Basis: 13.12.2019 - 10.01.2020
Quicknavigation für Darstellung... ?
Tage:      1T, 2T, 3T, 5T -1T -2T -3T -5T +1T +2T +3T +5T
Wochen: 1W, 2W, 3W -1W -2W -3W +1W +2W +3W
Monate: 1M, 3M, 6M -1M -3M -6M +1M +3M +6M
Jahre:    1J, 3J, 5J, 10J -1J -3J -5J -10J +1J +3J +5J +10J
Nutze für die Darstellung ... ?
Originaldaten oder Mittelwerte auf ...
Stundenbasis Tagesbasis Wochenbasis
Monatsbasis Jahresbasis      Datenbasis: Original-Daten
Darstellen als:
Statistik (Auto) Statistik J:M      Darstellung:
Zur Graphik,    zurück zur Übersicht aller Sensoren.
 
Tabellarische Datenbersicht: ?
 
Sensor: Nr:Datum:Temp:Feuchte:
Aussen-T/F 1 13-12-2019 00:01:17 0.9 C 33 %
2 13-12-2019 00:11:17 0.6 C 35 %
3 13-12-2019 00:21:17 1 C 33 %
4 13-12-2019 00:31:18 0.7 C 34 %
5 13-12-2019 00:41:18 0.9 C 35 %
6 13-12-2019 00:51:17 1.3 C 32 %
7 13-12-2019 01:01:18 1.7 C 30 %
8 13-12-2019 01:11:18 1.8 C 29 %
9 13-12-2019 01:21:17 2 C 27 %
10 13-12-2019 01:31:17 1.9 C 28 %
11 13-12-2019 01:41:17 2 C 27 %
12 13-12-2019 01:51:17 2 C 27 %
13 13-12-2019 02:01:18 1.9 C 29 %
14 13-12-2019 02:11:18 2 C 27 %
15 13-12-2019 02:21:17 2 C 27 %
16 13-12-2019 02:31:17 2 C 27 %
17 13-12-2019 02:41:17 2 C 27 %
18 13-12-2019 02:51:17 2 C 27 %
19 13-12-2019 03:01:17 1.8 C 29 %
20 13-12-2019 03:11:17 1.8 C 30 %
21 13-12-2019 03:21:17 1.7 C 30 %
22 13-12-2019 03:31:17 1.6 C 30 %
23 13-12-2019 03:41:17 1.7 C 30 %
24 13-12-2019 03:51:17 1.6 C 31 %
25 13-12-2019 04:01:17 1.4 C 32 %
Sensor: Nr:Datum:Temp:Feuchte:
Aussen-T/F 26 13-12-2019 04:11:17 1.5 C 32 %
27 13-12-2019 04:21:17 1.6 C 32 %
28 13-12-2019 04:31:17 1.6 C 32 %
29 13-12-2019 04:41:17 1.6 C 32 %
30 13-12-2019 04:51:17 1.4 C 34 %
31 13-12-2019 05:01:17 1.4 C 35 %
32 13-12-2019 05:11:17 1.5 C 34 %
33 13-12-2019 05:21:17 1.5 C 34 %
34 13-12-2019 05:31:18 1.7 C 33 %
35 13-12-2019 05:41:18 1.7 C 32 %
36 13-12-2019 05:51:17 1.8 C 33 %
37 13-12-2019 06:01:17 1.9 C 32 %
38 13-12-2019 06:11:17 2 C 31 %
39 13-12-2019 06:21:17 2 C 31 %
40 13-12-2019 06:31:17 2 C 32 %
41 13-12-2019 06:41:17 1.7 C 35 %
42 13-12-2019 06:51:17 1.8 C 37 %
43 13-12-2019 07:01:17 1.8 C 37 %
44 13-12-2019 07:11:18 1.7 C 39 %
45 13-12-2019 07:21:17 1.8 C 38 %
46 13-12-2019 07:31:17 1.8 C 40 %
47 13-12-2019 07:41:17 1.8 C 39 %
48 13-12-2019 07:51:17 1.9 C 38 %
49 13-12-2019 08:01:17 1.8 C 38 %
50 13-12-2019 08:11:17 1.8 C 39 %
Sensor: Nr:Datum:Temp:Feuchte:
Aussen-T/F 51 13-12-2019 08:21:17 1.7 C 40 %
52 13-12-2019 08:31:17 1.7 C 41 %
53 13-12-2019 08:41:17 1.6 C 41 %
54 13-12-2019 08:51:17 1.7 C 41 %
55 13-12-2019 09:01:17 1.9 C 40 %
56 13-12-2019 09:11:17 1.9 C 40 %
57 13-12-2019 09:21:17 1.9 C 40 %
58 13-12-2019 09:31:17 1.7 C 42 %
59 13-12-2019 09:41:17 1.7 C 42 %
60 13-12-2019 09:51:18 1.9 C 43 %
61 13-12-2019 10:01:17 1.8 C 43 %
62 13-12-2019 10:11:17 1.9 C 43 %
63 13-12-2019 10:21:18 2 C 41 %
64 13-12-2019 10:31:17 2.2 C 41 %
65 13-12-2019 10:41:17 2.3 C 41 %
66 13-12-2019 10:51:18 2.3 C 41 %
67 13-12-2019 11:01:17 2.4 C 41 %
68 13-12-2019 11:11:17 2.3 C 40 %
69 13-12-2019 11:21:17 2.3 C 40 %
70 13-12-2019 11:31:17 2.4 C 41 %
71 13-12-2019 11:41:17 2.5 C 41 %
72 13-12-2019 11:51:18 2.8 C 42 %
73 13-12-2019 12:01:17 3 C 41 %
74 13-12-2019 12:11:17 3.1 C 39 %
75 13-12-2019 12:21:17 3.2 C 38 %
Sensor: Nr:Datum:Temp:Feuchte:
Aussen-T/F 76 13-12-2019 12:31:17 3.5 C 38 %
77 13-12-2019 12:41:17 3.5 C 38 %
78 13-12-2019 12:51:18 3.6 C 38 %
79 13-12-2019 13:01:18 3.8 C 39 %
80 13-12-2019 13:11:18 4.1 C 37 %
81 13-12-2019 13:21:17 4.6 C 38 %
82 13-12-2019 13:31:17 5.2 C 35 %
83 13-12-2019 13:41:17 5.7 C 35 %
84 13-12-2019 13:51:17 6.4 C 31 %
85 13-12-2019 14:01:17 6.7 C 30 %
86 13-12-2019 14:11:17 7 C 28 %
87 13-12-2019 14:21:17 6.8 C 29 %
88 13-12-2019 14:31:17 6.8 C 28 %
89 13-12-2019 14:41:17 6.7 C 28 %
90 13-12-2019 14:51:18 6.4 C 29 %
91 13-12-2019 15:01:18 6.3 C 29 %
92 13-12-2019 15:11:18 6.3 C 29 %
93 13-12-2019 15:21:17 6.2 C 30 %
94 13-12-2019 15:31:17 5.9 C 30 %
95 13-12-2019 15:41:17 5.8 C 31 %
96 13-12-2019 15:51:17 5.5 C 31 %
97 13-12-2019 16:01:18 5.3 C 30 %
98 13-12-2019 16:11:18 5.4 C 30 %
99 13-12-2019 16:21:17 5.3 C 30 %
100 13-12-2019 16:31:17 5.1 C 30 %
Sensor: Nr:Datum:Temp:Feuchte:
Aussen-T/F 101 13-12-2019 16:41:17 4.8 C 31 %
102 13-12-2019 16:51:17 4.5 C 31 %
103 13-12-2019 17:01:17 4.6 C 31 %
104 13-12-2019 17:11:17 4.5 C 31 %
105 13-12-2019 17:21:17 4.3 C 34 %
106 13-12-2019 17:31:18 4.3 C 34 %
107 13-12-2019 17:41:18 4.2 C 33 %
108 13-12-2019 17:51:17 4 C 33 %
109 13-12-2019 18:01:17 3.8 C 36 %
110 13-12-2019 18:11:17 3.7 C 40 %
111 13-12-2019 18:21:17 3.8 C 39 %
112 13-12-2019 18:31:17 3.8 C 40 %
113 13-12-2019 18:41:18 3.8 C 39 %
114 13-12-2019 18:51:17 3.9 C 36 %
115 13-12-2019 19:01:17 3.9 C 36 %
116 13-12-2019 19:11:17 3.9 C 35 %
117 13-12-2019 19:21:17 4 C 34 %
118 13-12-2019 19:31:17 4.1 C 35 %
119 13-12-2019 19:41:17 4 C 36 %
120 13-12-2019 19:51:17 4.6 C 32 %
121 13-12-2019 20:01:17 4.6 C 32 %
122 13-12-2019 20:11:17 4.8 C 31 %
123 13-12-2019 20:21:17 4.7 C 31 %
124 13-12-2019 20:31:17 4.7 C 31 %
125 13-12-2019 20:41:17 4.7 C 32 %
Sensor: Nr:Datum:Temp:Feuchte:
Aussen-T/F 126 13-12-2019 20:51:17 4.5 C 32 %
127 13-12-2019 21:01:17 4.3 C 34 %
128 13-12-2019 21:11:17 4 C 36 %
129 13-12-2019 21:21:17 4.5 C 35 %
130 13-12-2019 21:31:18 4.4 C 33 %
131 13-12-2019 21:41:18 4.4 C 35 %
132 13-12-2019 21:51:17 4.6 C 32 %
133 13-12-2019 22:01:17 4.6 C 31 %
134 13-12-2019 22:11:17 4.6 C 30 %
135 13-12-2019 22:21:17 4.7 C 30 %
136 13-12-2019 22:31:18 4.7 C 30 %
137 13-12-2019 22:41:18 3.8 C 34 %
138 13-12-2019 22:51:17 3.8 C 36 %
139 13-12-2019 23:01:17 4.5 C 32 %
140 13-12-2019 23:11:17 5.1 C 29 %
141 13-12-2019 23:21:17 5.2 C 28 %
142 13-12-2019 23:31:17 5.2 C 28 %
143 13-12-2019 23:41:17 5 C 30 %
144 13-12-2019 23:51:17 5 C 30 %
145 14-12-2019 00:01:17 4.4 C 32 %
146 14-12-2019 00:11:17 4.5 C 30 %
147 14-12-2019 00:21:17 4.6 C 30 %
148 14-12-2019 00:31:18 4.3 C 33 %
149 14-12-2019 00:41:18 4.7 C 32 %
150 14-12-2019 00:51:17 5.1 C 28 %
Sensor: Nr:Datum:Temp:Feuchte:
Aussen-T/F 151 14-12-2019 01:01:17 5.4 C 27 %
152 14-12-2019 01:11:17 5.3 C 27 %
153 14-12-2019 01:21:17 5.2 C 26 %
154 14-12-2019 01:31:17 5.1 C 26 %
155 14-12-2019 01:41:17 5.3 C 25 %
156 14-12-2019 01:51:17 5.2 C 25 %
157 14-12-2019 02:01:17 5 C 26 %
158 14-12-2019 02:11:17 4.5 C 30 %
159 14-12-2019 02:21:17 4.6 C 29 %
160 14-12-2019 02:31:18 4.7 C 29 %
161 14-12-2019 02:41:18 4.8 C 28 %
162 14-12-2019 02:51:17 4.5 C 30 %
163 14-12-2019 03:01:18 4.2 C 33 %
164 14-12-2019 03:11:18 4.1 C 36 %
165 14-12-2019 03:21:17 3.9 C 38 %
166 14-12-2019 03:31:17 3.9 C 39 %
167 14-12-2019 03:41:17 3.9 C 36 %
168 14-12-2019 03:51:18 3.8 C 36 %
169 14-12-2019 04:01:17 3.8 C 40 %
170 14-12-2019 04:11:17 3.8 C 41 %
171 14-12-2019 04:21:17 3.7 C 42 %
172 14-12-2019 04:31:18 3.5 C 42 %
173 14-12-2019 04:41:18 3.5 C 42 %
174 14-12-2019 04:51:17 3.4 C 42 %
175 14-12-2019 05:01:17 3.4 C 41 %
Sensor: Nr:Datum:Temp:Feuchte:
Aussen-T/F 176 14-12-2019 05:11:17 3.4 C 41 %
177 14-12-2019 05:21:17 3.4 C 42 %
178 14-12-2019 05:31:18 3.4 C 42 %
179 14-12-2019 05:41:18 3.4 C 43 %
180 14-12-2019 05:51:17 3.4 C 43 %
181 14-12-2019 06:01:18 3.4 C 42 %
182 14-12-2019 06:11:18 3.7 C 43 %
183 14-12-2019 06:21:17 4 C 42 %
184 14-12-2019 06:31:17 5 C 40 %
185 14-12-2019 06:41:17 5.2 C 39 %
186 14-12-2019 06:51:18 5.6 C 36 %
187 14-12-2019 07:01:17 5.6 C 36 %
188 14-12-2019 07:11:18 5.7 C 36 %
189 14-12-2019 07:21:17 5.8 C 36 %
190 14-12-2019 07:31:17 5.8 C 36 %
191 14-12-2019 07:41:17 6.3 C 37 %
192 14-12-2019 07:51:17 6.5 C 36 %
193 14-12-2019 08:01:17 6.8 C 35 %
194 14-12-2019 08:11:17 7 C 28 %
195 14-12-2019 08:21:17 7.2 C 26 %
196 14-12-2019 08:31:18 7.1 C 25 %
197 14-12-2019 08:41:18 6.9 C 25 %
198 14-12-2019 08:51:17 6.7 C 25 %
199 14-12-2019 09:01:17 6.9 C 23 %
200 14-12-2019 09:11:17 6.7 C 23 %
Sensor: Nr:Datum:Temp:Feuchte:
Aussen-T/F 201 14-12-2019 09:21:18 6.5 C 23 %
202 14-12-2019 09:31:18 6.7 C 20 %
203 14-12-2019 09:41:18 6.5 C 21 %
204 14-12-2019 09:51:17 6.7 C 21 %
205 14-12-2019 10:01:17 6.7 C 21 %
206 14-12-2019 10:11:17 6.6 C 23 %
207 14-12-2019 10:21:17 6.6 C 25 %
208 14-12-2019 10:31:17 6.7 C 25 %
209 14-12-2019 10:41:17 6.4 C 26 %
210 14-12-2019 10:51:17 5.9 C 29 %
211 14-12-2019 11:01:18 5.9 C 29 %
212 14-12-2019 11:11:18 6.4 C 27 %
213 14-12-2019 11:21:17 6.7 C 26 %
214 14-12-2019 11:31:17 6.3 C 26 %
215 14-12-2019 11:41:17 6.4 C 25 %
216 14-12-2019 11:51:17 6.9 C 20 %
217 14-12-2019 12:01:17 7 C 20 %
218 14-12-2019 12:11:17 7.2 C 20 %
219 14-12-2019 12:21:18 7 C 20 %
220 14-12-2019 12:31:17 7.3 C 20 %
221 14-12-2019 12:41:17 7.6 C 20 %
222 14-12-2019 12:51:17 7.8 C 20 %
223 14-12-2019 13:01:17 7.9 C 20 %
224 14-12-2019 13:11:17 8 C 20 %
225 14-12-2019 13:21:17 8.4 C 20 %
Sensor: Nr:Datum:Temp:Feuchte:
Aussen-T/F 226 14-12-2019 13:31:17 8.4 C 20 %
227 14-12-2019 13:41:17 8.3 C 20 %
228 14-12-2019 13:51:17 8.4 C 20 %
229 14-12-2019 14:01:18 8.5 C 20 %
230 14-12-2019 14:11:18 8.4 C 20 %
231 14-12-2019 14:21:17 8.4 C 20 %
232 14-12-2019 14:31:18 8.7 C 20 %
233 14-12-2019 14:41:18 8.8 C 20 %
234 14-12-2019 14:51:18 8.6 C 20 %
235 14-12-2019 15:01:17 7.3 C 23 %
236 14-12-2019 15:11:17 6.8 C 28 %
237 14-12-2019 15:21:17 6.6 C 30 %
238 14-12-2019 15:31:17 6.7 C 28 %
239 14-12-2019 15:41:18 6.8 C 28 %
240 14-12-2019 15:51:17 7.1 C 26 %
241 14-12-2019 16:01:17 7 C 26 %
242 14-12-2019 16:11:17 6.9 C 26 %
243 14-12-2019 16:21:17 6.9 C 27 %
244 14-12-2019 16:31:18 7.2 C 25 %
245 14-12-2019 16:41:18 7.6 C 25 %
246 14-12-2019 16:51:17 7.5 C 25 %
247 14-12-2019 17:01:17 7.6 C 25 %
248 14-12-2019 17:11:17 7.6 C 25 %
249 14-12-2019 17:21:17 7.4 C 25 %
250 14-12-2019 17:31:18 7.2 C 26 %
Sensor: Nr:Datum:Temp:Feuchte:
Aussen-T/F 251 14-12-2019 17:41:18 6.9 C 27 %
252 14-12-2019 17:51:17 7.1 C 26 %
253 14-12-2019 18:01:17 7.1 C 26 %
254 14-12-2019 18:11:17 7.3 C 26 %
255 14-12-2019 18:22:17 7.6 C 25 %
256 14-12-2019 18:31:17 7.8 C 25 %
257 14-12-2019 18:41:17 7.4 C 25 %
258 14-12-2019 18:52:17 7 C 26 %
259 14-12-2019 19:01:18 6.7 C 27 %
260 14-12-2019 19:11:18 6.2 C 28 %
261 14-12-2019 19:21:17 6.4 C 26 %
262 14-12-2019 19:31:17 6.1 C 26 %
263 14-12-2019 19:41:17 6.4 C 25 %
264 14-12-2019 19:52:17 6.4 C 25 %
265 14-12-2019 20:01:18 6.6 C 25 %
266 14-12-2019 20:11:18 6.7 C 25 %
267 14-12-2019 20:21:17 6.9 C 25 %
268 14-12-2019 20:31:17 5.8 C 27 %
269 14-12-2019 20:41:17 5.9 C 27 %
270 14-12-2019 20:52:17 7 C 25 %
271 14-12-2019 21:01:17 7.2 C 25 %
272 14-12-2019 21:11:17 7 C 25 %
273 14-12-2019 21:22:17 7.1 C 25 %
274 14-12-2019 21:31:18 6.7 C 26 %
275 14-12-2019 21:41:18 6.8 C 26 %
Sensor: Nr:Datum:Temp:Feuchte:
Aussen-T/F 276 14-12-2019 21:52:17 6.9 C 26 %
277 14-12-2019 22:02:17 7.1 C 25 %
278 14-12-2019 22:11:17 6.8 C 26 %
279 14-12-2019 22:22:17 6.9 C 26 %
280 14-12-2019 22:31:17 7.3 C 25 %
281 14-12-2019 22:41:17 7 C 26 %
282 14-12-2019 22:52:17 7.3 C 25 %
283 14-12-2019 23:02:17 7.1 C 25 %
284 14-12-2019 23:12:17 7.3 C 25 %
285 14-12-2019 23:22:17 7 C 26 %
286 14-12-2019 23:31:18 7 C 26 %
287 14-12-2019 23:41:18 7.4 C 25 %
288 14-12-2019 23:51:18 7 C 25 %
289 15-12-2019 00:02:17 6.4 C 27 %
290 15-12-2019 00:11:17 6 C 28 %
291 15-12-2019 00:22:17 5.6 C 30 %
292 15-12-2019 00:31:18 5.3 C 31 %
293 15-12-2019 00:41:18 5.1 C 32 %
294 15-12-2019 00:52:17 5.2 C 32 %
295 15-12-2019 01:02:17 5.2 C 32 %
296 15-12-2019 01:12:17 5.3 C 33 %
297 15-12-2019 01:22:17 5.5 C 33 %
298 15-12-2019 01:31:18 5.7 C 31 %
299 15-12-2019 01:41:18 5.6 C 31 %
300 15-12-2019 01:52:17 5.6 C 31 %
Sensor: Nr:Datum:Temp:Feuchte:
Aussen-T/F 301 15-12-2019 02:02:17 5.9 C 31 %
302 15-12-2019 02:12:17 5.8 C 32 %
303 15-12-2019 02:22:17 5.9 C 32 %
304 15-12-2019 02:32:18 5.7 C 35 %
305 15-12-2019 02:42:18 5.8 C 37 %
306 15-12-2019 02:52:17 5.9 C 39 %
307 15-12-2019 03:02:18 5.9 C 40 %
308 15-12-2019 03:12:18 5.9 C 41 %
309 15-12-2019 03:22:17 6 C 41 %
310 15-12-2019 03:32:17 6 C 42 %
311 15-12-2019 03:42:17 6.3 C 42 %
312 15-12-2019 03:52:17 6.4 C 42 %
313 15-12-2019 04:02:17 6.8 C 42 %
314 15-12-2019 04:12:17 7.3 C 41 %
315 15-12-2019 04:22:17 7.3 C 41 %
316 15-12-2019 04:32:17 7.5 C 41 %
317 15-12-2019 04:42:17 7.9 C 40 %
318 15-12-2019 04:52:17 8 C 39 %
319 15-12-2019 05:02:17 8.2 C 38 %
320 15-12-2019 05:12:17 8.2 C 37 %
321 15-12-2019 05:22:17 8.4 C 37 %
322 15-12-2019 05:32:18 9 C 34 %
323 15-12-2019 05:42:18 10 C 30 %
324 15-12-2019 05:52:17 10.2 C 30 %
325 15-12-2019 06:02:17 10.3 C 29 %
Sensor: Nr:Datum:Temp:Feuchte:
Aussen-T/F 326 15-12-2019 06:12:17 10.3 C 29 %
327 15-12-2019 06:22:17 10.1 C 29 %
328 15-12-2019 06:32:17 10.5 C 28 %
329 15-12-2019 06:42:17 10.8 C 27 %
330 15-12-2019 06:52:17 10.7 C 27 %
331 15-12-2019 07:02:17 10.5 C 27 %
332 15-12-2019 07:12:17 10.9 C 27 %
333 15-12-2019 07:22:17 10.3 C 27 %
334 15-12-2019 07:32:17 10.6 C 27 %
335 15-12-2019 07:42:17 10.5 C 27 %
336 15-12-2019 07:52:17 10.7 C 27 %
337 15-12-2019 08:02:17 10.7 C 27 %
338 15-12-2019 08:12:17 11 C 26 %
339 15-12-2019 08:22:17 10.9 C 27 %
340 15-12-2019 08:32:18 10.6 C 27 %
341 15-12-2019 08:42:18 10.2 C 28 %
342 15-12-2019 08:52:17 9.5 C 34 %
343 15-12-2019 09:02:17 9.2 C 34 %
344 15-12-2019 09:12:17 8.9 C 35 %
345 15-12-2019 09:22:17 8.7 C 33 %
346 15-12-2019 09:32:17 8.5 C 34 %
347 15-12-2019 09:42:17 8.2 C 35 %
348 15-12-2019 09:52:18 8 C 36 %
349 15-12-2019 10:02:18 8.1 C 34 %
350 15-12-2019 10:12:18 8.2 C 32 %
Sensor: Nr:Datum:Temp:Feuchte:
Aussen-T/F 351 15-12-2019 10:22:18 8.2 C 34 %
352 15-12-2019 10:32:17 8.1 C 33 %
353 15-12-2019 10:42:17 8.5 C 31 %
354 15-12-2019 10:52:17 8.7 C 30 %
355 15-12-2019 11:02:17 8.4 C 30 %
356 15-12-2019 11:12:17 8.5 C 30 %
357 15-12-2019 11:22:17 8.5 C 28 %
358 15-12-2019 11:32:17 8.6 C 28 %
359 15-12-2019 11:42:17 8.6 C 28 %
360 15-12-2019 11:52:17 8.3 C 27 %
361 15-12-2019 12:02:17 8.3 C 27 %
362 15-12-2019 12:12:17 8.1 C 27 %
363 15-12-2019 12:22:17 8.1 C 28 %
364 15-12-2019 12:32:17 7.9 C 29 %
365 15-12-2019 12:42:17 8.2 C 28 %
366 15-12-2019 12:52:18 8.4 C 28 %
367 15-12-2019 13:02:18 8.7 C 27 %
368 15-12-2019 13:12:18 9.1 C 25 %
369 15-12-2019 13:22:17 9.3 C 23 %
370 15-12-2019 13:32:17 9.2 C 21 %
371 15-12-2019 13:42:17 9.2 C 20 %
372 15-12-2019 13:52:18 9.2 C 20 %
373 15-12-2019 14:02:17 9.2 C 20 %
374 15-12-2019 14:12:17 9.3 C 20 %
375 15-12-2019 14:22:17 9.3 C 20 %
Sensor: Nr:Datum:Temp:Feuchte:
Aussen-T/F 376 15-12-2019 14:32:17 9.1 C 20 %
377 15-12-2019 14:42:17 9.1 C 20 %
378 15-12-2019 14:52:17 9 C 20 %
379 15-12-2019 15:02:17 9 C 20 %
380 15-12-2019 15:12:17 8.9 C 20 %
381 15-12-2019 15:22:17 8.9 C 20 %
382 15-12-2019 15:32:17 8.8 C 20 %
383 15-12-2019 15:42:17 8.7 C 20 %
384 15-12-2019 15:52:17 8.7 C 20 %
385 15-12-2019 16:02:17 8.4 C 20 %
386 15-12-2019 16:12:17 8.2 C 20 %
387 15-12-2019 16:22:18 8.4 C 20 %
388 15-12-2019 16:32:17 7.9 C 20 %
389 15-12-2019 16:42:17 7.6 C 20 %
390 15-12-2019 16:52:17 8 C 20 %
391 15-12-2019 17:02:17 7.4 C 20 %
392 15-12-2019 17:12:17 7.4 C 20 %
393 15-12-2019 17:22:17 7.8 C 20 %
394 15-12-2019 17:32:17 7.2 C 21 %
395 15-12-2019 17:42:17 7.6 C 20 %
396 15-12-2019 17:52:17 7.7 C 20 %
397 15-12-2019 18:02:17 7.5 C 20 %
398 15-12-2019 18:12:17 8.2 C 20 %
399 15-12-2019 18:22:17 7.5 C 20 %
400 15-12-2019 18:32:17 6.9 C 25 %
Sensor: Nr:Datum:Temp:Feuchte:
Aussen-T/F 401 15-12-2019 18:42:17 6.2 C 27 %
402 15-12-2019 18:52:18 5.9 C 29 %
403 15-12-2019 19:02:17 5.4 C 30 %
404 15-12-2019 19:12:17 5.3 C 31 %
405 15-12-2019 19:22:17 4.9 C 32 %
406 15-12-2019 19:32:18 5.3 C 32 %
407 15-12-2019 19:42:18 5 C 33 %
408 15-12-2019 19:52:17 5.4 C 33 %
409 15-12-2019 20:02:17 5.2 C 33 %
410 15-12-2019 20:12:17 4.7 C 35 %
411 15-12-2019 20:22:17 4.4 C 36 %
412 15-12-2019 20:32:17 4.3 C 37 %
413 15-12-2019 20:42:17 3.9 C 39 %
414 15-12-2019 20:52:17 3.7 C 40 %
415 15-12-2019 21:02:17 3.5 C 41 %
416 15-12-2019 21:12:17 3.3 C 41 %
417 15-12-2019 21:22:17 3.1 C 41 %
418 15-12-2019 21:32:18 2.8 C 42 %
419 15-12-2019 21:42:18 2.9 C 43 %
420 15-12-2019 21:52:17 3.3 C 43 %
421 15-12-2019 22:02:17 3.3 C 44 %
422 15-12-2019 22:12:17 3.3 C 43 %
423 15-12-2019 22:22:17 3.5 C 43 %
424 15-12-2019 22:32:17 3.5 C 43 %
425 15-12-2019 22:42:17 3.4 C 43 %
Sensor: Nr:Datum:Temp:Feuchte:
Aussen-T/F 426 15-12-2019 22:52:18 3.3 C 43 %
427 15-12-2019 23:02:17 3.5 C 43 %
428 15-12-2019 23:12:18 3.6 C 43 %
429 15-12-2019 23:22:17 3.7 C 43 %
430 15-12-2019 23:32:18 3.5 C 42 %
431 15-12-2019 23:42:18 3.3 C 42 %
432 15-12-2019 23:52:17 3.8 C 43 %
433 16-12-2019 00:02:17 4 C 42 %
434 16-12-2019 00:12:17 4.4 C 42 %
435 16-12-2019 00:22:17 4.4 C 42 %
436 16-12-2019 00:32:17 4.5 C 42 %
437 16-12-2019 00:42:17 4.5 C 42 %
438 16-12-2019 00:52:18 4.7 C 42 %
439 16-12-2019 01:02:17 5.1 C 41 %
440 16-12-2019 01:12:17 5 C 41 %
441 16-12-2019 01:22:17 5.2 C 42 %
442 16-12-2019 01:32:17 5.2 C 41 %
443 16-12-2019 01:42:18 5.3 C 42 %
444 16-12-2019 01:52:17 5.5 C 42 %
445 16-12-2019 02:02:18 5.4 C 42 %
446 16-12-2019 02:12:18 5.5 C 42 %
447 16-12-2019 02:22:17 5.7 C 42 %
448 16-12-2019 02:32:17 5.7 C 42 %
449 16-12-2019 02:42:17 5.9 C 42 %
450 16-12-2019 02:52:18 5.8 C 41 %
Sensor: Nr:Datum:Temp:Feuchte:
Aussen-T/F 451 16-12-2019 03:02:17 5.8 C 41 %
452 16-12-2019 03:12:17 5.9 C 41 %
453 16-12-2019 03:22:17 5.9 C 41 %
454 16-12-2019 03:32:18 5.9 C 41 %
455 16-12-2019 03:42:18 5.8 C 41 %
456 16-12-2019 03:52:17 6 C 41 %
457 16-12-2019 04:02:17 6 C 41 %
458 16-12-2019 04:12:17 6 C 41 %
459 16-12-2019 04:22:17 5.9 C 41 %
460 16-12-2019 04:32:17 6.1 C 41 %
461 16-12-2019 04:42:17 6.2 C 41 %
462 16-12-2019 04:52:17 6.3 C 41 %
463 16-12-2019 05:02:17 6.4 C 41 %
464 16-12-2019 05:12:17 6.4 C 41 %
465 16-12-2019 05:22:17 6.5 C 41 %
466 16-12-2019 05:32:17 6.6 C 41 %
467 16-12-2019 05:42:17 6.6 C 41 %
468 16-12-2019 05:52:17 6.8 C 41 %
469 16-12-2019 06:02:17 6.9 C 41 %
470 16-12-2019 06:12:17 6.9 C 41 %
471 16-12-2019 06:22:17 6.8 C 40 %
472 16-12-2019 06:32:17 6.7 C 40 %
473 16-12-2019 06:42:17 6.8 C 40 %
474 16-12-2019 06:52:17 6.8 C 40 %
475 16-12-2019 07:02:17 6.8 C 40 %
Sensor: Nr:Datum:Temp:Feuchte:
Aussen-T/F 476 16-12-2019 07:12:17 6.7 C 40 %
477 16-12-2019 07:22:17 6.8 C 40 %
478 16-12-2019 07:32:18 6.9 C 41 %
479 16-12-2019 07:42:18 6.9 C 41 %
480 16-12-2019 07:52:17 7 C 40 %
481 16-12-2019 08:02:17 7.1 C 40 %
482 16-12-2019 08:12:17 7 C 40 %
483 16-12-2019 08:22:17 7.1 C 40 %
484 16-12-2019 08:32:17 7.1 C 40 %
485 16-12-2019 08:42:17 7.1 C 40 %
486 16-12-2019 08:52:17 7.2 C 40 %
487 16-12-2019 09:02:17 7.3 C 40 %
488 16-12-2019 09:12:17 7.5 C 40 %
489 16-12-2019 09:22:18 7.4 C 40 %
490 16-12-2019 09:32:17 7.5 C 40 %
491 16-12-2019 09:42:17 7.5 C 40 %
492 16-12-2019 09:52:17 7.6 C 40 %
493 16-12-2019 10:02:18 7.6 C 40 %
494 16-12-2019 10:12:18 7.7 C 40 %
495 16-12-2019 10:22:17 7.8 C 40 %
496 16-12-2019 10:32:17 7.9 C 40 %
497 16-12-2019 10:42:17 8.1 C 40 %
498 16-12-2019 10:52:17 8.2 C 40 %
499 16-12-2019 11:02:17 8.3 C 40 %
500 16-12-2019 11:12:17 8.5 C 40 %
Sensor: Nr:Datum:Temp:Feuchte:
Aussen-T/F 501 16-12-2019 11:22:17 8.9 C 40 %
502 16-12-2019 11:32:18 8.8 C 39 %
503 16-12-2019 11:42:18 9.1 C 39 %
504 16-12-2019 11:52:17 9.4 C 39 %
505 16-12-2019 12:02:17 9.3 C 38 %
506 16-12-2019 12:12:17 9.3 C 37 %
507 16-12-2019 12:22:17 9.3 C 37 %
508 16-12-2019 12:32:17 9.4 C 37 %
509 16-12-2019 12:42:17 9.4 C 38 %
510 16-12-2019 12:52:17 9.8 C 38 %
511 16-12-2019 13:02:17 9.9 C 36 %
512 16-12-2019 13:12:17 9.9 C 36 %
513 16-12-2019 13:22:17 10 C 35 %
514 16-12-2019 13:32:17 10.2 C 34 %
515 16-12-2019 13:42:17 10.2 C 35 %
516 16-12-2019 13:52:18 10.3 C 34 %
517 16-12-2019 14:02:17 10.1 C 34 %
518 16-12-2019 14:12:17 10.2 C 34 %
519 16-12-2019 14:22:17 10.3 C 34 %
520 16-12-2019 14:32:17 10.2 C 33 %
521 16-12-2019 14:42:17 10.1 C 34 %
522 16-12-2019 14:52:18 10.1 C 34 %
523 16-12-2019 15:02:17 9.9 C 35 %
524 16-12-2019 15:12:17 9.8 C 35 %
525 16-12-2019 15:22:17 9.6 C 36 %
Sensor: Nr:Datum:Temp:Feuchte:
Aussen-T/F 526 16-12-2019 15:32:18 9.3 C 37 %
527 16-12-2019 15:42:18 9.1 C 39 %
528 16-12-2019 15:52:17 9 C 40 %
529 16-12-2019 16:02:17 8.7 C 40 %
530 16-12-2019 16:12:17 8.5 C 40 %
531 16-12-2019 16:22:17 8.4 C 40 %
532 16-12-2019 16:32:18 8.2 C 41 %
533 16-12-2019 16:42:18 8 C 40 %
534 16-12-2019 16:52:17 7.7 C 41 %
535 16-12-2019 17:02:17 7.4 C 41 %
536 16-12-2019 17:12:17 7.3 C 41 %
537 16-12-2019 17:22:17 7.5 C 41 %
538 16-12-2019 17:32:17 7.3 C 41 %
539 16-12-2019 17:42:17 7.2 C 41 %
540 16-12-2019 17:52:17 7 C 41 %
541 16-12-2019 18:02:17 7.1 C 41 %
542 16-12-2019 18:12:17 7.4 C 41 %
543 16-12-2019 18:22:17 7.5 C 41 %
544 16-12-2019 18:32:17 8.2 C 40 %
545 16-12-2019 18:42:17 8.1 C 38 %
546 16-12-2019 18:52:17 8.7 C 37 %
547 16-12-2019 19:02:18 8.5 C 35 %
548 16-12-2019 19:12:18 7.9 C 36 %
549 16-12-2019 19:22:17 7.7 C 37 %
550 16-12-2019 19:32:17 8.5 C 40 %
Sensor: Nr:Datum:Temp:Feuchte:
Aussen-T/F 551 16-12-2019 19:42:17 7.9 C 37 %
552 16-12-2019 19:52:18 8 C 37 %
553 16-12-2019 20:02:17 7.9 C 37 %
554 16-12-2019 20:12:17 8.1 C 36 %
555 16-12-2019 20:22:17 7.7 C 37 %
556 16-12-2019 20:32:17 8 C 39 %
557 16-12-2019 20:42:17 7.9 C 36 %
558 16-12-2019 20:52:17 7.8 C 36 %
559 16-12-2019 21:02:17 7.3 C 37 %
560 16-12-2019 21:12:17 7.2 C 40 %
561 16-12-2019 21:22:17 7.5 C 39 %
562 16-12-2019 21:32:17 7.2 C 38 %
563 16-12-2019 21:42:17 7 C 40 %
564 16-12-2019 21:52:17 6.7 C 41 %
565 16-12-2019 22:02:17 6.9 C 41 %
566 16-12-2019 22:12:17 7.5 C 40 %
567 16-12-2019 22:22:17 7.4 C 38 %
568 16-12-2019 22:32:17 7.9 C 37 %
569 16-12-2019 22:42:17 7.8 C 36 %
570 16-12-2019 22:52:18 7.3 C 37 %
571 16-12-2019 23:02:17 7.3 C 39 %
572 16-12-2019 23:12:17 7.3 C 39 %
573 16-12-2019 23:22:17 7.5 C 40 %
574 16-12-2019 23:32:17 7.6 C 39 %
575 16-12-2019 23:42:17 7.6 C 39 %
Sensor: Nr:Datum:Temp:Feuchte:
Aussen-T/F 576 16-12-2019 23:52:18 7.8 C 39 %
577 17-12-2019 00:02:17 7.6 C 37 %
578 17-12-2019 00:12:17 7.5 C 38 %
579 17-12-2019 00:22:17 7.6 C 38 %
580 17-12-2019 00:32:18 7.3 C 39 %
581 17-12-2019 00:42:18 7.2 C 40 %
582 17-12-2019 00:52:17 7.4 C 39 %
583 17-12-2019 01:02:17 7.2 C 39 %
584 17-12-2019 01:12:17 7.4 C 40 %
585 17-12-2019 01:22:17 7.8 C 39 %
586 17-12-2019 01:32:17 7.3 C 37 %
587 17-12-2019 01:42:17 7.4 C 38 %
588 17-12-2019 01:52:17 7.4 C 37 %
589 17-12-2019 02:02:18 7.4 C 37 %
590 17-12-2019 02:12:18 7.6 C 37 %
591 17-12-2019 02:22:17 7.3 C 37 %
592 17-12-2019 02:32:17 7.1 C 37 %
593 17-12-2019 02:42:17 7.5 C 36 %
594 17-12-2019 02:52:18 7.6 C 36 %
595 17-12-2019 03:02:17 8 C 35 %
596 17-12-2019 03:12:17 8.1 C 35 %
597 17-12-2019 03:22:17 8.4 C 35 %
598 17-12-2019 03:32:17 8.8 C 32 %
599 17-12-2019 03:42:17 8.9 C 32 %
600 17-12-2019 03:52:18 8.8 C 32 %
Sensor: Nr:Datum:Temp:Feuchte:
Aussen-T/F 601 17-12-2019 04:02:17 8.5 C 32 %
602 17-12-2019 04:12:17 8.5 C 32 %
603 17-12-2019 04:22:17 8.4 C 32 %
604 17-12-2019 04:32:17 8.4 C 32 %
605 17-12-2019 04:42:17 8 C 32 %
606 17-12-2019 04:52:18 8.3 C 33 %
607 17-12-2019 05:02:17 8.5 C 33 %
608 17-12-2019 05:12:17 8.5 C 33 %
609 17-12-2019 05:22:17 8.2 C 33 %
610 17-12-2019 05:32:17 8.1 C 34 %
611 17-12-2019 05:42:17 7.9 C 35 %
612 17-12-2019 05:52:17 7.9 C 36 %
613 17-12-2019 06:02:17 7.8 C 36 %
614 17-12-2019 06:12:17 7.3 C 36 %
615 17-12-2019 06:22:18 7.3 C 38 %
616 17-12-2019 06:32:17 7.5 C 38 %
617 17-12-2019 06:42:17 7.6 C 36 %
618 17-12-2019 06:52:17 7.6 C 38 %
619 17-12-2019 07:02:17 7.7 C 36 %
620 17-12-2019 07:12:17 7.6 C 37 %
621 17-12-2019 07:22:17 7.5 C 36 %
622 17-12-2019 07:32:18 7 C 37 %
623 17-12-2019 07:42:18 7.4 C 38 %
624 17-12-2019 07:52:17 7.2 C 36 %
625 17-12-2019 08:02:17 7.2 C 36 %
Sensor: Nr:Datum:Temp:Feuchte:
Aussen-T/F 626 17-12-2019 08:12:17 6.9 C 37 %
627 17-12-2019 08:22:17 6.9 C 38 %
628 17-12-2019 08:32:17 7 C 38 %
629 17-12-2019 08:42:18 6.9 C 37 %
630 17-12-2019 08:52:17 6.9 C 37 %
631 17-12-2019 09:02:17 6.5 C 38 %
632 17-12-2019 09:12:17 6.4 C 39 %
633 17-12-2019 09:22:18 6.5 C 40 %
634 17-12-2019 09:32:17 6.4 C 40 %
635 17-12-2019 09:42:17 6.6 C 40 %
636 17-12-2019 09:52:17 6.3 C 39 %
637 17-12-2019 10:02:18 6.4 C 40 %
638 17-12-2019 10:12:18 6.4 C 40 %
639 17-12-2019 10:22:17 6.4 C 39 %
640 17-12-2019 10:32:17 6.8 C 40 %
641 17-12-2019 10:42:17 7.2 C 37 %
642 17-12-2019 10:52:17 8 C 36 %
643 17-12-2019 11:02:17 8.6 C 34 %
644 17-12-2019 11:12:17 8.5 C 32 %
645 17-12-2019 11:22:17 8.7 C 32 %
646 17-12-2019 11:32:17 9 C 32 %
647 17-12-2019 11:42:17 9.1 C 32 %
648 17-12-2019 11:52:17 9 C 32 %
649 17-12-2019 12:02:17 9 C 34 %
650 17-12-2019 12:12:17 9.2 C 34 %
Sensor: Nr:Datum:Temp:Feuchte:
Aussen-T/F 651 17-12-2019 12:22:17 9.5 C 33 %
652 17-12-2019 12:32:17 9.7 C 32 %
653 17-12-2019 12:42:17 9.8 C 32 %
654 17-12-2019 12:52:17 9.6 C 32 %
655 17-12-2019 13:02:17 10.1 C 31 %
656 17-12-2019 13:12:17 10.4 C 30 %
657 17-12-2019 13:22:17 10.6 C 30 %
658 17-12-2019 13:32:17 11 C 29 %
659 17-12-2019 13:42:17 11.6 C 28 %
660 17-12-2019 13:52:18 12.3 C 26 %
661 17-12-2019 14:02:17 12.5 C 26 %
662 17-12-2019 14:12:17 12.4 C 26 %
663 17-12-2019 14:22:17 11.6 C 27 %
664 17-12-2019 14:32:17 11.4 C 27 %
665 17-12-2019 14:42:17 11.5 C 27 %
666 17-12-2019 14:52:17 11.8 C 27 %
667 17-12-2019 15:02:17 12 C 26 %
668 17-12-2019 15:12:17 12 C 26 %
669 17-12-2019 15:22:17 11.8 C 27 %
670 17-12-2019 15:32:17 11.8 C 27 %
671 17-12-2019 15:42:17 12.3 C 25 %
672 17-12-2019 15:52:18 12.2 C 25 %
673 17-12-2019 16:02:17 12.4 C 25 %
674 17-12-2019 16:12:17 12.4 C 25 %
675 17-12-2019 16:22:17 12.5 C 25 %
Sensor: Nr:Datum:Temp:Feuchte:
Aussen-T/F 676 17-12-2019 16:32:18 12.6 C 25 %
677 17-12-2019 16:42:18 12.2 C 25 %
678 17-12-2019 16:52:17 11.8 C 25 %
679 17-12-2019 17:02:17 11.2 C 26 %
680 17-12-2019 17:12:18 11.5 C 25 %
681 17-12-2019 17:22:17 12 C 24 %
682 17-12-2019 17:32:18 13.1 C 20 %
683 17-12-2019 17:42:18 13.4 C 20 %
684 17-12-2019 17:52:17 13.8 C 20 %
685 17-12-2019 18:02:17 13.4 C 20 %
686 17-12-2019 18:12:17 13.2 C 20 %
687 17-12-2019 18:22:17 13.6 C 20 %
688 17-12-2019 18:32:17 13.7 C 20 %
689 17-12-2019 18:42:17 13.1 C 21 %
690 17-12-2019 18:52:17 12.7 C 25 %
691 17-12-2019 19:02:17 12.8 C 25 %
692 17-12-2019 19:12:17 13.1 C 22 %
693 17-12-2019 19:22:17 12.8 C 25 %
694 17-12-2019 19:32:18 11.7 C 29 %
695 17-12-2019 19:42:18 11.6 C 29 %
696 17-12-2019 19:52:17 11.6 C 30 %
697 17-12-2019 20:02:18 11.6 C 30 %
698 17-12-2019 20:12:18 11.5 C 31 %
699 17-12-2019 20:22:17 11.6 C 31 %
700 17-12-2019 20:32:17 11.3 C 33 %
Sensor: Nr:Datum:Temp:Feuchte:
Aussen-T/F 701 17-12-2019 20:42:17 11.2 C 35 %
702 17-12-2019 20:52:17 11 C 36 %
703 17-12-2019 21:02:17 10.9 C 36 %
704 17-12-2019 21:12:17 10.5 C 38 %
705 17-12-2019 21:22:17 10.3 C 39 %
706 17-12-2019 21:32:17 10.4 C 38 %
707 17-12-2019 21:42:17 11.5 C 31 %
708 17-12-2019 21:52:17 11.3 C 31 %
709 17-12-2019 22:02:17 13 C 25 %
710 17-12-2019 22:12:17 12.5 C 26 %
711 17-12-2019 22:22:17 13.1 C 25 %
712 17-12-2019 22:32:17 13.4 C 25 %
713 17-12-2019 22:42:17 13.2 C 25 %
714 17-12-2019 22:52:17 13.1 C 25 %
715 17-12-2019 23:02:17 12.4 C 26 %
716 17-12-2019 23:12:17 11.9 C 29 %
717 17-12-2019 23:22:17 11.3 C 30 %
718 17-12-2019 23:32:17 11.1 C 31 %
719 17-12-2019 23:42:17 11 C 30 %
720 17-12-2019 23:52:17 10.8 C 33 %
721 18-12-2019 00:02:17 10.4 C 35 %
722 18-12-2019 00:12:17 10.4 C 34 %
723 18-12-2019 00:22:17 10.5 C 34 %
724 18-12-2019 00:32:18 10.9 C 31 %
725 18-12-2019 00:42:18 11 C 30 %
Sensor: Nr:Datum:Temp:Feuchte:
Aussen-T/F 726 18-12-2019 00:52:17 11 C 30 %
727 18-12-2019 01:02:17 10.8 C 30 %
728 18-12-2019 01:12:17 11 C 29 %
729 18-12-2019 01:22:17 11.1 C 29 %
730 18-12-2019 01:32:18 10.9 C 30 %
731 18-12-2019 01:42:18 10.4 C 30 %
732 18-12-2019 01:52:17 10.8 C 30 %
733 18-12-2019 02:02:17 11.1 C 30 %
734 18-12-2019 02:12:17 11.1 C 29 %
735 18-12-2019 02:22:17 11.2 C 30 %
736 18-12-2019 02:32:17 11.3 C 29 %
737 18-12-2019 02:42:18 10.9 C 30 %
738 18-12-2019 02:52:17 10.9 C 31 %
739 18-12-2019 03:02:17 10.6 C 33 %
740 18-12-2019 03:12:17 10.3 C 35 %
741 18-12-2019 03:22:18 10.3 C 37 %
742 18-12-2019 03:32:17 10.1 C 37 %
743 18-12-2019 03:42:17 10 C 38 %
744 18-12-2019 03:52:18 10.1 C 38 %
745 18-12-2019 04:02:18 10 C 38 %
746 18-12-2019 04:12:18 9.9 C 38 %
747 18-12-2019 04:22:17 9.8 C 35 %
748 18-12-2019 04:32:18 9.6 C 34 %
749 18-12-2019 04:42:18 9.5 C 33 %
750 18-12-2019 04:52:17 9.3 C 33 %
Sensor: Nr:Datum:Temp:Feuchte:
Aussen-T/F 751 18-12-2019 05:02:18 9.2 C 33 %
752 18-12-2019 05:12:18 9.1 C 33 %
753 18-12-2019 05:22:17 8.8 C 35 %
754 18-12-2019 05:32:17 8.7 C 36 %
755 18-12-2019 05:42:17 8.2 C 36 %
756 18-12-2019 05:52:17 8.2 C 39 %
757 18-12-2019 06:02:18 8.1 C 39 %
758 18-12-2019 06:12:18 8 C 37 %
759 18-12-2019 06:22:17 8 C 37 %
760 18-12-2019 06:32:18 7.9 C 37 %
761 18-12-2019 06:42:18 7.5 C 37 %
762 18-12-2019 06:52:17 7.4 C 39 %
763 18-12-2019 07:02:17 7.2 C 40 %
764 18-12-2019 07:12:17 7.3 C 40 %
765 18-12-2019 07:22:17 7.3 C 40 %
766 18-12-2019 07:32:17 7.1 C 39 %
767 18-12-2019 07:42:17 6.8 C 40 %
768 18-12-2019 07:52:17 6.9 C 41 %
769 18-12-2019 08:02:17 6.7 C 41 %
770 18-12-2019 08:12:17 6.5 C 41 %
771 18-12-2019 08:22:17 6.5 C 41 %
772 18-12-2019 08:32:17 6.3 C 41 %
773 18-12-2019 08:42:17 6.4 C 42 %
774 18-12-2019 08:52:17 6.6 C 42 %
775 18-12-2019 09:02:17 6.5 C 41 %
Sensor: Nr:Datum:Temp:Feuchte:
Aussen-T/F 776 18-12-2019 09:12:17 6.1 C 40 %
777 18-12-2019 09:22:17 6 C 41 %
778 18-12-2019 09:32:17 6.5 C 42 %
779 18-12-2019 09:42:17 6.7 C 42 %
780 18-12-2019 09:52:17 6.9 C 41 %
781 18-12-2019 10:02:17 7 C 40 %
782 18-12-2019 10:12:18 7.1 C 40 %
783 18-12-2019 10:22:17 7.5 C 38 %
784 18-12-2019 10:32:17 7.5 C 36 %
785 18-12-2019 10:42:17 7.4 C 36 %
786 18-12-2019 10:52:17 6.9 C 38 %
787 18-12-2019 11:02:17 6.8 C 38 %
788 18-12-2019 11:12:17 6.8 C 38 %
789 18-12-2019 11:22:17 6.6 C 38 %
790 18-12-2019 11:32:18 6.7 C 39 %
791 18-12-2019 11:42:18 6.9 C 38 %
792 18-12-2019 11:52:17 7.6 C 35 %
793 18-12-2019 12:02:17 8.1 C 33 %
794 18-12-2019 12:12:17 8 C 32 %
795 18-12-2019 12:22:17 8.3 C 31 %
796 18-12-2019 12:32:17 8.6 C 30 %
797 18-12-2019 12:42:17 8.8 C 29 %
798 18-12-2019 12:52:17 8.7 C 29 %
799 18-12-2019 13:02:17 8.4 C 30 %
800 18-12-2019 13:12:17 8.2 C 30 %
Sensor: Nr:Datum:Temp:Feuchte:
Aussen-T/F 801 18-12-2019 13:22:17 7.9 C 31 %
802 18-12-2019 13:32:18 7.8 C 32 %
803 18-12-2019 13:42:18 7.7 C 33 %
804 18-12-2019 13:52:17 7.8 C 32 %
805 18-12-2019 14:02:18 7.8 C 33 %
806 18-12-2019 14:12:18 7.7 C 33 %
807 18-12-2019 14:22:17 7.5 C 34 %
808 18-12-2019 14:32:17 7.3 C 35 %
809 18-12-2019 14:42:17 7.2 C 35 %
810 18-12-2019 14:52:17 7.2 C 35 %
811 18-12-2019 15:02:17 7.2 C 35 %
812 18-12-2019 15:12:17 7 C 36 %
813 18-12-2019 15:22:17 7 C 36 %
814 18-12-2019 15:32:17 6.7 C 37 %
815 18-12-2019 15:42:17 6.8 C 37 %
816 18-12-2019 15:52:17 6.7 C 36 %
817 18-12-2019 16:02:17 6.6 C 36 %
818 18-12-2019 16:12:17 6.5 C 36 %
819 18-12-2019 16:22:17 6.4 C 36 %
820 18-12-2019 16:32:17 6 C 36 %
821 18-12-2019 16:42:17 5.8 C 37 %
822 18-12-2019 16:52:17 5.7 C 39 %
823 18-12-2019 17:02:17 5.3 C 38 %
824 18-12-2019 17:12:17 4.9 C 40 %
825 18-12-2019 17:22:17 5 C 42 %
Sensor: Nr:Datum:Temp:Feuchte:
Aussen-T/F 826 18-12-2019 17:32:17 4.4 C 41 %
827 18-12-2019 17:42:17 4.2 C 42 %
828 18-12-2019 17:52:18 4.1 C 42 %
829 18-12-2019 18:02:17 4.1 C 43 %
830 18-12-2019 18:12:17 4.1 C 43 %
831 18-12-2019 18:22:17 4.4 C 43 %
832 18-12-2019 18:32:17 4.5 C 43 %
833 18-12-2019 18:42:17 4.3 C 42 %
834 18-12-2019 18:52:17 4.6 C 43 %
835 18-12-2019 19:02:17 5 C 42 %
836 18-12-2019 19:12:17 4.7 C 42 %
837 18-12-2019 19:22:17 4.3 C 42 %
838 18-12-2019 19:32:18 4.9 C 43 %
839 18-12-2019 19:42:18 4.7 C 42 %
840 18-12-2019 19:52:17 4.6 C 42 %
841 18-12-2019 20:02:17 5 C 42 %
842 18-12-2019 20:12:17 5 C 41 %
843 18-12-2019 20:22:17 4.5 C 41 %
844 18-12-2019 20:32:17 4.5 C 41 %
845 18-12-2019 20:42:18 4.1 C 41 %
846 18-12-2019 20:52:17 3.9 C 42 %
847 18-12-2019 21:02:17 3.7 C 43 %
848 18-12-2019 21:12:17 3.6 C 42 %
849 18-12-2019 21:22:17 3.6 C 43 %
850 18-12-2019 21:32:17 3.7 C 43 %
Sensor: Nr:Datum:Temp:Feuchte:
Aussen-T/F 851 18-12-2019 21:42:17 3.6 C 43 %
852 18-12-2019 21:52:17 3.4 C 43 %
853 18-12-2019 22:02:17 3.1 C 43 %
854 18-12-2019 22:12:17 3.1 C 43 %
855 18-12-2019 22:22:17 2.7 C 43 %
856 18-12-2019 22:32:17 2.6 C 43 %
857 18-12-2019 22:42:17 2.5 C 43 %
858 18-12-2019 22:52:17 2.4 C 43 %
859 18-12-2019 23:02:17 2.4 C 43 %
860 18-12-2019 23:12:17 2.3 C 43 %
861 18-12-2019 23:22:18 2.3 C 43 %
862 18-12-2019 23:32:17 2 C 43 %
863 18-12-2019 23:42:17 2 C 43 %
864 18-12-2019 23:52:17 2 C 43 %
865 19-12-2019 00:02:18 2.3 C 44 %
866 19-12-2019 00:12:18 2 C 43 %
867 19-12-2019 00:22:17 2 C 43 %
868 19-12-2019 00:32:17 2.1 C 43 %
869 19-12-2019 00:42:17 2.4 C 44 %
870 19-12-2019 00:52:18 2.3 C 43 %
871 19-12-2019 01:02:17 2.1 C 43 %
872 19-12-2019 01:12:17 2 C 43 %
873 19-12-2019 01:22:17 2 C 43 %
874 19-12-2019 01:32:18 1.6 C 44 %
875 19-12-2019 01:42:18 1.9 C 44 %
Sensor: Nr:Datum:Temp:Feuchte:
Aussen-T/F 876 19-12-2019 01:52:17 2.3 C 43 %
877 19-12-2019 02:02:17 2.2 C 43 %
878 19-12-2019 02:12:17 2 C 43 %
879 19-12-2019 02:22:17 2 C 43 %
880 19-12-2019 02:32:18 2 C 43 %
881 19-12-2019 02:42:18 1.8 C 44 %
882 19-12-2019 02:52:17 2.1 C 43 %
883 19-12-2019 03:02:18 1.5 C 44 %
884 19-12-2019 03:12:18 1.6 C 44 %
885 19-12-2019 03:22:17 1.6 C 44 %
886 19-12-2019 03:32:17 1.8 C 44 %
887 19-12-2019 03:42:17 1.7 C 44 %
888 19-12-2019 03:52:17 1.7 C 44 %
889 19-12-2019 04:02:17 1.6 C 44 %
890 19-12-2019 04:12:17 1.5 C 44 %
891 19-12-2019 04:22:18 1.5 C 44 %
892 19-12-2019 04:32:17 1.5 C 44 %
893 19-12-2019 04:42:17 1.4 C 44 %
894 19-12-2019 04:52:18 1.6 C 44 %
895 19-12-2019 05:02:17 1.4 C 44 %
896 19-12-2019 05:12:17 1.5 C 44 %
897 19-12-2019 05:22:17 1.4 C 44 %
898 19-12-2019 05:32:17 1.3 C 44 %
899 19-12-2019 05:42:17 1.3 C 44 %
900 19-12-2019 05:52:17 1.1 C 44 %
Sensor: Nr:Datum:Temp:Feuchte:
Aussen-T/F 901 19-12-2019 06:02:17 1.1 C 44 %
902 19-12-2019 06:12:17 1.2 C 44 %
903 19-12-2019 06:22:17 1 C 44 %
904 19-12-2019 06:32:17 1.1 C 44 %
905 19-12-2019 06:42:18 1 C 43 %
906 19-12-2019 06:52:17 0.7 C 45 %
907 19-12-2019 07:02:17 1 C 44 %
908 19-12-2019 07:12:17 0.9 C 45 %
909 19-12-2019 07:22:17 1.7 C 44 %
910 19-12-2019 07:32:17 3.5 C 43 %
911 19-12-2019 07:42:18 3.2 C 42 %
912 19-12-2019 07:52:17 3.1 C 42 %
913 19-12-2019 08:02:18 4.6 C 42 %
914 19-12-2019 08:12:18 3.8 C 42 %
915 19-12-2019 08:22:17 3.7 C 42 %
916 19-12-2019 08:32:18 4.6 C 41 %
917 19-12-2019 08:42:18 4 C 41 %
918 19-12-2019 08:52:17 3.3 C 41 %
919 19-12-2019 09:02:17 4 C 41 %
920 19-12-2019 09:12:17 4.4 C 41 %
921 19-12-2019 09:22:17 4.1 C 41 %
922 19-12-2019 09:32:17 4.6 C 41 %
923 19-12-2019 09:42:17 4.4 C 41 %
924 19-12-2019 09:52:17 4.5 C 41 %
925 19-12-2019 10:02:17 4.7 C 41 %
Sensor: Nr:Datum:Temp:Feuchte:
Aussen-T/F 926 19-12-2019 10:12:17 4.9 C 41 %
927 19-12-2019 10:22:17 5.2 C 41 %
928 19-12-2019 10:32:17 7 C 40 %
929 19-12-2019 10:42:17 7.2 C 40 %
930 19-12-2019 10:52:18 6.7 C 40 %
931 19-12-2019 11:02:17 6.4 C 39 %
932 19-12-2019 11:12:17 6.3 C 39 %
933 19-12-2019 11:22:17 6.3 C 40 %
934 19-12-2019 11:32:17 6.4 C 40 %
935 19-12-2019 11:42:17 6.6 C 40 %
936 19-12-2019 11:52:18 6.7 C 40 %
937 19-12-2019 12:02:17 6.6 C 40 %
938 19-12-2019 12:12:17 6.7 C 40 %
939 19-12-2019 12:22:17 6.7 C 40 %
940 19-12-2019 12:32:17 7 C 39 %
941 19-12-2019 12:42:17 7 C 39 %
942 19-12-2019 12:52:17 7.1 C 39 %
943 19-12-2019 13:02:17 7.3 C 39 %
944 19-12-2019 13:12:17 7.1 C 38 %
945 19-12-2019 13:22:17 7.2 C 39 %
946 19-12-2019 13:32:17 7.2 C 39 %
947 19-12-2019 13:42:17 7.3 C 38 %
948 19-12-2019 13:52:17 7.3 C 38 %
949 19-12-2019 14:02:17 7.3 C 38 %
950 19-12-2019 14:12:17 7.1 C 38 %
Sensor: Nr:Datum:Temp:Feuchte:
Aussen-T/F 951 19-12-2019 14:22:17 7.1 C 38 %
952 19-12-2019 14:32:17 7.2 C 38 %
953 19-12-2019 14:42:17 7.3 C 37 %
954 19-12-2019 14:52:17 7.9 C 36 %
955 19-12-2019 15:02:17 8.1 C 34 %
956 19-12-2019 15:12:17 8.1 C 33 %
957 19-12-2019 15:22:17 8.4 C 32 %
958 19-12-2019 15:32:18 8.6 C 32 %
959 19-12-2019 15:42:18 8.7 C 31 %
960 19-12-2019 15:52:17 8.8 C 31 %
961 19-12-2019 16:02:17 8.7 C 30 %
962 19-12-2019 16:12:17 8.3 C 31 %
963 19-12-2019 16:22:18 8.1 C 31 %
964 19-12-2019 16:32:17 7.9 C 32 %
965 19-12-2019 16:42:17 7.9 C 31 %
966 19-12-2019 16:52:17 7.6 C 32 %
967 19-12-2019 17:02:17 7.4 C 32 %
968 19-12-2019 17:12:17 6 C 35 %
969 19-12-2019 17:22:17 5.7 C 37 %
970 19-12-2019 17:32:17 5.5 C 39 %
971 19-12-2019 17:42:17 5 C 39 %
972 19-12-2019 17:52:17 4.9 C 41 %
973 19-12-2019 18:02:17 5.2 C 42 %
974 19-12-2019 18:12:18 4.9 C 42 %
975 19-12-2019 18:22:17 5.2 C 42 %
Sensor: Nr:Datum:Temp:Feuchte:
Aussen-T/F 976 19-12-2019 18:32:17 5 C 41 %
977 19-12-2019 18:42:17 5 C 41 %
978 19-12-2019 18:52:18 5.8 C 42 %
979 19-12-2019 19:02:17 5.7 C 41 %
980 19-12-2019 19:12:17 5.2 C 39 %
981 19-12-2019 19:22:18 4.7 C 40 %
982 19-12-2019 19:32:17 4.9 C 42 %
983 19-12-2019 19:42:17 4.7 C 42 %
984 19-12-2019 19:52:17 4.8 C 42 %
985 19-12-2019 20:02:17 5 C 42 %
986 19-12-2019 20:12:17 5 C 41 %
987 19-12-2019 20:22:17 4.8 C 42 %
988 19-12-2019 20:32:17 5.1 C 42 %
989 19-12-2019 20:42:17 6 C 41 %
990 19-12-2019 20:52:17 6 C 38 %
991 19-12-2019 21:02:17 5.8 C 38 %
992 19-12-2019 21:12:18 5.8 C 39 %
993 19-12-2019 21:22:17 5.7 C 39 %
994 19-12-2019 21:32:17 5.8 C 40 %
995 19-12-2019 21:42:17 6 C 40 %
996 19-12-2019 21:52:17 5.7 C 40 %
997 19-12-2019 22:02:17 5.6 C 40 %
998 19-12-2019 22:12:17 5.8 C 41 %
999 19-12-2019 22:22:18 6.2 C 41 %
1000 19-12-2019 22:32:18 5.9 C 40 %
Sensor: Nr:Datum:Temp:Feuchte:
Aussen-T/F 1001 19-12-2019 22:42:18 5.1 C 38 %
1002 19-12-2019 22:52:17 5 C 41 %
1003 19-12-2019 23:02:17 5.4 C 43 %
1004 19-12-2019 23:12:17 5.5 C 42 %
1005 19-12-2019 23:22:17 5.5 C 42 %
1006 19-12-2019 23:32:17 5.4 C 42 %
1007 19-12-2019 23:42:17 5.4 C 42 %
1008 19-12-2019 23:52:17 5.1 C 41 %
1009 20-12-2019 00:02:17 4.8 C 42 %
1010 20-12-2019 00:12:17 4.3 C 41 %
1011 20-12-2019 00:22:17 4 C 41 %
1012 20-12-2019 00:32:17 3.9 C 43 %
1013 20-12-2019 00:42:17 3.7 C 42 %
1014 20-12-2019 00:52:17 3.4 C 43 %
1015 20-12-2019 01:02:17 3.1 C 42 %
1016 20-12-2019 01:12:17 3 C 43 %
1017 20-12-2019 01:22:17 3.3 C 44 %
1018 20-12-2019 01:32:17 3.1 C 43 %
1019 20-12-2019 01:42:17 3.1 C 43 %
1020 20-12-2019 01:52:17 2.8 C 44 %
1021 20-12-2019 02:02:17 2.8 C 44 %
1022 20-12-2019 02:12:17 2.6 C 44 %
1023 20-12-2019 02:22:17 2.5 C 44 %
1024 20-12-2019 02:32:18 3.2 C 44 %
1025 20-12-2019 02:42:18 3.4 C 44 %
Sensor: Nr:Datum:Temp:Feuchte:
Aussen-T/F 1026 20-12-2019 02:52:17 3.8 C 44 %
1027 20-12-2019 03:02:17 4.7 C 42 %
1028 20-12-2019 03:12:17 4.2 C 41 %
1029 20-12-2019 03:22:17 4.6 C 41 %
1030 20-12-2019 03:32:17 4.4 C 40 %
1031 20-12-2019 03:42:17 4.4 C 40 %
1032 20-12-2019 03:52:17 4.6 C 41 %
1033 20-12-2019 04:02:17 4.4 C 40 %
1034 20-12-2019 04:12:17 4.2 C 40 %
1035 20-12-2019 04:22:17 4 C 41 %
1036 20-12-2019 04:32:18 4.8 C 42 %
1037 20-12-2019 04:42:18 4.5 C 41 %
1038 20-12-2019 04:52:17 4.7 C 40 %
1039 20-12-2019 05:02:17 4.7 C 40 %
1040 20-12-2019 05:12:17 5.3 C 38 %
1041 20-12-2019 05:22:17 5.2 C 36 %
1042 20-12-2019 05:32:17 5.3 C 36 %
1043 20-12-2019 05:42:17 5.4 C 35 %
1044 20-12-2019 05:52:18 5.5 C 35 %
1045 20-12-2019 06:02:18 5.2 C 35 %
1046 20-12-2019 06:12:18 5.3 C 35 %
1047 20-12-2019 06:22:17 5.6 C 35 %
1048 20-12-2019 06:32:17 6 C 32 %
1049 20-12-2019 06:42:17 6 C 31 %
1050 20-12-2019 06:52:17 5.7 C 32 %
Sensor: Nr:Datum:Temp:Feuchte:
Aussen-T/F 1051 20-12-2019 07:02:17 5.8 C 31 %
1052 20-12-2019 07:12:17 5.9 C 31 %
1053 20-12-2019 07:22:17 6.1 C 31 %
1054 20-12-2019 07:32:17 5.9 C 33 %
1055 20-12-2019 07:42:17 6.4 C 31 %
1056 20-12-2019 07:52:17 6.8 C 30 %
1057 20-12-2019 08:02:17 7.1 C 27 %
1058 20-12-2019 08:12:17 6.4 C 31 %
1059 20-12-2019 08:22:17 6.4 C 32 %
1060 20-12-2019 08:32:18 6.5 C 32 %
1061 20-12-2019 08:42:18 6.3 C 32 %
1062 20-12-2019 08:52:17 6.3 C 33 %
1063 20-12-2019 09:02:17 6.5 C 33 %
1064 20-12-2019 09:12:17 6.7 C 31 %
1065 20-12-2019 09:22:17 6.5 C 33 %
1066 20-12-2019 09:32:17 6.4 C 35 %
1067 20-12-2019 09:42:17 6.5 C 35 %
1068 20-12-2019 09:52:17 6.5 C 34 %
1069 20-12-2019 10:02:17 6.2 C 31 %
1070 20-12-2019 10:12:17 6 C 33 %
1071 20-12-2019 10:22:17 5.7 C 35 %
1072 20-12-2019 10:32:17 5.8 C 40 %
1073 20-12-2019 10:42:17 5.9 C 42 %
1074 20-12-2019 10:52:17 6 C 42 %
1075 20-12-2019 11:02:17 6.1 C 42 %
Sensor: Nr:Datum:Temp:Feuchte:
Aussen-T/F 1076 20-12-2019 11:12:17 6 C 42 %
1077 20-12-2019 11:22:17 6.3 C 42 %
1078 20-12-2019 11:32:17 6.5 C 42 %
1079 20-12-2019 11:42:17 6.7 C 41 %
1080 20-12-2019 11:52:17 6.8 C 40 %
1081 20-12-2019 12:02:18 7 C 39 %
1082 20-12-2019 12:12:18 7.3 C 39 %
1083 20-12-2019 12:22:18 7.5 C 39 %
1084 20-12-2019 12:32:17 7.7 C 39 %
1085 20-12-2019 12:42:18 8 C 39 %
1086 20-12-2019 12:52:17 8.1 C 38 %
1087 20-12-2019 13:02:18 8.1 C 39 %
1088 20-12-2019 13:12:18 8.2 C 39 %
1089 20-12-2019 13:22:17 8.3 C 37 %
1090 20-12-2019 13:32:17 8.4 C 36 %
1091 20-12-2019 13:42:17 8.6 C 37 %
1092 20-12-2019 13:52:17 8.5 C 36 %
1093 20-12-2019 14:02:17 8.6 C 36 %
1094 20-12-2019 14:12:17 8.6 C 35 %
1095 20-12-2019 14:22:17 8.7 C 36 %
1096 20-12-2019 14:32:17 8.7 C 36 %
1097 20-12-2019 14:42:17 8.5 C 35 %
1098 20-12-2019 14:52:18 8.3 C 36 %
1099 20-12-2019 15:02:17 8.2 C 37 %
1100 20-12-2019 15:12:17 8.3 C 38 %
Sensor: Nr:Datum:Temp:Feuchte:
Aussen-T/F 1101 20-12-2019 15:22:17 8.3 C 39 %
1102 20-12-2019 15:32:17 8.2 C 40 %
1103 20-12-2019 15:42:17 8.3 C 41 %
1104 20-12-2019 15:52:17 8.2 C 40 %
1105 20-12-2019 16:02:17 8.2 C 40 %
1106 20-12-2019 16:12:18 8.3 C 40 %
1107 20-12-2019 16:22:17 8.3 C 41 %
1108 20-12-2019 16:32:17 8.4 C 41 %
1109 20-12-2019 16:42:17 8.4 C 41 %
1110 20-12-2019 16:52:18 8.6 C 41 %
1111 20-12-2019 17:02:17 9 C 41 %
1112 20-12-2019 17:12:18 9 C 40 %
1113 20-12-2019 17:22:17 9.1 C 36 %
1114 20-12-2019 17:32:17 8.7 C 38 %
1115 20-12-2019 17:42:17 8.8 C 37 %
1116 20-12-2019 17:52:18 8.7 C 38 %
1117 20-12-2019 18:02:17 8.9 C 37 %
1118 20-12-2019 18:12:17 8.9 C 36 %
1119 20-12-2019 18:22:17 8.9 C 37 %
1120 20-12-2019 18:32:17 8.9 C 37 %
1121 20-12-2019 18:42:17 9.7 C 33 %
1122 20-12-2019 18:52:18 9.5 C 31 %
1123 20-12-2019 19:02:17 9.8 C 30 %
1124 20-12-2019 19:12:17 10.1 C 28 %
1125 20-12-2019 19:22:17 9.9 C 29 %
Sensor: Nr:Datum:Temp:Feuchte:
Aussen-T/F 1126 20-12-2019 19:32:17 9.8 C 29 %
1127 20-12-2019 19:42:17 10 C 27 %
1128 20-12-2019 19:52:18 9.7 C 29 %
1129 20-12-2019 20:02:18 9.6 C 28 %
1130 20-12-2019 20:12:18 9.5 C 28 %
1131 20-12-2019 20:22:17 9.5 C 27 %
1132 20-12-2019 20:32:18 9 C 28 %
1133 20-12-2019 20:42:18 9 C 27 %
1134 20-12-2019 20:52:17 8.9 C 28 %
1135 20-12-2019 21:02:18 8.5 C 28 %
1136 20-12-2019 21:12:18 8.6 C 28 %
1137 20-12-2019 21:22:17 8.9 C 27 %
1138 20-12-2019 21:32:17 8.7 C 27 %
1139 20-12-2019 21:42:17 8.3 C 28 %
1140 20-12-2019 21:52:17 8.3 C 28 %
1141 20-12-2019 22:02:17 8.3 C 28 %
1142 20-12-2019 22:12:17 8.1 C 28 %
1143 20-12-2019 22:22:17 8.7 C 27 %
1144 20-12-2019 22:32:17 8.9 C 26 %
1145 20-12-2019 22:42:17 8.7 C 27 %
1146 20-12-2019 22:52:17 8.7 C 27 %
1147 20-12-2019 23:02:17 8.5 C 27 %
1148 20-12-2019 23:12:17 8.4 C 27 %
1149 20-12-2019 23:22:17 8.2 C 28 %
1150 20-12-2019 23:32:17 8 C 28 %
Sensor: Nr:Datum:Temp:Feuchte:
Aussen-T/F 1151 20-12-2019 23:42:17 8.3 C 27 %
1152 20-12-2019 23:52:18 8.1 C 27 %
1153 21-12-2019 00:02:17 7.9 C 28 %
1154 21-12-2019 00:12:17 7.7 C 28 %
1155 21-12-2019 00:22:17 7.5 C 30 %
1156 21-12-2019 00:32:17 7.5 C 30 %
1157 21-12-2019 00:42:17 7.2 C 30 %
1158 21-12-2019 00:52:18 7 C 30 %
1159 21-12-2019 01:02:17 6.9 C 32 %
1160 21-12-2019 01:12:17 7.3 C 31 %
1161 21-12-2019 01:22:17 7.4 C 31 %
1162 21-12-2019 01:32:17 7.3 C 32 %
1163 21-12-2019 01:42:17 7.5 C 31 %
1164 21-12-2019 01:52:17 7.5 C 32 %
1165 21-12-2019 02:02:17 7.9 C 30 %
1166 21-12-2019 02:12:17 8 C 29 %
1167 21-12-2019 02:22:17 8.2 C 28 %
1168 21-12-2019 02:32:18 7.8 C 30 %
1169 21-12-2019 02:42:18 7.8 C 30 %
1170 21-12-2019 02:52:17 7.8 C 30 %
1171 21-12-2019 03:02:17 7.5 C 30 %
1172 21-12-2019 03:12:17 7.5 C 31 %
1173 21-12-2019 03:22:17 7.4 C 31 %
1174 21-12-2019 03:32:18 7.3 C 31 %
1175 21-12-2019 03:42:18 7.1 C 31 %
Sensor: Nr:Datum:Temp:Feuchte:
Aussen-T/F 1176 21-12-2019 03:52:17 7.1 C 32 %
1177 21-12-2019 04:02:17 6.9 C 33 %
1178 21-12-2019 04:12:17 6.7 C 36 %
1179 21-12-2019 04:22:17 6.4 C 37 %
1180 21-12-2019 04:32:18 6 C 38 %
1181 21-12-2019 04:42:18 5.9 C 38 %
1182 21-12-2019 04:52:17 5.7 C 40 %
1183 21-12-2019 05:02:17 6 C 40 %
1184 21-12-2019 05:12:17 5.6 C 39 %
1185 21-12-2019 05:22:17 5.4 C 38 %
1186 21-12-2019 05:32:18 5.4 C 38 %
1187 21-12-2019 05:42:18 5.1 C 38 %
1188 21-12-2019 05:52:17 5.3 C 40 %
1189 21-12-2019 06:02:17 4.9 C 41 %
1190 21-12-2019 06:12:17 4.8 C 41 %
1191 21-12-2019 06:22:18 4.3 C 40 %
1192 21-12-2019 06:32:17 4.3 C 42 %
1193 21-12-2019 06:42:17 5 C 40 %
1194 21-12-2019 06:52:18 3.8 C 41 %
1195 21-12-2019 07:02:17 3.8 C 43 %
1196 21-12-2019 07:12:18 3.5 C 42 %
1197 21-12-2019 07:22:17 3.4 C 43 %
1198 21-12-2019 07:32:17 3.3 C 43 %
1199 21-12-2019 07:42:17 3 C 42 %
1200 21-12-2019 07:52:17 3 C 43 %
Sensor: Nr:Datum:Temp:Feuchte:
Aussen-T/F 1201 21-12-2019 08:02:17 3.1 C 44 %
1202 21-12-2019 08:12:17 3.6 C 44 %
1203 21-12-2019 08:22:17 3.7 C 44 %
1204 21-12-2019 08:32:17 3.9 C 43 %
1205 21-12-2019 08:42:17 4.6 C 43 %
1206 21-12-2019 08:52:17 4.9 C 42 %
1207 21-12-2019 09:02:17 5 C 39 %
1208 21-12-2019 09:12:17 4.5 C 38 %
1209 21-12-2019 09:22:17 4.4 C 38 %
1210 21-12-2019 09:32:17 4.4 C 39 %
1211 21-12-2019 09:42:17 4.6 C 40 %
1212 21-12-2019 09:52:17 4.6 C 38 %
1213 21-12-2019 10:02:17 4.8 C 38 %
1214 21-12-2019 10:12:17 4.8 C 37 %
1215 21-12-2019 10:22:17 5.1 C 37 %
1216 21-12-2019 10:32:17 5.2 C 36 %
1217 21-12-2019 10:42:17 5.1 C 37 %
1218 21-12-2019 10:52:17 5.2 C 37 %
1219 21-12-2019 11:02:17 5.3 C 37 %
1220 21-12-2019 11:12:17 5.3 C 37 %
1221 21-12-2019 11:22:17 5.4 C 37 %
1222 21-12-2019 11:32:17 5.8 C 37 %
1223 21-12-2019 11:42:17 5.9 C 37 %
1224 21-12-2019 11:52:17 5.8 C 37 %
1225 21-12-2019 12:02:17 5.8 C 36 %
Sensor: Nr:Datum:Temp:Feuchte:
Aussen-T/F 1226 21-12-2019 12:12:17 6.2 C 36 %
1227 21-12-2019 12:22:17 6.2 C 35 %
1228 21-12-2019 12:32:17 7 C 32 %
1229 21-12-2019 12:42:17 6.8 C 33 %
1230 21-12-2019 12:52:17 8 C 30 %
1231 21-12-2019 13:02:17 7.8 C 30 %
1232 21-12-2019 13:12:17 7.1 C 30 %
1233 21-12-2019 13:22:17 6.9 C 31 %
1234 21-12-2019 13:32:17 7.2 C 30 %
1235 21-12-2019 13:42:17 8 C 28 %
1236 21-12-2019 13:52:18 7.7 C 28 %
1237 21-12-2019 14:02:17 8.3 C 27 %
1238 21-12-2019 14:12:17 8.8 C 26 %
1239 21-12-2019 14:22:17 8.2 C 27 %
1240 21-12-2019 14:32:18 8.2 C 27 %
1241 21-12-2019 14:42:18 8.5 C 27 %
1242 21-12-2019 14:52:17 8.8 C 26 %
1243 21-12-2019 15:02:18 9 C 25 %
1244 21-12-2019 15:12:18 8.7 C 26 %
1245 21-12-2019 15:22:18 8.8 C 25 %
1246 21-12-2019 15:32:17 8.7 C 25 %
1247 21-12-2019 15:42:17 8 C 26 %
1248 21-12-2019 15:52:17 7.5 C 28 %
1249 21-12-2019 16:02:17 7.7 C 27 %
1250 21-12-2019 16:12:17 7.6 C 29 %
Sensor: Nr:Datum:Temp:Feuchte:
Aussen-T/F 1251 21-12-2019 16:22:17 7.4 C 30 %
1252 21-12-2019 16:32:17 7.4 C 30 %
1253 21-12-2019 16:42:17 7.7 C 28 %
1254 21-12-2019 16:52:17 7.9 C 27 %
1255 21-12-2019 17:02:17 7.6 C 29 %
1256 21-12-2019 17:12:17 7.3 C 30 %
1257 21-12-2019 17:22:17 7.2 C 30 %
1258 21-12-2019 17:32:17 7.3 C 30 %
1259 21-12-2019 17:42:17 7.3 C 29 %
1260 21-12-2019 17:52:17 7.2 C 29 %
1261 21-12-2019 18:02:17 7.6 C 27 %
1262 21-12-2019 18:12:17 7.6 C 27 %
1263 21-12-2019 18:22:17 7.6 C 26 %
1264 21-12-2019 18:32:18 7.9 C 25 %
1265 21-12-2019 18:42:18 7.7 C 26 %
1266 21-12-2019 18:52:17 7.5 C 26 %
1267 21-12-2019 19:02:17 7.3 C 27 %
1268 21-12-2019 19:12:17 7 C 27 %
1269 21-12-2019 19:22:17 7 C 27 %
1270 21-12-2019 19:32:17 6.9 C 30 %
1271 21-12-2019 19:42:17 6.8 C 30 %
1272 21-12-2019 19:52:17 7 C 27 %
1273 21-12-2019 20:02:17 7.1 C 26 %
1274 21-12-2019 20:12:17 7.1 C 26 %
1275 21-12-2019 20:22:17 7.1 C 26 %
Sensor: Nr:Datum:Temp:Feuchte:
Aussen-T/F 1276 21-12-2019 20:32:17 6.9 C 28 %
1277 21-12-2019 20:42:17 7 C 27 %
1278 21-12-2019 20:52:17 6.8 C 27 %
1279 21-12-2019 21:02:18 6.4 C 29 %
1280 21-12-2019 21:12:18 6.1 C 30 %
1281 21-12-2019 21:22:17 6.1 C 31 %
1282 21-12-2019 21:32:17 6.3 C 31 %
1283 21-12-2019 21:42:17 5.9 C 31 %
1284 21-12-2019 21:52:18 5.1 C 34 %
1285 21-12-2019 22:02:18 4.9 C 36 %
1286 21-12-2019 22:12:18 5.2 C 34 %
1287 21-12-2019 22:22:17 5.7 C 30 %
1288 21-12-2019 22:32:17 6.1 C 27 %
1289 21-12-2019 22:42:17 6.1 C 27 %
1290 21-12-2019 22:52:17 6 C 27 %
1291 21-12-2019 23:02:17 5.8 C 27 %
1292 21-12-2019 23:12:17 5.8 C 27 %
1293 21-12-2019 23:22:17 6.3 C 26 %
1294 21-12-2019 23:32:18 6.5 C 25 %
1295 21-12-2019 23:42:18 6.7 C 25 %
1296 21-12-2019 23:52:17 6.3 C 26 %
1297 22-12-2019 00:02:17 6.8 C 26 %
1298 22-12-2019 00:12:17 6.9 C 26 %
1299 22-12-2019 00:22:17 6.8 C 26 %
1300 22-12-2019 00:32:17 6.8 C 26 %
Sensor: Nr:Datum:Temp:Feuchte:
Aussen-T/F 1301 22-12-2019 00:42:17 6.7 C 27 %
1302 22-12-2019 00:52:17 6.3 C 30 %
1303 22-12-2019 01:02:17 6.2 C 30 %
1304 22-12-2019 01:12:18 5.8 C 35 %
1305 22-12-2019 01:22:17 5.8 C 36 %
1306 22-12-2019 01:32:17 5.8 C 39 %
1307 22-12-2019 01:42:17 5.7 C 40 %
1308 22-12-2019 01:52:17 5.7 C 40 %
1309 22-12-2019 02:02:17 5.7 C 38 %
1310 22-12-2019 02:12:18 5.7 C 38 %
1311 22-12-2019 02:22:17 5.8 C 38 %
1312 22-12-2019 02:32:17 5.9 C 37 %
1313 22-12-2019 02:42:17 5.9 C 36 %
1314 22-12-2019 02:52:18 6 C 35 %
1315 22-12-2019 03:02:17 6.1 C 35 %
1316 22-12-2019 03:12:17 6.2 C 34 %
1317 22-12-2019 03:22:17 6.2 C 35 %
1318 22-12-2019 03:32:17 6.2 C 34 %
1319 22-12-2019 03:42:17 6.1 C 35 %
1320 22-12-2019 03:52:17 6.2 C 35 %
1321 22-12-2019 04:02:18 6.2 C 35 %
1322 22-12-2019 04:12:18 6 C 35 %
1323 22-12-2019 04:22:17 6.2 C 34 %
1324 22-12-2019 04:32:17 6.2 C 34 %
1325 22-12-2019 04:42:17 6.3 C 33 %
Sensor: Nr:Datum:Temp:Feuchte:
Aussen-T/F 1326 22-12-2019 04:52:17 6.3 C 33 %
1327 22-12-2019 05:02:17 6.2 C 34 %
1328 22-12-2019 05:12:17 5.8 C 34 %
1329 22-12-2019 05:22:17 5.4 C 36 %
1330 22-12-2019 05:32:17 5.7 C 40 %
1331 22-12-2019 05:42:17 6.1 C 38 %
1332 22-12-2019 05:52:17 5.5 C 35 %
1333 22-12-2019 06:02:17 5.1 C 39 %
1334 22-12-2019 06:12:17 5.3 C 41 %
1335 22-12-2019 06:22:17 4.9 C 41 %
1336 22-12-2019 06:32:17 5.4 C 42 %
1337 22-12-2019 06:42:17 5.9 C 41 %
1338 22-12-2019 06:52:17 6.2 C 39 %
1339 22-12-2019 07:02:17 6.2 C 38 %
1340 22-12-2019 07:12:17 6 C 38 %
1341 22-12-2019 07:22:17 5.7 C 38 %
1342 22-12-2019 07:32:17 5.4 C 39 %
1343 22-12-2019 07:42:17 6 C 42 %
1344 22-12-2019 07:52:17 6.1 C 41 %
1345 22-12-2019 08:02:18 6.3 C 41 %
1346 22-12-2019 08:12:18 6.2 C 40 %
1347 22-12-2019 08:22:17 5.9 C 40 %
1348 22-12-2019 08:32:17 5.8 C 41 %
1349 22-12-2019 08:42:17 6.3 C 41 %
1350 22-12-2019 08:52:18 6.2 C 39 %
Sensor: Nr:Datum:Temp:Feuchte:
Aussen-T/F 1351 22-12-2019 09:02:17 6 C 39 %
1352 22-12-2019 09:12:17 6.2 C 40 %
1353 22-12-2019 09:22:17 6.4 C 39 %
1354 22-12-2019 09:32:17 6.3 C 39 %
1355 22-12-2019 09:42:17 6.8 C 39 %
1356 22-12-2019 09:52:17 7 C 37 %
1357 22-12-2019 10:02:17 7.1 C 37 %
1358 22-12-2019 10:12:17 7.9 C 33 %
1359 22-12-2019 10:22:17 8.1 C 33 %
1360 22-12-2019 10:32:17 8.8 C 30 %
1361 22-12-2019 10:42:17 9 C 29 %
1362 22-12-2019 10:52:17 9.3 C 28 %
1363 22-12-2019 11:02:17 9.5 C 28 %
1364 22-12-2019 11:12:17 10 C 26 %
1365 22-12-2019 11:22:17 10 C 26 %
1366 22-12-2019 11:32:18 10.4 C 26 %
1367 22-12-2019 11:42:18 10.2 C 26 %
1368 22-12-2019 11:52:17 10.4 C 26 %
1369 22-12-2019 12:02:17 10.5 C 25 %
1370 22-12-2019 12:12:17 10.5 C 26 %
1371 22-12-2019 12:22:17 10.5 C 25 %
1372 22-12-2019 12:32:17 10.7 C 26 %
1373 22-12-2019 12:42:17 10.8 C 26 %
1374 22-12-2019 12:52:17 11.2 C 25 %
1375 22-12-2019 13:02:17 11.1 C 25 %
Sensor: Nr:Datum:Temp:Feuchte:
Aussen-T/F 1376 22-12-2019 13:12:17 10.8 C 25 %
1377 22-12-2019 13:22:17 10.7 C 25 %
1378 22-12-2019 13:32:17 10.7 C 25 %
1379 22-12-2019 13:42:17 10.7 C 25 %
1380 22-12-2019 13:52:17 10.8 C 25 %
1381 22-12-2019 14:02:17 11.1 C 23 %
1382 22-12-2019 14:12:17 11 C 23 %
1383 22-12-2019 14:22:17 10.8 C 23 %
1384 22-12-2019 14:32:17 10.9 C 23 %
1385 22-12-2019 14:42:17 10.8 C 23 %
1386 22-12-2019 14:52:17 10.7 C 25 %
1387 22-12-2019 15:02:17 10.6 C 25 %
1388 22-12-2019 15:12:17 10.3 C 25 %
1389 22-12-2019 15:22:17 10.1 C 25 %
1390 22-12-2019 15:32:17 9.9 C 26 %
1391 22-12-2019 15:42:17 9.7 C 26 %
1392 22-12-2019 15:52:18 9.6 C 25 %
1393 22-12-2019 16:02:18 9.6 C 25 %
1394 22-12-2019 16:12:18 9.3 C 25 %
1395 22-12-2019 16:22:17 8.9 C 26 %
1396 22-12-2019 16:32:17 8.3 C 26 %
1397 22-12-2019 16:42:17 8.4 C 27 %
1398 22-12-2019 16:52:17 7.9 C 28 %
1399 22-12-2019 17:02:18 7.5 C 30 %
1400 22-12-2019 17:12:18 7.5 C 30 %
Sensor: Nr:Datum:Temp:Feuchte:
Aussen-T/F 1401 22-12-2019 17:22:17 7.4 C 30 %
1402 22-12-2019 17:32:17 7.5 C 29 %
1403 22-12-2019 17:42:17 7.5 C 28 %
1404 22-12-2019 17:52:17 7.2 C 28 %
1405 22-12-2019 18:02:17 7.2 C 30 %
1406 22-12-2019 18:12:17 7.1 C 30 %
1407 22-12-2019 18:22:17 7.3 C 30 %
1408 22-12-2019 18:32:17 7.4 C 29 %
1409 22-12-2019 18:42:17 7.5 C 29 %
1410 22-12-2019 18:52:17 7.2 C 29 %
1411 22-12-2019 19:02:17 7.1 C 30 %
1412 22-12-2019 19:12:17 7 C 31 %
1413 22-12-2019 19:22:17 7 C 32 %
1414 22-12-2019 19:32:17 7.1 C 31 %
1415 22-12-2019 19:42:17 7.5 C 30 %
1416 22-12-2019 19:52:17 8 C 27 %
1417 22-12-2019 20:02:17 7.9 C 27 %
1418 22-12-2019 20:12:17 8.1 C 26 %
1419 22-12-2019 20:22:17 8.3 C 25 %
1420 22-12-2019 20:32:17 8.2 C 25 %
1421 22-12-2019 20:42:17 8 C 25 %
1422 22-12-2019 20:52:17 8 C 25 %
1423 22-12-2019 21:02:17 8.1 C 25 %
1424 22-12-2019 21:12:17 8.1 C 25 %
1425 22-12-2019 21:22:17 7.8 C 25 %
Sensor: Nr:Datum:Temp:Feuchte:
Aussen-T/F 1426 22-12-2019 21:32:17 8.1 C 25 %
1427 22-12-2019 21:42:17 7.8 C 26 %
1428 22-12-2019 21:52:17 7.7 C 26 %
1429 22-12-2019 22:02:17 7.9 C 26 %
1430 22-12-2019 22:12:17 7.6 C 26 %
1431 22-12-2019 22:22:17 7.5 C 26 %
1432 22-12-2019 22:32:17 7.1 C 27 %
1433 22-12-2019 22:42:17 6.9 C 28 %
1434 22-12-2019 22:52:17 6.7 C 29 %
1435 22-12-2019 23:02:17 6.2 C 31 %
1436 22-12-2019 23:12:17 6.4 C 31 %
1437 22-12-2019 23:22:17 6.6 C 31 %
1438 22-12-2019 23:32:17 6.6 C 31 %
1439 22-12-2019 23:42:17 6.7 C 31 %
1440 22-12-2019 23:52:17 6.7 C 31 %
1441 23-12-2019 00:02:17 6.6 C 32 %
1442 23-12-2019 00:12:17 6.5 C 31 %
1443 23-12-2019 00:22:17 6.4 C 32 %
1444 23-12-2019 00:32:17 6.6 C 31 %
1445 23-12-2019 00:42:17 7 C 30 %
1446 23-12-2019 00:52:17 6.9 C 30 %
1447 23-12-2019 01:02:17 6.8 C 30 %
1448 23-12-2019 01:12:17 7.1 C 28 %
1449 23-12-2019 01:22:17 7 C 28 %
1450 23-12-2019 01:32:17 7.1 C 28 %
Sensor: Nr:Datum:Temp:Feuchte:
Aussen-T/F 1451 23-12-2019 01:42:17 7.4 C 27 %
1452 23-12-2019 01:52:17 7.4 C 27 %
1453 23-12-2019 02:02:17 6.8 C 29 %
1454 23-12-2019 02:12:17 6.5 C 30 %
1455 23-12-2019 02:22:17 6.8 C 29 %
1456 23-12-2019 02:32:17 6.9 C 29 %
1457 23-12-2019 02:42:17 7.3 C 28 %
1458 23-12-2019 02:52:17 6.9 C 30 %
1459 23-12-2019 03:02:17 6.8 C 31 %
1460 23-12-2019 03:12:17 6.4 C 31 %
1461 23-12-2019 03:22:17 6.5 C 30 %
1462 23-12-2019 03:32:17 7 C 28 %
1463 23-12-2019 03:42:17 6.6 C 29 %
1464 23-12-2019 03:52:17 7 C 28 %
1465 23-12-2019 04:02:17 6.9 C 30 %
1466 23-12-2019 04:12:17 7.1 C 28 %
1467 23-12-2019 04:22:17 6.8 C 30 %
1468 23-12-2019 04:32:17 6.9 C 31 %
1469 23-12-2019 04:42:17 6.5 C 31 %
1470 23-12-2019 04:52:17 6.1 C 31 %
1471 23-12-2019 05:02:17 6.4 C 32 %
1472 23-12-2019 05:12:17 7 C 30 %
1473 23-12-2019 05:22:17 7.1 C 30 %
1474 23-12-2019 05:32:17 7 C 30 %
1475 23-12-2019 05:42:17 6.8 C 31 %
Sensor: Nr:Datum:Temp:Feuchte:
Aussen-T/F 1476 23-12-2019 05:52:17 6.3 C 32 %
1477 23-12-2019 06:02:18 6.3 C 34 %
1478 23-12-2019 06:12:18 6.6 C 33 %
1479 23-12-2019 06:22:17 6.9 C 31 %
1480 23-12-2019 06:32:18 7.1 C 30 %
1481 23-12-2019 06:42:18 6.9 C 31 %
1482 23-12-2019 06:52:17 6.9 C 31 %
1483 23-12-2019 07:02:17 6.8 C 32 %
1484 23-12-2019 07:12:17 6.8 C 34 %
1485 23-12-2019 07:22:17 6.8 C 32 %
1486 23-12-2019 07:32:17 7.1 C 30 %
1487 23-12-2019 07:42:17 7.4 C 29 %
1488 23-12-2019 07:52:17 7.1 C 30 %
1489 23-12-2019 08:02:17 7.3 C 30 %
1490 23-12-2019 08:12:17 7.4 C 28 %
1491 23-12-2019 08:22:17 7.5 C 28 %
1492 23-12-2019 08:32:18 7.5 C 28 %
1493 23-12-2019 08:42:18 7.6 C 28 %
1494 23-12-2019 08:52:17 7.6 C 27 %
1495 23-12-2019 09:02:17 7.6 C 27 %
1496 23-12-2019 09:12:18 7.7 C 27 %
1497 23-12-2019 09:22:17 7.8 C 27 %
1498 23-12-2019 09:32:18 7.8 C 27 %
1499 23-12-2019 09:42:18 7.8 C 27 %
1500 23-12-2019 09:52:18 7.9 C 26 %
Sensor: Nr:Datum:Temp:Feuchte:
Aussen-T/F 1501 23-12-2019 10:02:17 7.3 C 30 %
1502 23-12-2019 10:12:18 7 C 33 %
1503 23-12-2019 10:22:17 7 C 35 %
1504 23-12-2019 10:32:18 6.8 C 35 %
1505 23-12-2019 10:42:18 6.9 C 34 %
1506 23-12-2019 10:52:17 7.4 C 30 %
1507 23-12-2019 11:02:18 7.8 C 28 %
1508 23-12-2019 11:12:18 8.1 C 28 %
1509 23-12-2019 11:22:17 8.4 C 26 %
1510 23-12-2019 11:32:18 8.3 C 26 %
1511 23-12-2019 11:42:18 8.6 C 26 %
1512 23-12-2019 11:52:17 8.9 C 25 %
1513 23-12-2019 12:02:18 9.1 C 25 %
1514 23-12-2019 12:12:18 9.1 C 25 %
1515 23-12-2019 12:22:17 8.9 C 25 %
1516 23-12-2019 12:32:17 9 C 25 %
1517 23-12-2019 12:42:17 9.3 C 25 %
1518 23-12-2019 12:52:17 8.4 C 26 %
1519 23-12-2019 13:02:17 8.4 C 26 %
1520 23-12-2019 13:12:17 8.3 C 27 %
1521 23-12-2019 13:22:17 8.2 C 27 %
1522 23-12-2019 13:32:18 8.1 C 29 %
1523 23-12-2019 13:42:18 8.2 C 28 %
1524 23-12-2019 13:52:17 8.5 C 28 %
1525 23-12-2019 14:02:17 8.9 C 27 %
Sensor: Nr:Datum:Temp:Feuchte:
Aussen-T/F 1526 23-12-2019 14:12:17 8.9 C 26 %
1527 23-12-2019 14:22:18 9 C 25 %
1528 23-12-2019 14:32:17 9.1 C 25 %
1529 23-12-2019 14:42:17 9.1 C 25 %
1530 23-12-2019 14:52:17 8.9 C 25 %
1531 23-12-2019 15:02:18 8.7 C 26 %
1532 23-12-2019 15:12:18 9.1 C 25 %
1533 23-12-2019 15:22:17 9.1 C 25 %
1534 23-12-2019 15:32:17 9 C 25 %
1535 23-12-2019 15:42:17 9 C 25 %
1536 23-12-2019 15:52:17 8.8 C 25 %
1537 23-12-2019 16:02:17 8.8 C 25 %
1538 23-12-2019 16:12:17 8.6 C 26 %
1539 23-12-2019 16:22:18 8.5 C 25 %
1540 23-12-2019 16:32:17 8.4 C 25 %
1541 23-12-2019 16:42:17 8.5 C 25 %
1542 23-12-2019 16:52:18 8.5 C 25 %
1543 23-12-2019 17:02:17 8.2 C 25 %
1544 23-12-2019 17:12:17 8.4 C 25 %
1545 23-12-2019 17:22:17 8 C 25 %
1546 23-12-2019 17:32:17 7.9 C 25 %
1547 23-12-2019 17:42:18 7.8 C 25 %
1548 23-12-2019 17:52:17 7.8 C 25 %
1549 23-12-2019 18:02:17 7.9 C 25 %
1550 23-12-2019 18:12:17 8 C 23 %
Sensor: Nr:Datum:Temp:Feuchte:
Aussen-T/F 1551 23-12-2019 18:22:17 7.9 C 23 %
1552 23-12-2019 18:32:17 7.9 C 25 %
1553 23-12-2019 18:42:17 7.6 C 25 %
1554 23-12-2019 18:52:17 7.5 C 26 %
1555 23-12-2019 19:02:17 7.3 C 26 %
1556 23-12-2019 19:12:17 6.7 C 29 %
1557 23-12-2019 19:22:17 6.4 C 30 %
1558 23-12-2019 19:32:17 7.4 C 26 %
1559 23-12-2019 19:42:17 7 C 26 %
1560 23-12-2019 19:52:17 7 C 27 %
1561 23-12-2019 20:02:17 7 C 28 %
1562 23-12-2019 20:12:17 6.5 C 30 %
1563 23-12-2019 20:22:17 6.8 C 30 %
1564 23-12-2019 20:32:18 6.8 C 30 %
1565 23-12-2019 20:42:18 6.9 C 30 %
1566 23-12-2019 20:52:17 6.9 C 30 %
1567 23-12-2019 21:02:18 6.7 C 30 %
1568 23-12-2019 21:12:18 7.1 C 28 %
1569 23-12-2019 21:22:17 7 C 28 %
1570 23-12-2019 21:32:17 6.7 C 31 %
1571 23-12-2019 21:42:17 6.5 C 31 %
1572 23-12-2019 21:52:17 6.5 C 32 %
1573 23-12-2019 22:02:18 6.4 C 31 %
1574 23-12-2019 22:12:18 5.8 C 32 %
1575 23-12-2019 22:22:17 5.4 C 37 %
Sensor: Nr:Datum:Temp:Feuchte:
Aussen-T/F 1576 23-12-2019 22:32:17 5.7 C 33 %
1577 23-12-2019 22:42:17 5.3 C 34 %
1578 23-12-2019 22:52:17 5.5 C 34 %
1579 23-12-2019 23:02:17 5.4 C 33 %
1580 23-12-2019 23:12:17 5.5 C 32 %
1581 23-12-2019 23:22:18 5.4 C 30 %
1582 23-12-2019 23:32:17 5.8 C 30 %
1583 23-12-2019 23:42:17 4.8 C 33 %
1584 23-12-2019 23:52:17 4.8 C 36 %
1585 24-12-2019 00:02:17 5.6 C 35 %
1586 24-12-2019 00:12:17 5.8 C 32 %
1587 24-12-2019 00:22:17 5.7 C 32 %
1588 24-12-2019 00:32:18 6 C 32 %
1589 24-12-2019 00:42:18 6.1 C 31 %
1590 24-12-2019 00:52:17 6.3 C 31 %
1591 24-12-2019 01:02:17 5.6 C 32 %
1592 24-12-2019 01:12:17 5.9 C 32 %
1593 24-12-2019 01:22:17 6.1 C 30 %
1594 24-12-2019 01:32:17 6.3 C 30 %
1595 24-12-2019 01:42:17 5.9 C 31 %
1596 24-12-2019 01:52:17 5.7 C 33 %
1597 24-12-2019 02:02:17 5.7 C 35 %
1598 24-12-2019 02:12:17 5.8 C 35 %
1599 24-12-2019 02:22:17 5.6 C 35 %
1600 24-12-2019 02:32:18 5.5 C 36 %
Sensor: Nr:Datum:Temp:Feuchte:
Aussen-T/F 1601 24-12-2019 02:42:18 5.5 C 36 %
1602 24-12-2019 02:52:17 6.6 C 30 %
1603 24-12-2019 03:02:18 6.7 C 29 %
1604 24-12-2019 03:12:18 6.3 C 30 %
1605 24-12-2019 03:22:17 5.7 C 31 %
1606 24-12-2019 03:32:17 5.5 C 31 %
1607 24-12-2019 03:42:17 5.7 C 31 %
1608 24-12-2019 03:52:17 5 C 32 %
1609 24-12-2019 04:02:17 5 C 38 %
1610 24-12-2019 04:12:17 5.2 C 37 %
1611 24-12-2019 04:22:17 5.2 C 36 %
1612 24-12-2019 04:32:17 4.8 C 37 %
1613 24-12-2019 04:42:17 4.8 C 39 %
1614 24-12-2019 04:52:17 5.3 C 38 %
1615 24-12-2019 05:02:18 5.4 C 35 %
1616 24-12-2019 05:12:18 5.2 C 35 %
1617 24-12-2019 05:22:17 4.7 C 37 %
1618 24-12-2019 05:32:18 5 C 37 %
1619 24-12-2019 05:42:18 4.6 C 36 %
1620 24-12-2019 05:52:17 4.9 C 37 %
1621 24-12-2019 06:02:18 4.3 C 36 %
1622 24-12-2019 06:12:18 4.6 C 39 %
1623 24-12-2019 06:22:17 4.6 C 38 %
1624 24-12-2019 06:32:17 4.6 C 39 %
1625 24-12-2019 06:42:17 4.5 C 38 %
Sensor: Nr:Datum:Temp:Feuchte:
Aussen-T/F 1626 24-12-2019 06:52:17 4.5 C 39 %
1627 24-12-2019 07:02:17 4.8 C 37 %
1628 24-12-2019 07:12:17 5 C 36 %
1629 24-12-2019 07:22:17 5.4 C 34 %
1630 24-12-2019 07:32:17 5.6 C 33 %
1631 24-12-2019 07:42:17 5.6 C 32 %
1632 24-12-2019 07:52:17 5.8 C 32 %
1633 24-12-2019 08:02:17 5.8 C 31 %
1634 24-12-2019 08:12:17 6 C 30 %
1635 24-12-2019 08:22:17 6.2 C 29 %
1636 24-12-2019 08:32:17 6.2 C 30 %
1637 24-12-2019 08:42:17 6.3 C 30 %
1638 24-12-2019 08:52:18 6.4 C 30 %
1639 24-12-2019 09:02:17 6.5 C 29 %
1640 24-12-2019 09:12:17 6.8 C 29 %
1641 24-12-2019 09:22:17 6.8 C 28 %
1642 24-12-2019 09:32:17 6.8 C 29 %
1643 24-12-2019 09:42:17 6.8 C 28 %
1644 24-12-2019 09:52:17 6.5 C 30 %
1645 24-12-2019 10:02:17 6.4 C 30 %
1646 24-12-2019 10:12:17 6.2 C 31 %
1647 24-12-2019 10:22:17 6.2 C 33 %
1648 24-12-2019 10:32:17 6.3 C 37 %
1649 24-12-2019 10:42:17 6.8 C 37 %
1650 24-12-2019 10:52:17 6.7 C 33 %
Sensor: Nr:Datum:Temp:Feuchte:
Aussen-T/F 1651 24-12-2019 11:02:17 6.8 C 35 %
1652 24-12-2019 11:12:17 6.9 C 34 %
1653 24-12-2019 11:22:17 7.5 C 32 %
1654 24-12-2019 11:32:17 8 C 30 %
1655 24-12-2019 11:42:17 8.2 C 29 %
1656 24-12-2019 11:52:18 8 C 29 %
1657 24-12-2019 12:02:17 7.8 C 30 %
1658 24-12-2019 12:12:17 7.6 C 30 %
1659 24-12-2019 12:22:17 8 C 28 %
1660 24-12-2019 12:32:17 8.2 C 27 %
1661 24-12-2019 12:42:17 8.4 C 27 %
1662 24-12-2019 12:52:18 8.9 C 27 %
1663 24-12-2019 13:02:17 9.2 C 25 %
1664 24-12-2019 13:12:17 9.3 C 25 %
1665 24-12-2019 13:22:17 9.3 C 25 %
1666 24-12-2019 13:32:17 9.2 C 26 %
1667 24-12-2019 13:42:17 9.3 C 26 %
1668 24-12-2019 13:52:17 9.3 C 26 %
1669 24-12-2019 14:02:18 9.4 C 25 %
1670 24-12-2019 14:12:18 9.5 C 25 %
1671 24-12-2019 14:22:17 9.6 C 25 %
1672 24-12-2019 14:32:18 9.7 C 25 %
1673 24-12-2019 14:42:18 9.3 C 26 %
1674 24-12-2019 14:52:17 9.2 C 27 %
1675 24-12-2019 15:02:18 9.1 C 27 %
Sensor: Nr:Datum:Temp:Feuchte:
Aussen-T/F 1676 24-12-2019 15:12:18 9.5 C 26 %
1677 24-12-2019 15:22:17 9.8 C 25 %
1678 24-12-2019 15:32:17 10 C 22 %
1679 24-12-2019 15:42:17 10.1 C 20 %
1680 24-12-2019 15:52:17 10.5 C 20 %
1681 24-12-2019 16:02:17 10.1 C 20 %
1682 24-12-2019 16:12:17 10 C 20 %
1683 24-12-2019 16:22:17 10.2 C 20 %
1684 24-12-2019 16:32:17 9.8 C 20 %
1685 24-12-2019 16:42:17 9.7 C 21 %
1686 24-12-2019 16:52:17 10.1 C 20 %
1687 24-12-2019 17:02:17 9.8 C 20 %
1688 24-12-2019 17:12:17 9.4 C 20 %
1689 24-12-2019 17:22:18 9.6 C 20 %
1690 24-12-2019 17:32:17 8.8 C 20 %
1691 24-12-2019 17:42:17 9.1 C 20 %
1692 24-12-2019 17:52:17 9.3 C 20 %
1693 24-12-2019 18:02:17 9 C 20 %
1694 24-12-2019 18:12:17 8.5 C 26 %
1695 24-12-2019 18:22:17 8.9 C 25 %
1696 24-12-2019 18:32:17 8.2 C 28 %
1697 24-12-2019 18:42:17 7.8 C 31 %
1698 24-12-2019 18:52:17 7.5 C 35 %
1699 24-12-2019 19:02:17 7.6 C 31 %
1700 24-12-2019 19:12:17 7.3 C 31 %
Sensor: Nr:Datum:Temp:Feuchte:
Aussen-T/F 1701 24-12-2019 19:22:17 6.7 C 35 %
1702 24-12-2019 19:32:17 6.5 C 40 %
1703 24-12-2019 19:42:17 6.5 C 36 %
1704 24-12-2019 19:52:17 6.2 C 36 %
1705 24-12-2019 20:02:17 6.7 C 35 %
1706 24-12-2019 20:12:17 7.3 C 30 %
1707 24-12-2019 20:22:17 7.2 C 32 %
1708 24-12-2019 20:32:18 7.1 C 30 %
1709 24-12-2019 20:42:18 7.3 C 31 %
1710 24-12-2019 20:52:17 7.3 C 30 %
1711 24-12-2019 21:02:17 7.1 C 31 %
1712 24-12-2019 21:12:17 7.7 C 30 %
1713 24-12-2019 21:22:17 7.4 C 30 %
1714 24-12-2019 21:32:17 7.6 C 30 %
1715 24-12-2019 21:42:17 7.9 C 29 %
1716 24-12-2019 21:52:17 8.1 C 28 %
1717 24-12-2019 22:02:17 8.6 C 26 %
1718 24-12-2019 22:12:17 8.5 C 26 %
1719 24-12-2019 22:22:17 8.3 C 26 %
1720 24-12-2019 22:32:17 8.4 C 26 %
1721 24-12-2019 22:42:17 8.2 C 27 %
1722 24-12-2019 22:52:17 8 C 28 %
1723 24-12-2019 23:02:17 8.4 C 27 %
1724 24-12-2019 23:12:17 8.4 C 27 %
1725 24-12-2019 23:22:17 8.4 C 27 %
Sensor: Nr:Datum:Temp:Feuchte:
Aussen-T/F 1726 24-12-2019 23:32:17 8.5 C 27 %
1727 24-12-2019 23:42:17 8.5 C 27 %
1728 24-12-2019 23:52:17 8.4 C 27 %
1729 25-12-2019 00:02:17 8.4 C 27 %
1730 25-12-2019 00:12:17 8.4 C 27 %
1731 25-12-2019 00:22:17 8.4 C 28 %
1732 25-12-2019 00:32:17 8.3 C 28 %
1733 25-12-2019 00:42:18 8.2 C 29 %
1734 25-12-2019 00:52:17 8.2 C 29 %
1735 25-12-2019 01:02:17 7.8 C 32 %
1736 25-12-2019 01:12:17 7.7 C 33 %
1737 25-12-2019 01:22:17 7.5 C 35 %
1738 25-12-2019 01:32:18 7.3 C 35 %
1739 25-12-2019 01:42:18 7.5 C 35 %
1740 25-12-2019 01:52:17 7.6 C 33 %
1741 25-12-2019 02:02:17 7.7 C 32 %
1742 25-12-2019 02:12:17 8 C 31 %
1743 25-12-2019 02:22:17 7.9 C 31 %
1744 25-12-2019 02:32:18 7.9 C 31 %
1745 25-12-2019 02:42:18 7.9 C 31 %
1746 25-12-2019 02:52:17 7.9 C 31 %
1747 25-12-2019 03:02:17 7.8 C 31 %
1748 25-12-2019 03:12:17 7.9 C 32 %
1749 25-12-2019 03:22:17 8.1 C 31 %
1750 25-12-2019 03:32:17 8.3 C 30 %
Sensor: Nr:Datum:Temp:Feuchte:
Aussen-T/F 1751 25-12-2019 03:42:17 8.2 C 30 %
1752 25-12-2019 03:52:18 8.2 C 30 %
1753 25-12-2019 04:02:17 7.9 C 34 %
1754 25-12-2019 04:12:17 8 C 34 %
1755 25-12-2019 04:22:18 7.9 C 35 %
1756 25-12-2019 04:32:17 7.9 C 36 %
1757 25-12-2019 04:42:17 7.9 C 38 %
1758 25-12-2019 04:52:17 7.9 C 36 %
1759 25-12-2019 05:02:17 7.9 C 37 %
1760 25-12-2019 05:12:17 7.8 C 37 %
1761 25-12-2019 05:22:18 7.6 C 38 %
1762 25-12-2019 05:32:17 8 C 36 %
1763 25-12-2019 05:42:17 7.9 C 35 %
1764 25-12-2019 05:52:17 7.5 C 35 %
1765 25-12-2019 06:02:18 7.5 C 35 %
1766 25-12-2019 06:12:18 7.2 C 36 %
1767 25-12-2019 06:22:17 7.2 C 37 %
1768 25-12-2019 06:32:18 7.3 C 37 %
1769 25-12-2019 06:42:18 7.3 C 36 %
1770 25-12-2019 06:52:17 7.1 C 39 %
1771 25-12-2019 07:02:18 7.3 C 33 %
1772 25-12-2019 07:12:18 7.1 C 32 %
1773 25-12-2019 07:22:17 6.9 C 35 %
1774 25-12-2019 07:32:18 6.8 C 38 %
1775 25-12-2019 07:42:18 6.9 C 38 %
Sensor: Nr:Datum:Temp:Feuchte:
Aussen-T/F 1776 25-12-2019 07:52:17 7 C 35 %
1777 25-12-2019 08:02:18 6.8 C 32 %
1778 25-12-2019 08:12:18 6.4 C 32 %
1779 25-12-2019 08:22:17 6.2 C 33 %
1780 25-12-2019 08:32:17 6.2 C 32 %
1781 25-12-2019 08:42:17 6.5 C 32 %
1782 25-12-2019 08:52:17 6.7 C 31 %
1783 25-12-2019 09:02:17 6.9 C 30 %
1784 25-12-2019 09:12:17 6.9 C 30 %
1785 25-12-2019 09:22:18 6.8 C 30 %
1786 25-12-2019 09:32:17 7.3 C 28 %
1787 25-12-2019 09:42:17 7.3 C 27 %
1788 25-12-2019 09:52:17 7.3 C 27 %
1789 25-12-2019 10:02:17 7.1 C 29 %
1790 25-12-2019 10:12:17 7.3 C 27 %
1791 25-12-2019 10:22:18 7.6 C 26 %
1792 25-12-2019 10:32:17 7.7 C 26 %
1793 25-12-2019 10:42:17 7.8 C 25 %
1794 25-12-2019 10:52:17 7.5 C 26 %
1795 25-12-2019 11:02:17 7.5 C 26 %
1796 25-12-2019 11:12:17 7.5 C 26 %
1797 25-12-2019 11:22:17 7.7 C 26 %
1798 25-12-2019 11:32:17 7.4 C 26 %
1799 25-12-2019 11:42:17 7.4 C 27 %
1800 25-12-2019 11:52:18 7.1 C 28 %
Sensor: Nr:Datum:Temp:Feuchte:
Aussen-T/F 1801 25-12-2019 12:02:17 7.1 C 29 %
1802 25-12-2019 12:12:17 7.6 C 27 %
1803 25-12-2019 12:22:17 7.6 C 27 %
1804 25-12-2019 12:32:17 7.7 C 27 %
1805 25-12-2019 12:42:17 7.8 C 27 %
1806 25-12-2019 12:52:18 7.6 C 27 %
1807 25-12-2019 13:02:17 7.1 C 29 %
1808 25-12-2019 13:12:17 7 C 31 %
1809 25-12-2019 13:22:18 6.9 C 31 %
1810 25-12-2019 13:32:17 7.1 C 30 %
1811 25-12-2019 13:42:17 7 C 30 %
1812 25-12-2019 13:52:17 6.9 C 30 %
1813 25-12-2019 14:02:17 7.1 C 30 %
1814 25-12-2019 14:12:17 7.4 C 29 %
1815 25-12-2019 14:22:18 7.6 C 28 %
1816 25-12-2019 14:32:17 7.7 C 29 %
1817 25-12-2019 14:42:17 7.6 C 29 %
1818 25-12-2019 14:52:17 7.1 C 31 %
1819 25-12-2019 15:02:17 7.1 C 32 %
1820 25-12-2019 15:12:17 7.1 C 30 %
1821 25-12-2019 15:22:18 7.1 C 31 %
1822 25-12-2019 15:32:17 7.4 C 30 %
1823 25-12-2019 15:42:17 7.3 C 31 %
1824 25-12-2019 15:52:17 7.2 C 30 %
1825 25-12-2019 16:02:17 7.2 C 30 %
Sensor: Nr:Datum:Temp:Feuchte:
Aussen-T/F 1826 25-12-2019 16:12:17 6.9 C 31 %
1827 25-12-2019 16:22:17 6.8 C 32 %
1828 25-12-2019 16:32:17 6.7 C 35 %
1829 25-12-2019 16:42:17 6.9 C 32 %
1830 25-12-2019 16:52:17 6.9 C 31 %
1831 25-12-2019 17:02:17 6.8 C 30 %
1832 25-12-2019 17:12:17 6.7 C 30 %
1833 25-12-2019 17:22:18 6.6 C 31 %
1834 25-12-2019 17:32:17 6.2 C 31 %
1835 25-12-2019 17:42:17 5.7 C 35 %
1836 25-12-2019 17:52:18 5.9 C 35 %
1837 25-12-2019 18:02:17 6 C 33 %
1838 25-12-2019 18:12:17 6.1 C 32 %
1839 25-12-2019 18:22:17 6.2 C 33 %
1840 25-12-2019 18:32:17 6.2 C 33 %
1841 25-12-2019 18:42:17 6.2 C 32 %
1842 25-12-2019 18:52:17 6.2 C 32 %
1843 25-12-2019 19:02:17 6 C 33 %
1844 25-12-2019 19:12:17 5.9 C 33 %
1845 25-12-2019 19:22:17 6.1 C 32 %
1846 25-12-2019 19:32:18 6.1 C 32 %
1847 25-12-2019 19:42:18 6 C 33 %
1848 25-12-2019 19:52:17 5.9 C 33 %
1849 25-12-2019 20:02:17 5.8 C 35 %
1850 25-12-2019 20:12:17 5.9 C 35 %
Sensor: Nr:Datum:Temp:Feuchte:
Aussen-T/F 1851 25-12-2019 20:22:18 5.9 C 34 %
1852 25-12-2019 20:32:17 5.8 C 34 %
1853 25-12-2019 20:42:17 5.6 C 37 %
1854 25-12-2019 20:52:17 5.5 C 38 %
1855 25-12-2019 21:02:18 5.5 C 38 %
1856 25-12-2019 21:12:18 5.4 C 40 %
1857 25-12-2019 21:22:17 5.3 C 41 %
1858 25-12-2019 21:32:17 5.3 C 43 %
1859 25-12-2019 21:42:17 5.3 C 42 %
1860 25-12-2019 21:52:17 5.2 C 42 %
1861 25-12-2019 22:02:18 5.2 C 42 %
1862 25-12-2019 22:12:18 5.1 C 43 %
1863 25-12-2019 22:22:17 5.2 C 42 %
1864 25-12-2019 22:32:18 5.1 C 41 %
1865 25-12-2019 22:42:18 5.1 C 42 %
1866 25-12-2019 22:52:17 5.2 C 42 %
1867 25-12-2019 23:02:18 5.2 C 42 %
1868 25-12-2019 23:12:18 5.2 C 42 %
1869 25-12-2019 23:22:17 5.2 C 42 %
1870 25-12-2019 23:32:17 5.1 C 42 %
1871 25-12-2019 23:42:17 4.7 C 42 %
1872 25-12-2019 23:52:17 4.5 C 42 %
1873 26-12-2019 00:02:17 4.6 C 43 %
1874 26-12-2019 00:12:18 4 C 42 %
1875 26-12-2019 00:22:17 3.6 C 42 %
Sensor: Nr:Datum:Temp:Feuchte:
Aussen-T/F 1876 26-12-2019 00:32:18 3.9 C 44 %
1877 26-12-2019 00:42:18 3.9 C 44 %
1878 26-12-2019 00:52:17 4.1 C 43 %
1879 26-12-2019 01:02:18 4.4 C 43 %
1880 26-12-2019 01:12:18 4.3 C 43 %
1881 26-12-2019 01:22:17 4.3 C 43 %
1882 26-12-2019 01:32:17 4.4 C 43 %
1883 26-12-2019 01:42:17 4.4 C 43 %
1884 26-12-2019 01:52:17 4.3 C 42 %
1885 26-12-2019 02:02:18 4.3 C 42 %
1886 26-12-2019 02:12:18 4.4 C 42 %
1887 26-12-2019 02:22:17 4.2 C 42 %
1888 26-12-2019 02:32:17 4 C 42 %
1889 26-12-2019 02:42:17 4 C 42 %
1890 26-12-2019 02:52:17 4.2 C 42 %
1891 26-12-2019 03:02:18 4.2 C 42 %
1892 26-12-2019 03:12:18 4.1 C 42 %
1893 26-12-2019 03:22:17 4.1 C 42 %
1894 26-12-2019 03:32:17 4.1 C 42 %
1895 26-12-2019 03:42:17 4.1 C 42 %
1896 26-12-2019 03:52:17 3.9 C 43 %
1897 26-12-2019 04:02:17 3.6 C 42 %
1898 26-12-2019 04:12:17 3.6 C 42 %
1899 26-12-2019 04:22:18 3.4 C 42 %
1900 26-12-2019 04:32:17 3 C 42 %
Sensor: Nr:Datum:Temp:Feuchte:
Aussen-T/F 1901 26-12-2019 04:42:17 3.1 C 42 %
1902 26-12-2019 04:52:17 3.1 C 43 %
1903 26-12-2019 05:02:17 3.3 C 43 %
1904 26-12-2019 05:12:17 3.5 C 43 %
1905 26-12-2019 05:22:17 3.4 C 43 %
1906 26-12-2019 05:32:18 3.5 C 43 %
1907 26-12-2019 05:42:18 3.4 C 43 %
1908 26-12-2019 05:52:17 3.5 C 43 %
1909 26-12-2019 06:02:17 3.6 C 43 %
1910 26-12-2019 06:12:18 3.6 C 43 %
1911 26-12-2019 06:22:17 3.5 C 43 %
1912 26-12-2019 06:32:18 3.6 C 43 %
1913 26-12-2019 06:42:18 3.5 C 43 %
1914 26-12-2019 06:52:17 3.5 C 43 %
1915 26-12-2019 07:02:18 3.5 C 43 %
1916 26-12-2019 07:12:18 3.5 C 43 %
1917 26-12-2019 07:22:17 3.4 C 43 %
1918 26-12-2019 07:32:17 3.4 C 43 %
1919 26-12-2019 07:42:17 3.4 C 43 %
1920 26-12-2019 07:52:17 3.4 C 43 %
1921 26-12-2019 08:02:18 3.4 C 43 %
1922 26-12-2019 08:12:18 3.4 C 43 %
1923 26-12-2019 08:22:17 3.5 C 43 %
1924 26-12-2019 08:32:17 3.4 C 43 %
1925 26-12-2019 08:42:17 3.4 C 43 %
Sensor: Nr:Datum:Temp:Feuchte:
Aussen-T/F 1926 26-12-2019 08:52:17 3.5 C 43 %
1927 26-12-2019 09:02:17 3.5 C 43 %
1928 26-12-2019 09:12:17 3.5 C 43 %
1929 26-12-2019 09:22:17 3.4 C 42 %
1930 26-12-2019 09:32:17 3.5 C 43 %
1931 26-12-2019 09:42:17 3.6 C 42 %
1932 26-12-2019 09:52:18 3.6 C 42 %
1933 26-12-2019 10:02:17 3.6 C 42 %
1934 26-12-2019 10:12:17 3.6 C 42 %
1935 26-12-2019 10:22:18 3.8 C 42 %
1936 26-12-2019 10:32:17 4 C 41 %
1937 26-12-2019 10:42:17 4.3 C 41 %
1938 26-12-2019 10:52:18 4.5 C 41 %
1939 26-12-2019 11:02:17 4.7 C 41 %
1940 26-12-2019 11:12:17 4.8 C 41 %
1941 26-12-2019 11:22:17 5 C 40 %
1942 26-12-2019 11:32:17 5.4 C 40 %
1943 26-12-2019 11:42:17 5.5 C 39 %
1944 26-12-2019 11:52:17 5.6 C 37 %
1945 26-12-2019 12:02:17 5.7 C 36 %
1946 26-12-2019 12:12:17 5.7 C 36 %
1947 26-12-2019 12:22:17 5.7 C 35 %
1948 26-12-2019 12:32:18 5.9 C 35 %
1949 26-12-2019 12:42:18 6 C 35 %
1950 26-12-2019 12:52:17 6 C 36 %
Sensor: Nr:Datum:Temp:Feuchte:
Aussen-T/F 1951 26-12-2019 13:02:18 5.9 C 36 %
1952 26-12-2019 13:12:18 5.9 C 37 %
1953 26-12-2019 13:22:17 5.8 C 36 %
1954 26-12-2019 13:32:18 5.8 C 36 %
1955 26-12-2019 13:42:18 5.7 C 36 %
1956 26-12-2019 13:52:17 5.7 C 36 %
1957 26-12-2019 14:02:18 5.7 C 36 %
1958 26-12-2019 14:12:18 5.8 C 35 %
1959 26-12-2019 14:22:17 6 C 35 %
1960 26-12-2019 14:32:17 6 C 35 %
1961 26-12-2019 14:42:17 5.7 C 35 %
1962 26-12-2019 14:52:17 5.6 C 36 %
1963 26-12-2019 15:02:17 5.5 C 36 %
1964 26-12-2019 15:12:17 5.4 C 36 %
1965 26-12-2019 15:22:17 5.1 C 38 %
1966 26-12-2019 15:32:17 5 C 37 %
1967 26-12-2019 15:42:17 4.8 C 39 %
1968 26-12-2019 15:52:18 4.8 C 39 %
1969 26-12-2019 16:02:17 4.7 C 38 %
1970 26-12-2019 16:12:17 4.6 C 39 %
1971 26-12-2019 16:22:17 4.5 C 40 %
1972 26-12-2019 16:32:17 4.4 C 41 %
1973 26-12-2019 16:42:18 4.4 C 40 %
1974 26-12-2019 16:53:17 4.3 C 41 %
1975 26-12-2019 17:02:17 4.4 C 40 %
Sensor: Nr:Datum:Temp:Feuchte:
Aussen-T/F 1976 26-12-2019 17:12:17 4.3 C 40 %
1977 26-12-2019 17:22:17 4.3 C 40 %
1978 26-12-2019 17:32:17 4.4 C 40 %
1979 26-12-2019 17:42:17 4.1 C 40 %
1980 26-12-2019 17:52:17 4.1 C 40 %
1981 26-12-2019 18:02:17 4 C 40 %
1982 26-12-2019 18:12:17 4 C 41 %
1983 26-12-2019 18:22:17 4.1 C 41 %
1984 26-12-2019 18:32:17 4.1 C 41 %
1985 26-12-2019 18:42:18 4.1 C 40 %
1986 26-12-2019 18:53:17 4.1 C 40 %
1987 26-12-2019 19:02:17 4 C 40 %
1988 26-12-2019 19:12:17 4 C 41 %
1989 26-12-2019 19:23:17 4 C 41 %
1990 26-12-2019 19:32:17 3.8 C 41 %
1991 26-12-2019 19:42:17 4 C 41 %
1992 26-12-2019 19:53:17 3.8 C 41 %
1993 26-12-2019 20:02:17 3.8 C 42 %
1994 26-12-2019 20:12:17 3.9 C 42 %
1995 26-12-2019 20:23:17 4 C 41 %
1996 26-12-2019 20:32:17 4.1 C 40 %
1997 26-12-2019 20:42:17 4.2 C 39 %
1998 26-12-2019 20:53:17 4.1 C 38 %
1999 26-12-2019 21:02:17 4.3 C 37 %
2000 26-12-2019 21:12:17 4.2 C 38 %
Sensor: Nr:Datum:Temp:Feuchte:
Aussen-T/F 2001 26-12-2019 21:23:17 4.1 C 38 %
2002 26-12-2019 21:32:18 4.1 C 38 %
2003 26-12-2019 21:42:18 4.2 C 37 %
2004 26-12-2019 21:52:17 4.3 C 37 %
2005 26-12-2019 22:02:18 4.1 C 39 %
2006 26-12-2019 22:12:18 4.1 C 41 %
2007 26-12-2019 22:22:17 4.1 C 41 %
2008 26-12-2019 22:33:17 4.1 C 41 %
2009 26-12-2019 22:43:17 4.1 C 42 %
2010 26-12-2019 22:52:17 4.1 C 42 %
2011 26-12-2019 23:03:17 4.1 C 43 %
2012 26-12-2019 23:13:17 4.1 C 43 %
2013 26-12-2019 23:23:17 4 C 43 %
2014 26-12-2019 23:32:17 4 C 43 %
2015 26-12-2019 23:42:17 4 C 42 %
2016 26-12-2019 23:53:17 4 C 42 %
2017 27-12-2019 00:02:17 4 C 42 %
2018 27-12-2019 00:12:17 4 C 42 %
2019 27-12-2019 00:23:17 4 C 42 %
2020 27-12-2019 00:32:17 4 C 42 %
2021 27-12-2019 00:42:18 4.1 C 42 %
2022 27-12-2019 00:53:17 4.1 C 42 %
2023 27-12-2019 01:03:18 4.1 C 42 %
2024 27-12-2019 01:13:18 4.1 C 42 %
2025 27-12-2019 01:23:17 4.1 C 42 %
Sensor: Nr:Datum:Temp:Feuchte:
Aussen-T/F 2026 27-12-2019 01:33:17 4.1 C 42 %
2027 27-12-2019 01:43:17 4.1 C 42 %
2028 27-12-2019 01:53:18 4.1 C 42 %
2029 27-12-2019 02:03:17 4.1 C 42 %
2030 27-12-2019 02:13:17 4.1 C 42 %
2031 27-12-2019 02:23:17 4.1 C 42 %
2032 27-12-2019 02:33:18 4.1 C 42 %
2033 27-12-2019 02:43:19 4.1 C 42 %
2034 27-12-2019 02:53:17 4.2 C 42 %
2035 27-12-2019 03:03:17 4.3 C 42 %
2036 27-12-2019 03:13:17 4.2 C 42 %
2037 27-12-2019 03:23:17 4.3 C 42 %
2038 27-12-2019 03:33:17 4.3 C 42 %
2039 27-12-2019 03:43:18 4.3 C 42 %
2040 27-12-2019 03:53:17 4.3 C 42 %
2041 27-12-2019 04:03:17 4.3 C 42 %
2042 27-12-2019 04:13:17 4.3 C 42 %
2043 27-12-2019 04:23:17 4.3 C 42 %
2044 27-12-2019 04:33:17 4.3 C 42 %
2045 27-12-2019 04:43:17 4.3 C 42 %
2046 27-12-2019 04:53:18 4.4 C 42 %
2047 27-12-2019 05:03:17 4.4 C 42 %
2048 27-12-2019 05:13:17 4.4 C 42 %
2049 27-12-2019 05:23:17 4.4 C 42 %
2050 27-12-2019 05:33:17 4.3 C 42 %
Sensor: Nr:Datum:Temp:Feuchte:
Aussen-T/F 2051 27-12-2019 05:43:17 4.4 C 42 %
2052 27-12-2019 05:53:17 4.4 C 42 %
2053 27-12-2019 06:03:17 4.4 C 42 %
2054 27-12-2019 06:13:17 4.4 C 42 %
2055 27-12-2019 06:23:17 4.4 C 42 %
2056 27-12-2019 06:33:17 4.4 C 42 %
2057 27-12-2019 06:43:17 4.4 C 42 %
2058 27-12-2019 06:53:17 4.4 C 42 %
2059 27-12-2019 07:03:17 4.5 C 42 %
2060 27-12-2019 07:13:17 4.4 C 42 %
2061 27-12-2019 07:23:18 4.4 C 42 %
2062 27-12-2019 07:33:17 4.4 C 42 %
2063 27-12-2019 07:43:17 4.4 C 42 %
2064 27-12-2019 07:53:17 4.3 C 42 %
2065 27-12-2019 08:03:17 4.3 C 42 %
2066 27-12-2019 08:13:17 4.3 C 42 %
2067 27-12-2019 08:23:17 4.3 C 42 %
2068 27-12-2019 08:33:17 4.3 C 42 %
2069 27-12-2019 08:43:17 4.3 C 42 %
2070 27-12-2019 08:53:18 4.3 C 42 %
2071 27-12-2019 09:03:17 4.4 C 42 %
2072 27-12-2019 09:13:17 4.4 C 42 %
2073 27-12-2019 09:23:17 4.3 C 42 %
2074 27-12-2019 09:33:17 4.5 C 42 %
2075 27-12-2019 09:43:17 4.6 C 42 %
Sensor: Nr:Datum:Temp:Feuchte:
Aussen-T/F 2076 27-12-2019 09:53:17 4.8 C 41 %
2077 27-12-2019 10:03:17 4.9 C 41 %
2078 27-12-2019 10:13:17 4.8 C 40 %
2079 27-12-2019 10:23:17 4.8 C 40 %
2080 27-12-2019 10:33:18 4.9 C 40 %
2081 27-12-2019 10:43:18 4.9 C 40 %
2082 27-12-2019 10:53:17 5 C 38 %
2083 27-12-2019 11:03:18 5 C 38 %
2084 27-12-2019 11:13:18 5.1 C 37 %
2085 27-12-2019 11:23:17 5.1 C 37 %
2086 27-12-2019 11:33:17 5.2 C 36 %
2087 27-12-2019 11:43:17 5.7 C 33 %
2088 27-12-2019 11:53:17 6 C 31 %
2089 27-12-2019 12:03:17 6.1 C 31 %
2090 27-12-2019 12:13:17 5.9 C 31 %
2091 27-12-2019 12:23:17 5.9 C 31 %
2092 27-12-2019 12:33:17 6 C 31 %
2093 27-12-2019 12:43:17 6 C 31 %
2094 27-12-2019 12:53:17 5.9 C 31 %
2095 27-12-2019 13:03:17 5.7 C 31 %
2096 27-12-2019 13:13:17 5.7 C 31 %
2097 27-12-2019 13:23:17 5.6 C 31 %
2098 27-12-2019 13:33:17 5.7 C 31 %
2099 27-12-2019 13:43:17 5.7 C 30 %
2100 27-12-2019 13:53:17 5.8 C 30 %
Sensor: Nr:Datum:Temp:Feuchte:
Aussen-T/F 2101 27-12-2019 14:03:18 5.9 C 30 %
2102 27-12-2019 14:13:18 6.1 C 29 %
2103 27-12-2019 14:23:18 5.9 C 29 %
2104 27-12-2019 14:33:17 6 C 30 %
2105 27-12-2019 14:43:17 5.9 C 28 %
2106 27-12-2019 14:53:18 5.8 C 26 %
2107 27-12-2019 15:03:17 5.7 C 27 %
2108 27-12-2019 15:13:17 5.7 C 28 %
2109 27-12-2019 15:23:18 5.6 C 29 %
2110 27-12-2019 15:33:17 5.6 C 29 %
2111 27-12-2019 15:43:17 5.4 C 30 %
2112 27-12-2019 15:53:17 5.3 C 31 %
2113 27-12-2019 16:03:17 5.1 C 33 %
2114 27-12-2019 16:13:17 4.9 C 33 %
2115 27-12-2019 16:23:17 4.9 C 33 %
2116 27-12-2019 16:33:17 4.8 C 34 %
2117 27-12-2019 16:43:17 4.7 C 33 %
2118 27-12-2019 16:53:17 4.6 C 34 %
2119 27-12-2019 17:03:17 4.5 C 34 %
2120 27-12-2019 17:13:17 4.5 C 35 %
2121 27-12-2019 17:23:17 4.5 C 33 %
2122 27-12-2019 17:33:18 4.5 C 34 %
2123 27-12-2019 17:43:18 4.5 C 34 %
2124 27-12-2019 17:53:17 4.4 C 34 %
2125 27-12-2019 18:03:18 4.4 C 33 %
Sensor: Nr:Datum:Temp:Feuchte:
Aussen-T/F 2126 27-12-2019 18:13:18 4.4 C 33 %
2127 27-12-2019 18:23:17 4.4 C 32 %
2128 27-12-2019 18:33:18 4.4 C 34 %
2129 27-12-2019 18:43:18 4.3 C 34 %
2130 27-12-2019 18:53:17 4.2 C 33 %
2131 27-12-2019 19:03:17 4.2 C 33 %
2132 27-12-2019 19:13:17 4.2 C 33 %
2133 27-12-2019 19:23:17 4.3 C 32 %
2134 27-12-2019 19:33:17 4.2 C 33 %
2135 27-12-2019 19:43:17 4.1 C 34 %
2136 27-12-2019 19:53:18 3.9 C 35 %
2137 27-12-2019 20:03:17 3.8 C 34 %
2138 27-12-2019 20:13:17 4 C 32 %
2139 27-12-2019 20:23:17 4 C 32 %
2140 27-12-2019 20:33:18 4 C 32 %
2141 27-12-2019 20:43:18 4 C 31 %
2142 27-12-2019 20:53:17 4.1 C 31 %
2143 27-12-2019 21:03:18 4.1 C 31 %
2144 27-12-2019 21:13:18 4 C 31 %
2145 27-12-2019 21:23:17 4 C 31 %
2146 27-12-2019 21:33:18 3.9 C 33 %
2147 27-12-2019 21:43:18 3.9 C 32 %
2148 27-12-2019 21:53:17 3.7 C 32 %
2149 27-12-2019 22:03:17 3.6 C 32 %
2150 27-12-2019 22:13:17 3.3 C 32 %
Sensor: Nr:Datum:Temp:Feuchte:
Aussen-T/F 2151 27-12-2019 22:23:17 3.2 C 32 %
2152 27-12-2019 22:33:17 2.7 C 33 %
2153 27-12-2019 22:43:17 2.2 C 34 %
2154 27-12-2019 22:53:17 2 C 35 %
2155 27-12-2019 23:03:18 1.7 C 38 %
2156 27-12-2019 23:13:18 1.3 C 39 %
2157 27-12-2019 23:23:17 1.2 C 41 %
2158 27-12-2019 23:33:17 0.9 C 42 %
2159 27-12-2019 23:43:17 0.8 C 41 %
2160 27-12-2019 23:53:17 0.7 C 41 %
2161 28-12-2019 00:03:17 0.5 C 40 %
2162 28-12-2019 00:13:17 0.4 C 41 %
2163 28-12-2019 00:23:18 0.4 C 41 %
2164 28-12-2019 00:33:17 0.3 C 41 %
2165 28-12-2019 00:43:17 0.3 C 41 %
2166 28-12-2019 00:53:17 0.2 C 40 %
2167 28-12-2019 01:03:17 0.1 C 40 %
2168 28-12-2019 01:13:17 -0.2 C 43 %
2169 28-12-2019 01:23:17 -0.5 C 43 %
2170 28-12-2019 01:33:17 -0.3 C 44 %
2171 28-12-2019 01:43:17 -0.7 C 42 %
2172 28-12-2019 01:53:17 -1.1 C 43 %
2173 28-12-2019 02:03:17 -1.3 C 45 %
2174 28-12-2019 02:13:17 -1.5 C 44 %
2175 28-12-2019 02:23:17 -1.7 C 44 %
Sensor: Nr:Datum:Temp:Feuchte:
Aussen-T/F 2176 28-12-2019 02:33:18 -1.5 C 45 %
2177 28-12-2019 02:43:18 -1.5 C 45 %
2178 28-12-2019 02:53:17 -1.6 C 45 %
2179 28-12-2019 03:03:17 -1.9 C 45 %
2180 28-12-2019 03:13:18 -1.7 C 45 %
2181 28-12-2019 03:23:17 -2.1 C 45 %
2182 28-12-2019 03:33:17 -2.1 C 45 %
2183 28-12-2019 03:43:17 -2.1 C 45 %
2184 28-12-2019 03:53:18 -2.4 C 45 %
2185 28-12-2019 04:03:17 -2.4 C 45 %
2186 28-12-2019 04:13:17 -2.4 C 45 %
2187 28-12-2019 04:23:17 -2.3 C 45 %
2188 28-12-2019 04:33:17 -2.4 C 45 %
2189 28-12-2019 04:43:18 -2.3 C 45 %
2190 28-12-2019 04:53:17 -2.4 C 45 %
2191 28-12-2019 05:03:18 -2.6 C 44 %
2192 28-12-2019 05:13:18 -2.7 C 44 %
2193 28-12-2019 05:23:17 -2.5 C 45 %
2194 28-12-2019 05:33:18 -2.5 C 45 %
2195 28-12-2019 05:43:18 -2.1 C 45 %
2196 28-12-2019 05:53:17 -2.3 C 45 %
2197 28-12-2019 06:03:17 -1.8 C 45 %
2198 28-12-2019 06:13:18 -2.1 C 44 %
2199 28-12-2019 06:23:17 -2.2 C 43 %
2200 28-12-2019 06:33:17 -2 C 44 %
Sensor: Nr:Datum:Temp:Feuchte:
Aussen-T/F 2201 28-12-2019 06:43:18 -1.9 C 44 %
2202 28-12-2019 06:53:17 -2.1 C 43 %
2203 28-12-2019 07:03:18 -2 C 43 %
2204 28-12-2019 07:13:18 -2.3 C 43 %
2205 28-12-2019 07:23:17 -2.8 C 42 %
2206 28-12-2019 07:33:17 -2.3 C 43 %
2207 28-12-2019 07:43:17 -2.4 C 43 %
2208 28-12-2019 07:53:17 -2.2 C 44 %
2209 28-12-2019 08:03:17 -2.6 C 43 %
2210 28-12-2019 08:13:17 -3 C 42 %
2211 28-12-2019 08:23:18 -3.1 C 42 %
2212 28-12-2019 08:33:17 -3.2 C 42 %
2213 28-12-2019 08:43:17 -3.2 C 42 %
2214 28-12-2019 08:53:17 -2.9 C 43 %
2215 28-12-2019 09:03:18 -2.9 C 43 %
2216 28-12-2019 09:13:18 -2.8 C 43 %
2217 28-12-2019 09:23:17 -2.7 C 43 %
2218 28-12-2019 09:33:17 -2.5 C 43 %
2219 28-12-2019 09:43:17 -1.9 C 45 %
2220 28-12-2019 09:53:17 -1.7 C 45 %
2221 28-12-2019 10:03:17 -1.6 C 45 %
2222 28-12-2019 10:13:17 -1.4 C 45 %
2223 28-12-2019 10:23:17 -1.5 C 45 %
2224 28-12-2019 10:33:18 -1.3 C 45 %
2225 28-12-2019 10:43:18 -1.3 C 45 %
Sensor: Nr:Datum:Temp:Feuchte:
Aussen-T/F 2226 28-12-2019 10:53:17 -1.1 C 45 %
2227 28-12-2019 11:03:18 -1 C 44 %
2228 28-12-2019 11:13:18 -0.9 C 44 %
2229 28-12-2019 11:23:17 -0.6 C 44 %
2230 28-12-2019 11:33:17 -0.5 C 43 %
2231 28-12-2019 11:43:18 -0.3 C 42 %
2232 28-12-2019 11:53:17 -0.2 C 42 %
2233 28-12-2019 12:03:17 -0.2 C 41 %
2234 28-12-2019 12:13:17 0 C 41 %
2235 28-12-2019 12:23:17 0.2 C 41 %
2236 28-12-2019 12:33:17 0.3 C 41 %
2237 28-12-2019 12:43:18 0.4 C 40 %
2238 28-12-2019 12:53:17 0.5 C 40 %
2239 28-12-2019 13:03:18 0.7 C 40 %
2240 28-12-2019 13:13:18 0.8 C 40 %
2241 28-12-2019 13:23:17 0.8 C 40 %
2242 28-12-2019 13:33:17 0.9 C 40 %
2243 28-12-2019 13:43:17 0.8 C 40 %
2244 28-12-2019 13:53:17 0.6 C 40 %
2245 28-12-2019 14:03:17 0.6 C 41 %
2246 28-12-2019 14:13:17 0.7 C 41 %
2247 28-12-2019 14:23:17 0.8 C 40 %
2248 28-12-2019 14:33:17 0.7 C 40 %
2249 28-12-2019 14:43:17 0.6 C 40 %
2250 28-12-2019 14:53:17 0.5 C 40 %
Sensor: Nr:Datum:Temp:Feuchte:
Aussen-T/F 2251 28-12-2019 15:03:17 0.5 C 40 %
2252 28-12-2019 15:13:18 0.5 C 40 %
2253 28-12-2019 15:23:17 0.2 C 40 %
2254 28-12-2019 15:33:17 0.4 C 40 %
2255 28-12-2019 15:43:17 0.3 C 39 %
2256 28-12-2019 15:53:18 0.4 C 39 %
2257 28-12-2019 16:03:17 0.3 C 38 %
2258 28-12-2019 16:13:17 0.2 C 38 %
2259 28-12-2019 16:23:17 0 C 39 %
2260 28-12-2019 16:33:17 0 C 39 %
2261 28-12-2019 16:43:17 -0.1 C 38 %
2262 28-12-2019 16:53:17 -0.3 C 39 %
2263 28-12-2019 17:03:17 -0.4 C 39 %
2264 28-12-2019 17:13:17 -0.4 C 40 %
2265 28-12-2019 17:23:17 -0.5 C 40 %
2266 28-12-2019 17:33:18 -0.6 C 40 %
2267 28-12-2019 17:43:18 -0.7 C 41 %
2268 28-12-2019 17:53:17 -1.3 C 41 %
2269 28-12-2019 18:03:17 -1.2 C 44 %
2270 28-12-2019 18:13:17 -1.1 C 43 %
2271 28-12-2019 18:23:17 -1.1 C 43 %
2272 28-12-2019 18:33:17 -0.9 C 43 %
2273 28-12-2019 18:43:17 -1.2 C 43 %
2274 28-12-2019 18:53:17 -0.9 C 43 %
2275 28-12-2019 19:03:17 -1.2 C 42 %
Sensor: Nr:Datum:Temp:Feuchte:
Aussen-T/F 2276 28-12-2019 19:13:18 -1.7 C 42 %
2277 28-12-2019 19:23:17 -1.9 C 43 %
2278 28-12-2019 19:33:18 -1.9 C 44 %
2279 28-12-2019 19:43:18 -1.9 C 44 %
2280 28-12-2019 19:53:17 -1.8 C 44 %
2281 28-12-2019 20:03:17 -1.9 C 44 %
2282 28-12-2019 20:13:17 -1.7 C 45 %
2283 28-12-2019 20:23:17 -1.2 C 45 %
2284 28-12-2019 20:33:18 -1.2 C 43 %
2285 28-12-2019 20:43:18 -1.4 C 43 %
2286 28-12-2019 20:53:18 -1.2 C 44 %
2287 28-12-2019 21:03:17 -1.6 C 43 %
2288 28-12-2019 21:13:17 -1.3 C 44 %
2289 28-12-2019 21:23:17 -1.4 C 41 %
2290 28-12-2019 21:33:17 -1.8 C 41 %
2291 28-12-2019 21:43:18 -1.6 C 43 %
2292 28-12-2019 21:53:17 -1.7 C 42 %
2293 28-12-2019 22:03:18 -1.7 C 42 %
2294 28-12-2019 22:13:18 -2.2 C 41 %
2295 28-12-2019 22:23:17 -2.3 C 42 %
2296 28-12-2019 22:33:17 -2.3 C 42 %
2297 28-12-2019 22:43:17 -2.5 C 42 %
2298 28-12-2019 22:53:17 -2.2 C 43 %
2299 28-12-2019 23:03:17 -2.5 C 42 %
2300 28-12-2019 23:13:17 -2.3 C 43 %
Sensor: Nr:Datum:Temp:Feuchte:
Aussen-T/F 2301 28-12-2019 23:23:17 -2.3 C 43 %
2302 28-12-2019 23:33:17 -2.7 C 42 %
2303 28-12-2019 23:43:17 -2.6 C 43 %
2304 28-12-2019 23:53:17 -2.9 C 42 %
2305 29-12-2019 00:03:18 -2.6 C 43 %
2306 29-12-2019 00:13:18 -2.9 C 43 %
2307 29-12-2019 00:23:17 -3.1 C 42 %
2308 29-12-2019 00:33:17 -3.2 C 43 %
2309 29-12-2019 00:43:17 -3.1 C 43 %
2310 29-12-2019 00:53:17 -3.1 C 43 %
2311 29-12-2019 01:03:17 -3.3 C 42 %
2312 29-12-2019 01:13:17 -3.3 C 43 %
2313 29-12-2019 01:23:17 -3.5 C 42 %
2314 29-12-2019 01:33:17 -3.7 C 42 %
2315 29-12-2019 01:43:17 -3 C 44 %
2316 29-12-2019 01:53:17 -3.5 C 42 %
2317 29-12-2019 02:03:17 -3.7 C 41 %
2318 29-12-2019 02:13:17 -3.8 C 42 %
2319 29-12-2019 02:23:17 -3.3 C 43 %
2320 29-12-2019 02:33:17 -3.7 C 41 %
2321 29-12-2019 02:43:17 -3.7 C 42 %
2322 29-12-2019 02:53:18 -3.8 C 41 %
2323 29-12-2019 03:03:17 -4 C 41 %
2324 29-12-2019 03:13:17 -4 C 42 %
2325 29-12-2019 03:23:17 -4 C 41 %
Sensor: Nr:Datum:Temp:Feuchte:
Aussen-T/F 2326 29-12-2019 03:33:17 -4.1 C 41 %
2327 29-12-2019 03:43:17 -4.1 C 41 %
2328 29-12-2019 03:53:18 -4 C 42 %
2329 29-12-2019 04:03:17 -4.2 C 41 %
2330 29-12-2019 04:13:17 -3.9 C 42 %
2331 29-12-2019 04:23:17 -4.1 C 41 %
2332 29-12-2019 04:33:17 -4.1 C 41 %
2333 29-12-2019 04:43:17 -4.4 C 41 %
2334 29-12-2019 04:53:17 -4.2 C 41 %
2335 29-12-2019 05:03:17 -4.3 C 41 %
2336 29-12-2019 05:13:17 -4.5 C 41 %
2337 29-12-2019 05:23:17 -4.5 C 41 %
2338 29-12-2019 05:33:18 -4.4 C 41 %
2339 29-12-2019 05:43:18 -4.5 C 41 %
2340 29-12-2019 05:53:17 -4.7 C 41 %
2341 29-12-2019 06:03:17 -4.6 C 41 %
2342 29-12-2019 06:13:17 -4.7 C 41 %
2343 29-12-2019 06:23:17 -4.8 C 41 %
2344 29-12-2019 06:33:17 -4.8 C 41 %
2345 29-12-2019 06:43:17 -4.8 C 41 %
2346 29-12-2019 06:53:17 -4.8 C 41 %
2347 29-12-2019 07:03:17 -4.9 C 41 %
2348 29-12-2019 07:13:17 -4.9 C 41 %
2349 29-12-2019 07:23:17 -5 C 41 %
2350 29-12-2019 07:33:17 -4.5 C 42 %
Sensor: Nr:Datum:Temp:Feuchte:
Aussen-T/F 2351 29-12-2019 07:43:17 -4.7 C 41 %
2352 29-12-2019 07:53:17 -4.7 C 41 %
2353 29-12-2019 08:03:17 -4.4 C 42 %
2354 29-12-2019 08:13:17 -4.3 C 42 %
2355 29-12-2019 08:23:18 -3.9 C 43 %
2356 29-12-2019 08:33:17 -4.1 C 41 %
2357 29-12-2019 08:43:17 -4.3 C 41 %
2358 29-12-2019 08:53:17 -4.5 C 40 %
2359 29-12-2019 09:03:17 -4.1 C 42 %
2360 29-12-2019 09:13:17 -3.9 C 42 %
2361 29-12-2019 09:23:18 -4 C 41 %
2362 29-12-2019 09:33:17 -4.1 C 41 %
2363 29-12-2019 09:43:17 -4 C 41 %
2364 29-12-2019 09:53:17 -4 C 41 %
2365 29-12-2019 10:03:18 -4 C 40 %
2366 29-12-2019 10:13:18 -3.9 C 41 %
2367 29-12-2019 10:23:17 -3.5 C 42 %
2368 29-12-2019 10:33:17 -3.3 C 42 %
2369 29-12-2019 10:43:17 -3.1 C 42 %
2370 29-12-2019 10:53:17 -2.6 C 43 %
2371 29-12-2019 11:03:17 -2.1 C 43 %
2372 29-12-2019 11:13:17 -1.8 C 42 %
2373 29-12-2019 11:23:17 -1.4 C 43 %
2374 29-12-2019 11:33:17 -1.3 C 42 %
2375 29-12-2019 11:43:18 -0.8 C 43 %
Sensor: Nr:Datum:Temp:Feuchte:
Aussen-T/F 2376 29-12-2019 11:53:17 -0.4 C 42 %
2377 29-12-2019 12:03:18 -0.5 C 41 %
2378 29-12-2019 12:13:18 -0.3 C 41 %
2379 29-12-2019 12:23:17 0.1 C 40 %
2380 29-12-2019 12:33:17 0.3 C 40 %
2381 29-12-2019 12:43:17 0.5 C 40 %
2382 29-12-2019 12:53:17 0.4 C 40 %
2383 29-12-2019 13:03:17 0.7 C 38 %
2384 29-12-2019 13:13:17 1 C 37 %
2385 29-12-2019 13:23:17 1 C 37 %
2386 29-12-2019 13:33:18 1.4 C 36 %
2387 29-12-2019 13:43:18 1.4 C 38 %
2388 29-12-2019 13:53:17 1.5 C 37 %
2389 29-12-2019 14:03:17 1.5 C 36 %
2390 29-12-2019 14:13:17 1.4 C 37 %
2391 29-12-2019 14:23:17 1.7 C 36 %
2392 29-12-2019 14:33:18 1.9 C 36 %
2393 29-12-2019 14:43:18 2.2 C 34 %
2394 29-12-2019 14:53:17 2.1 C 33 %
2395 29-12-2019 15:03:17 1.9 C 34 %
2396 29-12-2019 15:13:18 2 C 31 %
2397 29-12-2019 15:23:17 2 C 27 %
2398 29-12-2019 15:33:17 1.9 C 30 %
2399 29-12-2019 15:43:17 1.5 C 32 %
2400 29-12-2019 15:53:18 1.1 C 32 %
Sensor: Nr:Datum:Temp:Feuchte:
Aussen-T/F 2401 29-12-2019 16:03:17 0.5 C 35 %
2402 29-12-2019 16:13:17 0.2 C 38 %
2403 29-12-2019 16:23:17 0.2 C 39 %
2404 29-12-2019 16:33:18 -0.3 C 39 %
2405 29-12-2019 16:43:18 -0.1 C 40 %
2406 29-12-2019 16:53:17 -0.2 C 40 %
2407 29-12-2019 17:03:17 -0.2 C 40 %
2408 29-12-2019 17:13:17 -0.3 C 39 %
2409 29-12-2019 17:23:17 -0.3 C 37 %
2410 29-12-2019 17:33:17 -0.3 C 37 %
2411 29-12-2019 17:43:17 -0.1 C 36 %
2412 29-12-2019 17:53:17 -0.2 C 38 %
2413 29-12-2019 18:03:17 -0.1 C 37 %
2414 29-12-2019 18:13:17 0.1 C 37 %
2415 29-12-2019 18:23:17 0.2 C 36 %
2416 29-12-2019 18:33:17 -0.2 C 38 %
2417 29-12-2019 18:43:17 -0.5 C 40 %
2418 29-12-2019 18:53:17 -0.8 C 40 %
2419 29-12-2019 19:03:17 -0.5 C 41 %
2420 29-12-2019 19:13:17 -0.7 C 38 %
2421 29-12-2019 19:23:18 -0.6 C 37 %
2422 29-12-2019 19:33:18 -0.6 C 35 %
2423 29-12-2019 19:43:18 -1 C 35 %
2424 29-12-2019 19:53:17 -1.1 C 36 %
2425 29-12-2019 20:03:18 -0.9 C 34 %
Sensor: Nr:Datum:Temp:Feuchte:
Aussen-T/F 2426 29-12-2019 20:13:18 -1.2 C 36 %
2427 29-12-2019 20:23:17 -0.7 C 35 %
2428 29-12-2019 20:33:17 -1.3 C 37 %
2429 29-12-2019 20:43:17 -0.9 C 39 %
2430 29-12-2019 20:53:17 -1.5 C 39 %
2431 29-12-2019 21:03:17 -1.2 C 38 %
2432 29-12-2019 21:13:17 -1.8 C 37 %
2433 29-12-2019 21:23:17 -1.8 C 40 %
2434 29-12-2019 21:33:18 -1.8 C 41 %
2435 29-12-2019 21:43:18 -2.1 C 42 %
2436 29-12-2019 21:53:17 -2.3 C 42 %
2437 29-12-2019 22:03:17 -2.2 C 43 %
2438 29-12-2019 22:13:17 -2.1 C 43 %
2439 29-12-2019 22:23:17 -2.4 C 42 %
2440 29-12-2019 22:33:17 -2.7 C 42 %
2441 29-12-2019 22:43:18 -2.7 C 43 %
2442 29-12-2019 22:53:17 -2.7 C 43 %
2443 29-12-2019 23:03:17 -2.8 C 43 %
2444 29-12-2019 23:13:17 -2.7 C 44 %
2445 29-12-2019 23:23:17 -2.8 C 43 %
2446 29-12-2019 23:33:18 -3 C 43 %
2447 29-12-2019 23:43:18 -3 C 43 %
2448 29-12-2019 23:53:17 -3 C 42 %
2449 30-12-2019 00:03:17 -3 C 42 %
2450 30-12-2019 00:13:17 -3.1 C 41 %
Sensor: Nr:Datum:Temp:Feuchte:
Aussen-T/F 2451 30-12-2019 00:23:17 -3.1 C 41 %
2452 30-12-2019 00:33:17 -3 C 42 %
2453 30-12-2019 00:43:17 -3.2 C 42 %
2454 30-12-2019 00:53:17 -3.2 C 42 %
2455 30-12-2019 01:03:17 -3.2 C 42 %
2456 30-12-2019 01:13:18 -3.1 C 44 %
2457 30-12-2019 01:23:17 -3.1 C 43 %
2458 30-12-2019 01:33:18 -3.2 C 42 %
2459 30-12-2019 01:43:18 -3.4 C 42 %
2460 30-12-2019 01:53:17 -3.5 C 42 %
2461 30-12-2019 02:03:17 -3.2 C 43 %
2462 30-12-2019 02:13:17 -3.4 C 43 %
2463 30-12-2019 02:23:17 -3.4 C 43 %
2464 30-12-2019 02:33:18 -3.4 C 43 %
2465 30-12-2019 02:43:18 -3.4 C 43 %
2466 30-12-2019 02:53:17 -3.4 C 43 %
2467 30-12-2019 03:03:17 -3.3 C 43 %
2468 30-12-2019 03:13:17 -3.4 C 43 %
2469 30-12-2019 03:23:17 -3.1 C 43 %
2470 30-12-2019 03:33:18 -3.2 C 43 %
2471 30-12-2019 03:43:18 -3.3 C 43 %
2472 30-12-2019 03:53:17 -3.5 C 43 %
2473 30-12-2019 04:03:17 -3.7 C 42 %
2474 30-12-2019 04:13:17 -3.8 C 42 %
2475 30-12-2019 04:23:17 -3.8 C 42 %
Sensor: Nr:Datum:Temp:Feuchte:
Aussen-T/F 2476 30-12-2019 04:33:17 -3.9 C 42 %
2477 30-12-2019 04:43:17 -3.9 C 42 %
2478 30-12-2019 04:53:17 -4 C 42 %
2479 30-12-2019 05:03:17 -3.9 C 42 %
2480 30-12-2019 05:13:17 -3.8 C 42 %
2481 30-12-2019 05:23:17 -3.9 C 42 %
2482 30-12-2019 05:33:17 -3.7 C 43 %
2483 30-12-2019 05:43:17 -3.8 C 43 %
2484 30-12-2019 05:53:18 -4 C 42 %
2485 30-12-2019 06:03:17 -4 C 42 %
2486 30-12-2019 06:13:17 -4 C 42 %
2487 30-12-2019 06:23:17 -3.9 C 42 %
2488 30-12-2019 06:33:17 -3.7 C 43 %
2489 30-12-2019 06:43:17 -3.9 C 42 %
2490 30-12-2019 06:53:17 -4 C 42 %
2491 30-12-2019 07:03:17 -4 C 42 %
2492 30-12-2019 07:13:17 -4.2 C 41 %
2493 30-12-2019 07:23:17 -4.4 C 42 %
2494 30-12-2019 07:33:18 -4.4 C 41 %
2495 30-12-2019 07:43:18 -4.4 C 42 %
2496 30-12-2019 07:53:17 -4.2 C 42 %
2497 30-12-2019 08:03:17 -4.4 C 41 %
2498 30-12-2019 08:13:17 -4.3 C 42 %
2499 30-12-2019 08:23:17 -4.4 C 42 %
2500 30-12-2019 08:33:17 -4.5 C 41 %
Sensor: Nr:Datum:Temp:Feuchte:
Aussen-T/F 2501 30-12-2019 08:43:17 -4 C 43 %
2502 30-12-2019 08:53:17 -4.2 C 41 %
2503 30-12-2019 09:03:18 -4.1 C 42 %
2504 30-12-2019 09:13:18 -3.9 C 42 %
2505 30-12-2019 09:23:17 -3.8 C 42 %
2506 30-12-2019 09:33:17 -3.6 C 43 %
2507 30-12-2019 09:43:17 -3.7 C 42 %
2508 30-12-2019 09:53:17 -3.7 C 42 %
2509 30-12-2019 10:03:17 -3.5 C 42 %
2510 30-12-2019 10:13:17 -3.3 C 43 %
2511 30-12-2019 10:23:17 -3.3 C 42 %
2512 30-12-2019 10:33:17 -3.3 C 42 %
2513 30-12-2019 10:43:17 -3 C 43 %
2514 30-12-2019 10:53:17 -2.9 C 42 %
2515 30-12-2019 11:03:17 -2.9 C 42 %
2516 30-12-2019 11:13:17 -2.8 C 42 %
2517 30-12-2019 11:23:17 -2.4 C 43 %
2518 30-12-2019 11:33:17 -2.1 C 42 %
2519 30-12-2019 11:43:17 -2 C 41 %
2520 30-12-2019 11:53:18 -2.1 C 40 %
2521 30-12-2019 12:03:17 -1.7 C 41 %
2522 30-12-2019 12:13:17 -1.5 C 40 %
2523 30-12-2019 12:23:17 -1.6 C 40 %
2524 30-12-2019 12:33:17 -1.4 C 41 %
2525 30-12-2019 12:43:17 -0.7 C 39 %
Sensor: Nr:Datum:Temp:Feuchte:
Aussen-T/F 2526 30-12-2019 12:53:17 -0.8 C 39 %
2527 30-12-2019 13:03:17 -0.8 C 38 %
2528 30-12-2019 13:13:17 -1 C 40 %
2529 30-12-2019 13:23:17 -1 C 41 %
2530 30-12-2019 13:33:17 -1 C 42 %
2531 30-12-2019 13:43:17 -0.6 C 42 %
2532 30-12-2019 13:53:17 -0.2 C 41 %
2533 30-12-2019 14:03:17 0.3 C 37 %
2534 30-12-2019 14:13:17 0.1 C 35 %
2535 30-12-2019 14:23:17 0.6 C 35 %
2536 30-12-2019 14:33:17 0.5 C 35 %
2537 30-12-2019 14:43:17 1 C 32 %
2538 30-12-2019 14:53:17 0.6 C 35 %
2539 30-12-2019 15:03:17 0.9 C 36 %
2540 30-12-2019 15:13:17 1.1 C 33 %
2541 30-12-2019 15:23:17 0.6 C 35 %
2542 30-12-2019 15:33:18 0.6 C 36 %
2543 30-12-2019 15:43:18 0.7 C 35 %
2544 30-12-2019 15:53:17 1.6 C 32 %
2545 30-12-2019 16:03:18 1.7 C 32 %
2546 30-12-2019 16:13:18 1.9 C 31 %
2547 30-12-2019 16:23:18 1.6 C 33 %
2548 30-12-2019 16:33:17 1.1 C 35 %
2549 30-12-2019 16:43:17 0.8 C 37 %
2550 30-12-2019 16:53:17 0.6 C 40 %
Sensor: Nr:Datum:Temp:Feuchte:
Aussen-T/F 2551 30-12-2019 17:03:17 0.7 C 40 %
2552 30-12-2019 17:13:17 0.7 C 40 %
2553 30-12-2019 17:23:18 0.6 C 40 %
2554 30-12-2019 17:33:17 0.5 C 40 %
2555 30-12-2019 17:43:17 0.5 C 40 %
2556 30-12-2019 17:53:17 0.5 C 37 %
2557 30-12-2019 18:03:17 0.3 C 36 %
2558 30-12-2019 18:13:17 -0.3 C 36 %
2559 30-12-2019 18:23:18 -0.7 C 37 %
2560 30-12-2019 18:33:18 -0.4 C 36 %
2561 30-12-2019 18:43:18 -0.2 C 36 %
2562 30-12-2019 18:53:17 -0.6 C 34 %
2563 30-12-2019 19:03:17 -1.3 C 36 %
2564 30-12-2019 19:13:17 -1 C 36 %
2565 30-12-2019 19:23:18 -1.4 C 36 %
2566 30-12-2019 19:33:17 -1.4 C 39 %
2567 30-12-2019 19:43:17 -0.4 C 33 %
2568 30-12-2019 19:53:18 0 C 32 %
2569 30-12-2019 20:03:17 -0.3 C 31 %
2570 30-12-2019 20:13:17 -1.2 C 32 %
2571 30-12-2019 20:23:17 -1.6 C 35 %
2572 30-12-2019 20:33:17 -1.6 C 36 %
2573 30-12-2019 20:43:17 -1.7 C 36 %
2574 30-12-2019 20:53:17 -1.5 C 37 %
2575 30-12-2019 21:03:17 -1.9 C 37 %
Sensor: Nr:Datum:Temp:Feuchte:
Aussen-T/F 2576 30-12-2019 21:13:17 -0.8 C 35 %
2577 30-12-2019 21:23:17 -1.1 C 35 %
2578 30-12-2019 21:33:17 -0.9 C 35 %
2579 30-12-2019 21:43:17 -0.8 C 36 %
2580 30-12-2019 21:53:17 -1.1 C 33 %
2581 30-12-2019 22:03:17 -1.5 C 35 %
2582 30-12-2019 22:13:17 -1.7 C 35 %
2583 30-12-2019 22:23:17 -1.7 C 35 %
2584 30-12-2019 22:33:17 -2.3 C 35 %
2585 30-12-2019 22:43:17 -1.8 C 35 %
2586 30-12-2019 22:53:17 -2 C 36 %
2587 30-12-2019 23:03:17 -2.3 C 36 %
2588 30-12-2019 23:13:17 -1.5 C 36 %
2589 30-12-2019 23:23:17 -0.9 C 32 %
2590 30-12-2019 23:33:17 -0.3 C 31 %
2591 30-12-2019 23:43:17 -0.9 C 31 %
2592 30-12-2019 23:53:17 -1 C 31 %
2593 31-12-2019 00:03:17 -1.2 C 32 %
2594 31-12-2019 00:13:18 -1.4 C 34 %
2595 31-12-2019 00:23:17 -1.6 C 36 %
2596 31-12-2019 00:33:18 -1.2 C 35 %
2597 31-12-2019 00:43:18 -1.5 C 35 %
2598 31-12-2019 00:53:17 -1.5 C 36 %
2599 31-12-2019 01:03:17 -1.5 C 36 %
2600 31-12-2019 01:13:17 -0.8 C 34 %
Sensor: Nr:Datum:Temp:Feuchte:
Aussen-T/F 2601 31-12-2019 01:23:18 -1.3 C 34 %
2602 31-12-2019 01:33:17 -1.6 C 37 %
2603 31-12-2019 01:43:17 -2 C 37 %
2604 31-12-2019 01:53:17 -2.3 C 38 %
2605 31-12-2019 02:03:17 -2.5 C 40 %
2606 31-12-2019 02:13:17 -2.7 C 40 %
2607 31-12-2019 02:23:18 -2.8 C 41 %
2608 31-12-2019 02:33:17 -3 C 41 %
2609 31-12-2019 02:43:17 -2.9 C 43 %
2610 31-12-2019 02:53:17 -2 C 45 %
2611 31-12-2019 03:03:17 -1.7 C 42 %
2612 31-12-2019 03:13:18 -2 C 40 %
2613 31-12-2019 03:23:17 -2.4 C 40 %
2614 31-12-2019 03:33:18 -2.5 C 41 %
2615 31-12-2019 03:43:18 -2.9 C 41 %
2616 31-12-2019 03:53:17 -2.8 C 42 %
2617 31-12-2019 04:03:17 -2.6 C 43 %
2618 31-12-2019 04:13:17 -3.1 C 42 %
2619 31-12-2019 04:23:17 -3.2 C 42 %
2620 31-12-2019 04:33:17 -3.3 C 42 %
2621 31-12-2019 04:43:18 -3.3 C 42 %
2622 31-12-2019 04:53:17 -3.2 C 43 %
2623 31-12-2019 05:03:17 -3.3 C 42 %
2624 31-12-2019 05:13:17 -3.6 C 42 %
2625 31-12-2019 05:23:17 -3.4 C 43 %
Sensor: Nr:Datum:Temp:Feuchte:
Aussen-T/F 2626 31-12-2019 05:33:17 -3.1 C 44 %
2627 31-12-2019 05:43:17 -3 C 44 %
2628 31-12-2019 05:53:17 -2.9 C 44 %
2629 31-12-2019 06:03:17 -3.1 C 43 %
2630 31-12-2019 06:13:17 -3.3 C 43 %
2631 31-12-2019 06:23:17 -3.2 C 43 %
2632 31-12-2019 06:33:17 -3.3 C 43 %
2633 31-12-2019 06:43:17 -3.4 C 43 %
2634 31-12-2019 06:53:18 -3.2 C 44 %
2635 31-12-2019 07:03:17 -3.2 C 44 %
2636 31-12-2019 07:13:17 -3 C 44 %
2637 31-12-2019 07:23:17 -3.1 C 44 %
2638 31-12-2019 07:33:17 -3 C 44 %
2639 31-12-2019 07:43:17 -2.6 C 45 %
2640 31-12-2019 07:53:18 -2.1 C 45 %
2641 31-12-2019 08:03:17 -2 C 45 %
2642 31-12-2019 08:13:17 -2 C 45 %
2643 31-12-2019 08:23:17 -1.3 C 45 %
2644 31-12-2019 08:33:17 -1 C 44 %
2645 31-12-2019 08:43:17 -1 C 43 %
2646 31-12-2019 08:53:17 -1.1 C 42 %
2647 31-12-2019 09:03:17 -1 C 43 %
2648 31-12-2019 09:13:17 -0.9 C 44 %
2649 31-12-2019 09:23:17 -1.1 C 42 %
2650 31-12-2019 09:33:17 -1.1 C 42 %
Sensor: Nr:Datum:Temp:Feuchte:
Aussen-T/F 2651 31-12-2019 09:43:17 -1.1 C 42 %
2652 31-12-2019 09:53:17 -0.9 C 43 %
2653 31-12-2019 10:03:17 -0.6 C 44 %
2654 31-12-2019 10:13:17 -0.2 C 43 %
2655 31-12-2019 10:23:17 0.1 C 41 %
2656 31-12-2019 10:33:17 0.3 C 40 %
2657 31-12-2019 10:43:17 0.3 C 38 %
2658 31-12-2019 10:53:18 0.5 C 40 %
2659 31-12-2019 11:03:17 0.8 C 41 %
2660 31-12-2019 11:13:17 0.7 C 41 %
2661 31-12-2019 11:23:17 1.2 C 40 %
2662 31-12-2019 11:33:17 1.1 C 38 %
2663 31-12-2019 11:43:17 1.5 C 40 %
2664 31-12-2019 11:53:17 1.5 C 40 %
2665 31-12-2019 12:03:18 1.8 C 31 %
2666 31-12-2019 12:13:18 2.4 C 35 %
2667 31-12-2019 12:23:17 2.6 C 33 %
2668 31-12-2019 12:33:18 2.4 C 32 %
2669 31-12-2019 12:43:18 2.8 C 30 %
2670 31-12-2019 12:53:17 2.3 C 29 %
2671 31-12-2019 13:03:18 2.4 C 28 %
2672 31-12-2019 13:13:18 2.4 C 27 %
2673 31-12-2019 13:23:17 2.8 C 27 %
2674 31-12-2019 13:33:17 2.8 C 26 %
2675 31-12-2019 13:43:17 3.3 C 26 %
Sensor: Nr:Datum:Temp:Feuchte:
Aussen-T/F 2676 31-12-2019 13:53:17 2.9 C 26 %
2677 31-12-2019 14:03:18 2.7 C 27 %
2678 31-12-2019 14:13:18 2.9 C 27 %
2679 31-12-2019 14:23:17 3.1 C 26 %
2680 31-12-2019 14:33:17 3.4 C 26 %
2681 31-12-2019 14:43:17 3.2 C 26 %
2682 31-12-2019 14:53:17 3 C 26 %
2683 31-12-2019 15:03:17 2.8 C 27 %
2684 31-12-2019 15:13:17 2.9 C 27 %
2685 31-12-2019 15:23:18 3 C 27 %
2686 31-12-2019 15:33:17 3 C 27 %
2687 31-12-2019 15:43:17 2.9 C 28 %
2688 31-12-2019 15:53:17 2.7 C 29 %
2689 31-12-2019 16:03:17 2.1 C 30 %
2690 31-12-2019 16:13:17 0.9 C 35 %
2691 31-12-2019 16:23:18 0.6 C 38 %
2692 31-12-2019 16:33:17 0.3 C 40 %
2693 31-12-2019 16:43:17 0.2 C 39 %
2694 31-12-2019 16:53:18 0.2 C 40 %
2695 31-12-2019 17:03:17 -0.1 C 41 %
2696 31-12-2019 17:13:17 -0.4 C 41 %
2697 31-12-2019 17:23:17 -0.3 C 40 %
2698 31-12-2019 17:33:17 -0.3 C 41 %
2699 31-12-2019 17:43:17 -0.6 C 43 %
2700 31-12-2019 17:53:18 -0.7 C 43 %
Sensor: Nr:Datum:Temp:Feuchte:
Aussen-T/F 2701 31-12-2019 18:03:17 -1.1 C 43 %
2702 31-12-2019 18:13:17 -1.2 C 45 %
2703 31-12-2019 18:23:17 -0.9 C 45 %
2704 31-12-2019 18:33:17 -0.8 C 45 %
2705 31-12-2019 18:43:17 -0.4 C 46 %
2706 31-12-2019 18:53:18 -0.4 C 46 %
2707 31-12-2019 19:03:17 -0.3 C 45 %
2708 31-12-2019 19:13:17 -0.1 C 46 %
2709 31-12-2019 19:23:18 0 C 45 %
2710 31-12-2019 19:33:17 0.1 C 45 %
2711 31-12-2019 19:43:17 0.2 C 45 %
2712 31-12-2019 19:53:17 0.4 C 45 %
2713 31-12-2019 20:03:18 0.5 C 45 %
2714 31-12-2019 20:13:18 0.5 C 45 %
2715 31-12-2019 20:23:17 0.4 C 45 %
2716 31-12-2019 20:33:17 0.4 C 45 %
2717 31-12-2019 20:43:17 0.3 C 43 %
2718 31-12-2019 20:53:17 0.2 C 43 %
2719 31-12-2019 21:03:17 0.2 C 43 %
2720 31-12-2019 21:13:17 0.4 C 44 %
2721 31-12-2019 21:23:18 0.4 C 44 %
2722 31-12-2019 21:33:17 0.5 C 44 %
2723 31-12-2019 21:43:17 0.6 C 43 %
2724 31-12-2019 21:53:17 0.5 C 43 %
2725 31-12-2019 22:03:17 0.6 C 42 %
Sensor: Nr:Datum:Temp:Feuchte:
Aussen-T/F 2726 31-12-2019 22:13:17 0.5 C 42 %
2727 31-12-2019 22:23:18 0.2 C 41 %
2728 31-12-2019 22:33:17 0 C 41 %
2729 31-12-2019 22:43:17 -0.2 C 42 %
2730 31-12-2019 22:53:17 -0.4 C 43 %
2731 31-12-2019 23:03:17 -0.3 C 44 %
2732 31-12-2019 23:13:17 -0.1 C 45 %
2733 31-12-2019 23:23:18 0 C 45 %
2734 31-12-2019 23:33:17 0 C 45 %
2735 31-12-2019 23:43:17 0.4 C 45 %
2736 31-12-2019 23:53:18 0.3 C 45 %
2737 01-01-2020 00:03:17 0.4 C 45 %
2738 01-01-2020 00:13:17 0.4 C 45 %
2739 01-01-2020 00:23:17 0.3 C 45 %
2740 01-01-2020 00:33:17 -0.9 C 41 %
2741 01-01-2020 00:43:17 -0.3 C 45 %
2742 01-01-2020 00:53:18 -0.5 C 44 %
2743 01-01-2020 01:03:17 -0.5 C 44 %
2744 01-01-2020 01:13:17 -0.6 C 44 %
2745 01-01-2020 01:23:17 -0.6 C 45 %
2746 01-01-2020 01:33:17 -0.7 C 45 %
2747 01-01-2020 01:43:17 -1.1 C 44 %
2748 01-01-2020 01:53:18 -0.9 C 45 %
2749 01-01-2020 02:03:17 -0.9 C 45 %
2750 01-01-2020 02:13:17 -0.5 C 46 %
Sensor: Nr:Datum:Temp:Feuchte:
Aussen-T/F 2751 01-01-2020 02:23:17 -0.2 C 45 %
2752 01-01-2020 02:33:18 -0.1 C 45 %
2753 01-01-2020 02:43:18 0 C 45 %
2754 01-01-2020 02:53:17 0.1 C 45 %
2755 01-01-2020 03:03:17 0.1 C 45 %
2756 01-01-2020 03:13:18 0.1 C 45 %
2757 01-01-2020 03:23:17 0.2 C 45 %
2758 01-01-2020 03:33:18 0.1 C 45 %
2759 01-01-2020 03:43:18 0.1 C 45 %
2760 01-01-2020 03:53:17 0.1 C 45 %
2761 01-01-2020 04:03:18 0.2 C 45 %
2762 01-01-2020 04:13:18 0.2 C 45 %
2763 01-01-2020 04:23:17 0.3 C 45 %
2764 01-01-2020 04:33:18 0.3 C 45 %
2765 01-01-2020 04:43:18 0.3 C 44 %
2766 01-01-2020 04:53:17 0.3 C 44 %
2767 01-01-2020 05:03:18 0.4 C 44 %
2768 01-01-2020 05:13:18 0.5 C 44 %
2769 01-01-2020 05:23:17 0.4 C 44 %
2770 01-01-2020 05:33:18 0.4 C 44 %
2771 01-01-2020 05:43:18 0.4 C 44 %
2772 01-01-2020 05:53:17 0.4 C 43 %
2773 01-01-2020 06:03:17 0.4 C 43 %
2774 01-01-2020 06:13:17 0.5 C 43 %
2775 01-01-2020 06:23:17 0.4 C 42 %
Sensor: Nr:Datum:Temp:Feuchte:
Aussen-T/F 2776 01-01-2020 06:33:17 0.6 C 42 %
2777 01-01-2020 06:43:17 0.6 C 42 %
2778 01-01-2020 06:53:17 0.6 C 42 %
2779 01-01-2020 07:03:18 0.6 C 41 %
2780 01-01-2020 07:13:18 0.6 C 41 %
2781 01-01-2020 07:23:17 0.6 C 41 %
2782 01-01-2020 07:33:17 0.6 C 41 %
2783 01-01-2020 07:43:17 0.6 C 41 %
2784 01-01-2020 07:53:17 0.6 C 41 %
2785 01-01-2020 08:03:17 0.6 C 41 %
2786 01-01-2020 08:13:17 0.6 C 41 %
2787 01-01-2020 08:23:18 0.7 C 40 %
2788 01-01-2020 08:33:17 0.7 C 40 %
2789 01-01-2020 08:43:17 0.7 C 40 %
2790 01-01-2020 08:53:17 0.8 C 40 %
2791 01-01-2020 09:03:17 0.8 C 40 %
2792 01-01-2020 09:13:17 1.1 C 38 %
2793 01-01-2020 09:23:17 1.3 C 38 %
2794 01-01-2020 09:33:17 1.4 C 37 %
2795 01-01-2020 09:43:17 1.5 C 37 %
2796 01-01-2020 09:53:17 1.7 C 36 %
2797 01-01-2020 10:03:18 1.9 C 36 %
2798 01-01-2020 10:13:18 2 C 34 %
2799 01-01-2020 10:23:17 2.1 C 33 %
2800 01-01-2020 10:33:17 2.2 C 32 %
Sensor: Nr:Datum:Temp:Feuchte:
Aussen-T/F 2801 01-01-2020 10:43:17 2.3 C 32 %
2802 01-01-2020 10:53:17 2.4 C 32 %
2803 01-01-2020 11:03:17 2.4 C 31 %
2804 01-01-2020 11:13:17 2.7 C 31 %
2805 01-01-2020 11:23:18 2.7 C 30 %
2806 01-01-2020 11:33:17 2.7 C 30 %
2807 01-01-2020 11:43:17 2.8 C 30 %
2808 01-01-2020 11:53:18 2.9 C 30 %
2809 01-01-2020 12:03:17 3.2 C 28 %
2810 01-01-2020 12:13:17 3 C 29 %
2811 01-01-2020 12:23:18 2.7 C 30 %
2812 01-01-2020 12:33:17 2.7 C 30 %
2813 01-01-2020 12:43:17 2.5 C 30 %
2814 01-01-2020 12:53:18 2.1 C 32 %
2815 01-01-2020 13:03:17 1.6 C 36 %
2816 01-01-2020 13:13:17 1.6 C 37 %
2817 01-01-2020 13:23:18 1.4 C 37 %
2818 01-01-2020 13:33:17 1.5 C 38 %
2819 01-01-2020 13:43:17 1.5 C 38 %
2820 01-01-2020 13:53:17 1.6 C 39 %
2821 01-01-2020 14:03:17 1.6 C 39 %
2822 01-01-2020 14:13:17 1.6 C 39 %
2823 01-01-2020 14:23:17 1.6 C 40 %
2824 01-01-2020 14:33:17 1.4 C 40 %
2825 01-01-2020 14:43:17 1.3 C 41 %
Sensor: Nr:Datum:Temp:Feuchte:
Aussen-T/F 2826 01-01-2020 14:53:17 1.2 C 41 %
2827 01-01-2020 15:03:17 1.3 C 41 %
2828 01-01-2020 15:13:17 1.2 C 41 %
2829 01-01-2020 15:23:17 1.6 C 41 %
2830 01-01-2020 15:33:17 1.7 C 38 %
2831 01-01-2020 15:43:17 1.1 C 38 %
2832 01-01-2020 15:53:17 0.7 C 40 %
2833 01-01-2020 16:03:17 0.5 C 43 %
2834 01-01-2020 16:13:17 -0.1 C 43 %
2835 01-01-2020 16:23:17 -0.3 C 44 %
2836 01-01-2020 16:33:18 -0.7 C 44 %
2837 01-01-2020 16:43:18 -0.7 C 45 %
2838 01-01-2020 16:53:17 -0.8 C 45 %
2839 01-01-2020 17:03:17 -1 C 45 %
2840 01-01-2020 17:13:17 -1.3 C 45 %
2841 01-01-2020 17:23:18 -1.5 C 45 %
2842 01-01-2020 17:33:17 -1.8 C 45 %
2843 01-01-2020 17:43:17 -1.9 C 45 %
2844 01-01-2020 17:53:18 -1.8 C 45 %
2845 01-01-2020 18:03:17 -1.9 C 45 %
2846 01-01-2020 18:13:17 -1.9 C 45 %
2847 01-01-2020 18:23:17 -2.1 C 45 %
2848 01-01-2020 18:33:17 -2.1 C 45 %
2849 01-01-2020 18:43:18 -2.1 C 45 %
2850 01-01-2020 18:53:17 -2.2 C 45 %
Sensor: Nr:Datum:Temp:Feuchte:
Aussen-T/F 2851 01-01-2020 19:03:17 -2.4 C 45 %
2852 01-01-2020 19:13:18 -2.5 C 45 %
2853 01-01-2020 19:23:17 -2.4 C 45 %
2854 01-01-2020 19:33:17 -2.3 C 45 %
2855 01-01-2020 19:43:17 -2.2 C 45 %
2856 01-01-2020 19:53:17 -2.4 C 45 %
2857 01-01-2020 20:03:17 -2.2 C 45 %
2858 01-01-2020 20:13:17 -2.1 C 45 %
2859 01-01-2020 20:23:18 -2.3 C 45 %
2860 01-01-2020 20:33:17 -2.1 C 45 %
2861 01-01-2020 20:43:17 -2.6 C 43 %
2862 01-01-2020 20:53:17 -2.8 C 43 %
2863 01-01-2020 21:03:17 -2.8 C 43 %
2864 01-01-2020 21:13:17 -3 C 43 %
2865 01-01-2020 21:23:18 -3.1 C 43 %
2866 01-01-2020 21:33:17 -3.1 C 43 %
2867 01-01-2020 21:43:17 -3.2 C 42 %
2868 01-01-2020 21:53:17 -2.8 C 43 %
2869 01-01-2020 22:03:17 -3.1 C 42 %
2870 01-01-2020 22:13:17 -3.2 C 42 %
2871 01-01-2020 22:23:17 -3 C 43 %
2872 01-01-2020 22:33:17 -2.8 C 43 %
2873 01-01-2020 22:43:17 -2.8 C 43 %
2874 01-01-2020 22:53:17 -3.2 C 42 %
2875 01-01-2020 23:03:17 -3.2 C 42 %
Sensor: Nr:Datum:Temp:Feuchte:
Aussen-T/F 2876 01-01-2020 23:13:17 -2.7 C 44 %
2877 01-01-2020 23:23:17 -2.3 C 45 %
2878 01-01-2020 23:33:17 -2.4 C 44 %
2879 01-01-2020 23:43:17 -2.2 C 45 %
2880 01-01-2020 23:53:17 -2.2 C 45 %
2881 02-01-2020 00:03:17 -2.3 C 44 %
2882 02-01-2020 00:13:17 -2.4 C 44 %
2883 02-01-2020 00:23:17 -2.6 C 43 %
2884 02-01-2020 00:33:17 -2.4 C 43 %
2885 02-01-2020 00:43:17 -2.4 C 44 %
2886 02-01-2020 00:53:17 -2.6 C 43 %
2887 02-01-2020 01:03:17 -2.3 C 44 %
2888 02-01-2020 01:13:17 -2.1 C 45 %
2889 02-01-2020 01:23:17 -1.9 C 45 %
2890 02-01-2020 01:33:17 -1.9 C 45 %
2891 02-01-2020 01:43:17 -1.8 C 45 %
2892 02-01-2020 01:53:17 -1.7 C 45 %
2893 02-01-2020 02:03:17 -1.6 C 45 %
2894 02-01-2020 02:13:17 -1.5 C 45 %
2895 02-01-2020 02:23:17 -1.4 C 45 %
2896 02-01-2020 02:33:17 -1.3 C 45 %
2897 02-01-2020 02:43:17 -1.3 C 45 %
2898 02-01-2020 02:53:17 -1.3 C 45 %
2899 02-01-2020 03:03:17 -1.2 C 45 %
2900 02-01-2020 03:13:18 -1.1 C 45 %
Sensor: Nr:Datum:Temp:Feuchte:
Aussen-T/F 2901 02-01-2020 03:23:17 -1.1 C 45 %
2902 02-01-2020 03:33:18 -1 C 45 %
2903 02-01-2020 03:43:18 -0.9 C 45 %
2904 02-01-2020 03:53:17 -0.9 C 45 %
2905 02-01-2020 04:03:18 -0.8 C 45 %
2906 02-01-2020 04:13:18 -0.7 C 45 %
2907 02-01-2020 04:23:17 -0.7 C 45 %
2908 02-01-2020 04:33:17 -0.7 C 45 %
2909 02-01-2020 04:43:17 -0.7 C 45 %
2910 02-01-2020 04:53:17 -0.8 C 45 %
2911 02-01-2020 05:03:17 -0.9 C 45 %
2912 02-01-2020 05:13:17 -0.9 C 45 %
2913 02-01-2020 05:23:18 -0.9 C 45 %
2914 02-01-2020 05:33:17 -0.9 C 45 %
2915 02-01-2020 05:43:17 -0.8 C 44 %
2916 02-01-2020 05:53:18 -0.8 C 44 %
2917 02-01-2020 06:03:17 -0.9 C 44 %
2918 02-01-2020 06:13:17 -0.9 C 43 %
2919 02-01-2020 06:23:17 -0.9 C 43 %
2920 02-01-2020 06:33:18 -0.7 C 42 %
2921 02-01-2020 06:43:18 -0.7 C 41 %
2922 02-01-2020 06:53:17 -0.7 C 40 %
2923 02-01-2020 07:03:18 -0.7 C 40 %
2924 02-01-2020 07:13:18 -0.7 C 40 %
2925 02-01-2020 07:23:17 -0.7 C 39 %
Sensor: Nr:Datum:Temp:Feuchte:
Aussen-T/F 2926 02-01-2020 07:33:17 -0.7 C 39 %
2927 02-01-2020 07:43:17 -0.7 C 40 %
2928 02-01-2020 07:53:17 -0.6 C 41 %
2929 02-01-2020 08:03:18 -0.6 C 41 %
2930 02-01-2020 08:13:18 -0.5 C 41 %
2931 02-01-2020 08:23:17 -0.4 C 41 %
2932 02-01-2020 08:33:17 -0.3 C 40 %
2933 02-01-2020 08:43:17 -0.3 C 41 %
2934 02-01-2020 08:53:17 -0.2 C 42 %
2935 02-01-2020 09:03:17 -0.1 C 42 %
2936 02-01-2020 09:13:17 0.1 C 42 %
2937 02-01-2020 09:23:17 0.1 C 40 %
2938 02-01-2020 09:33:18 0.4 C 38 %
2939 02-01-2020 09:43:18 0.5 C 37 %
2940 02-01-2020 09:53:17 0.4 C 39 %
2941 02-01-2020 10:03:17 0.4 C 40 %
2942 02-01-2020 10:13:18 0.7 C 41 %
2943 02-01-2020 10:23:17 1.1 C 42 %
2944 02-01-2020 10:33:18 1.1 C 39 %
2945 02-01-2020 10:43:18 1.3 C 39 %
2946 02-01-2020 10:53:17 1.5 C 38 %
2947 02-01-2020 11:03:18 1.7 C 38 %
2948 02-01-2020 11:13:18 1.6 C 35 %
2949 02-01-2020 11:23:17 1.9 C 37 %
2950 02-01-2020 11:33:17 2.1 C 36 %
Sensor: Nr:Datum:Temp:Feuchte:
Aussen-T/F 2951 02-01-2020 11:43:17 2.1 C 35 %
2952 02-01-2020 11:53:17 2.1 C 34 %
2953 02-01-2020 12:03:17 2.2 C 34 %
2954 02-01-2020 12:13:17 2.3 C 35 %
2955 02-01-2020 12:23:17 2.3 C 35 %
2956 02-01-2020 12:33:17 2.6 C 34 %
2957 02-01-2020 12:43:17 3 C 35 %
2958 02-01-2020 12:53:17 2.8 C 32 %
2959 02-01-2020 13:03:17 2.9 C 31 %
2960 02-01-2020 13:13:17 3.1 C 30 %
2961 02-01-2020 13:23:17 3.3 C 29 %
2962 02-01-2020 13:33:17 3.6 C 29 %
2963 02-01-2020 13:43:17 3.3 C 29 %
2964 02-01-2020 13:53:18 3.1 C 30 %
2965 02-01-2020 14:03:17 3.4 C 30 %
2966 02-01-2020 14:13:17 3.4 C 30 %
2967 02-01-2020 14:23:18 3.5 C 30 %
2968 02-01-2020 14:33:17 3.4 C 30 %
2969 02-01-2020 14:43:17 3.7 C 30 %
2970 02-01-2020 14:53:17 3.4 C 30 %
2971 02-01-2020 15:03:17 3.1 C 31 %
2972 02-01-2020 15:13:17 3 C 31 %
2973 02-01-2020 15:23:18 2.7 C 32 %
2974 02-01-2020 15:33:17 2.5 C 33 %
2975 02-01-2020 15:43:17 2.5 C 34 %
Sensor: Nr:Datum:Temp:Feuchte:
Aussen-T/F 2976 02-01-2020 15:53:17 2.4 C 35 %
2977 02-01-2020 16:03:17 2.4 C 35 %
2978 02-01-2020 16:13:17 2.3 C 35 %
2979 02-01-2020 16:23:18 2.2 C 36 %
2980 02-01-2020 16:33:17 2.2 C 37 %
2981 02-01-2020 16:43:17 2.3 C 37 %
2982 02-01-2020 16:53:17 2.2 C 37 %
2983 02-01-2020 17:03:17 2.1 C 38 %
2984 02-01-2020 17:13:17 2 C 38 %
2985 02-01-2020 17:23:18 2.1 C 40 %
2986 02-01-2020 17:33:17 2.1 C 40 %
2987 02-01-2020 17:43:17 2.1 C 40 %
2988 02-01-2020 17:53:17 2.1 C 40 %
2989 02-01-2020 18:03:17 2.1 C 40 %
2990 02-01-2020 18:13:17 2.1 C 40 %
2991 02-01-2020 18:23:17 2.1 C 40 %
2992 02-01-2020 18:33:17 2.1 C 40 %
2993 02-01-2020 18:43:18 2.2 C 39 %
2994 02-01-2020 18:53:17 2.3 C 40 %
2995 02-01-2020 19:03:17 2.2 C 40 %
2996 02-01-2020 19:13:18 2.2 C 40 %
2997 02-01-2020 19:23:17 2.3 C 40 %
2998 02-01-2020 19:33:17 2.3 C 40 %
2999 02-01-2020 19:43:18 2.3 C 40 %
3000 02-01-2020 19:53:17 2.3 C 40 %
Sensor: Nr:Datum:Temp:Feuchte:
Aussen-T/F 3001 02-01-2020 20:03:18 2.3 C 40 %
3002 02-01-2020 20:13:18 2.4 C 40 %
3003 02-01-2020 20:23:17 2.5 C 40 %
3004 02-01-2020 20:33:17 2.6 C 40 %
3005 02-01-2020 20:43:17 2.6 C 40 %
3006 02-01-2020 20:53:17 2.5 C 39 %
3007 02-01-2020 21:03:18 2.5 C 40 %
3008 02-01-2020 21:13:18 2.5 C 40 %
3009 02-01-2020 21:23:17 2.5 C 40 %
3010 02-01-2020 21:33:18 2.5 C 40 %
3011 02-01-2020 21:43:18 2.3 C 40 %
3012 02-01-2020 21:53:17 1.9 C 42 %
3013 02-01-2020 22:03:17 2.3 C 43 %
3014 02-01-2020 22:13:17 2.4 C 43 %
3015 02-01-2020 22:23:17 2.5 C 43 %
3016 02-01-2020 22:33:17 2.6 C 43 %
3017 02-01-2020 22:43:18 2.7 C 43 %
3018 02-01-2020 22:53:17 2.7 C 42 %
3019 02-01-2020 23:03:17 2.8 C 42 %
3020 02-01-2020 23:13:17 2.8 C 42 %
3021 02-01-2020 23:23:17 2.8 C 41 %
3022 02-01-2020 23:33:18 2.8 C 42 %
3023 02-01-2020 23:43:18 2.9 C 42 %
3024 02-01-2020 23:53:17 2.8 C 41 %
3025 03-01-2020 00:03:18 2.9 C 42 %
Sensor: Nr:Datum:Temp:Feuchte:
Aussen-T/F 3026 03-01-2020 00:13:18 3 C 41 %
3027 03-01-2020 00:23:17 3.1 C 41 %
3028 03-01-2020 00:33:17 3.2 C 41 %
3029 03-01-2020 00:43:17 3.2 C 41 %
3030 03-01-2020 00:53:17 3.4 C 42 %
3031 03-01-2020 01:03:17 3.4 C 42 %
3032 03-01-2020 01:13:17 3.5 C 42 %
3033 03-01-2020 01:23:18 3.5 C 42 %
3034 03-01-2020 01:33:17 3.5 C 42 %
3035 03-01-2020 01:43:17 3.6 C 42 %
3036 03-01-2020 01:53:18 3.6 C 42 %
3037 03-01-2020 02:03:17 3.7 C 42 %
3038 03-01-2020 02:13:17 3.7 C 42 %
3039 03-01-2020 02:23:17 3.9 C 42 %
3040 03-01-2020 02:33:17 3.7 C 42 %
3041 03-01-2020 02:43:18 3.7 C 43 %
3042 03-01-2020 02:53:17 3.9 C 44 %
3043 03-01-2020 03:03:17 3.8 C 44 %
3044 03-01-2020 03:13:17 3.8 C 44 %
3045 03-01-2020 03:23:17 3.8 C 44 %
3046 03-01-2020 03:33:17 3.9 C 44 %
3047 03-01-2020 03:43:17 3.9 C 44 %
3048 03-01-2020 03:53:18 3.9 C 44 %
3049 03-01-2020 04:03:17 4 C 43 %
3050 03-01-2020 04:13:17 4 C 43 %
Sensor: Nr:Datum:Temp:Feuchte:
Aussen-T/F 3051 03-01-2020 04:23:18 4 C 42 %
3052 03-01-2020 04:33:17 4.1 C 42 %
3053 03-01-2020 04:43:17 4.1 C 42 %
3054 03-01-2020 04:53:17 4.2 C 42 %
3055 03-01-2020 05:03:17 4.2 C 41 %
3056 03-01-2020 05:13:17 4.3 C 40 %
3057 03-01-2020 05:23:17 4.3 C 40 %
3058 03-01-2020 05:33:17 4.4 C 40 %
3059 03-01-2020 05:43:17 4.4 C 40 %
3060 03-01-2020 05:53:17 4.4 C 40 %
3061 03-01-2020 06:03:17 4.4 C 40 %
3062 03-01-2020 06:13:17 4.4 C 40 %
3063 03-01-2020 06:23:18 4.4 C 40 %
3064 03-01-2020 06:33:17 4.7 C 40 %
3065 03-01-2020 06:43:17 5.3 C 40 %
3066 03-01-2020 06:53:18 6.7 C 34 %
3067 03-01-2020 07:03:18 7.1 C 31 %
3068 03-01-2020 07:13:18 7.7 C 30 %
3069 03-01-2020 07:23:17 8 C 29 %
3070 03-01-2020 07:33:17 7.9 C 30 %
3071 03-01-2020 07:43:17 7.8 C 30 %
3072 03-01-2020 07:53:17 7.9 C 29 %
3073 03-01-2020 08:03:18 7.9 C 30 %
3074 03-01-2020 08:13:18 8 C 29 %
3075 03-01-2020 08:23:17 7.9 C 29 %
Sensor: Nr:Datum:Temp:Feuchte:
Aussen-T/F 3076 03-01-2020 08:33:18 7.8 C 29 %
3077 03-01-2020 08:43:18 7.9 C 29 %
3078 03-01-2020 08:53:17 8 C 29 %
3079 03-01-2020 09:03:17 8.2 C 28 %
3080 03-01-2020 09:13:17 8.2 C 28 %
3081 03-01-2020 09:23:17 8.2 C 28 %
3082 03-01-2020 09:33:17 8.4 C 28 %
3083 03-01-2020 09:43:17 8.4 C 27 %
3084 03-01-2020 09:53:17 8.4 C 27 %
3085 03-01-2020 10:03:17 8.6 C 27 %
3086 03-01-2020 10:13:17 8.6 C 27 %
3087 03-01-2020 10:23:17 8.6 C 27 %
3088 03-01-2020 10:33:17 8.6 C 27 %
3089 03-01-2020 10:43:18 8.6 C 27 %
3090 03-01-2020 10:53:17 8.6 C 27 %
3091 03-01-2020 11:03:18 8.3 C 27 %
3092 03-01-2020 11:13:18 8.5 C 27 %
3093 03-01-2020 11:23:18 8.6 C 27 %
3094 03-01-2020 11:33:17 8.9 C 27 %
3095 03-01-2020 11:43:17 8.9 C 27 %
3096 03-01-2020 11:53:17 8.7 C 27 %
3097 03-01-2020 12:03:17 8.6 C 27 %
3098 03-01-2020 12:13:17 8.4 C 27 %
3099 03-01-2020 12:23:17 8.6 C 27 %
3100 03-01-2020 12:33:17 8.7 C 27 %
Sensor: Nr:Datum:Temp:Feuchte:
Aussen-T/F 3101 03-01-2020 12:43:17 8.5 C 27 %
3102 03-01-2020 12:53:17 8.6 C 27 %
3103 03-01-2020 13:03:17 8.5 C 27 %
3104 03-01-2020 13:13:18 8.5 C 28 %
3105 03-01-2020 13:23:17 8.6 C 28 %
3106 03-01-2020 13:33:17 8.8 C 27 %
3107 03-01-2020 13:43:18 8.8 C 28 %
3108 03-01-2020 13:53:17 8.7 C 28 %
3109 03-01-2020 14:03:17 8.7 C 28 %
3110 03-01-2020 14:13:17 8.5 C 28 %
3111 03-01-2020 14:23:18 8.5 C 29 %
3112 03-01-2020 14:33:17 8.5 C 29 %
3113 03-01-2020 14:43:17 8.5 C 29 %
3114 03-01-2020 14:53:17 8.5 C 30 %
3115 03-01-2020 15:03:17 9 C 28 %
3116 03-01-2020 15:13:17 9 C 28 %
3117 03-01-2020 15:23:17 9 C 28 %
3118 03-01-2020 15:33:17 9.1 C 28 %
3119 03-01-2020 15:43:18 9.2 C 28 %
3120 03-01-2020 15:53:17 9 C 28 %
3121 03-01-2020 16:03:17 9 C 28 %
3122 03-01-2020 16:13:17 9 C 29 %
3123 03-01-2020 16:23:17 8.9 C 30 %
3124 03-01-2020 16:33:17 9 C 29 %
3125 03-01-2020 16:43:17 9 C 29 %
Sensor: Nr:Datum:Temp:Feuchte:
Aussen-T/F 3126 03-01-2020 16:53:17 9 C 29 %
3127 03-01-2020 17:03:17 8.6 C 31 %
3128 03-01-2020 17:13:17 8.6 C 31 %
3129 03-01-2020 17:23:17 8.9 C 31 %
3130 03-01-2020 17:33:17 8.8 C 30 %
3131 03-01-2020 17:43:17 8.9 C 30 %
3132 03-01-2020 17:53:17 9 C 30 %
3133 03-01-2020 18:03:17 9 C 30 %
3134 03-01-2020 18:13:18 9.1 C 30 %
3135 03-01-2020 18:23:18 9.3 C 30 %
3136 03-01-2020 18:33:18 9.3 C 30 %
3137 03-01-2020 18:43:18 9.2 C 30 %
3138 03-01-2020 18:53:17 9.3 C 30 %
3139 03-01-2020 19:03:18 9.2 C 30 %
3140 03-01-2020 19:13:18 8.9 C 32 %
3141 03-01-2020 19:23:17 8.9 C 32 %
3142 03-01-2020 19:33:17 9.2 C 31 %
3143 03-01-2020 19:43:17 9.3 C 31 %
3144 03-01-2020 19:53:17 9.2 C 31 %
3145 03-01-2020 20:03:18 9 C 31 %
3146 03-01-2020 20:13:18 8.9 C 35 %
3147 03-01-2020 20:23:17 8.9 C 35 %
3148 03-01-2020 20:33:17 8.8 C 35 %
3149 03-01-2020 20:43:17 8.7 C 36 %
3150 03-01-2020 20:53:18 8.6 C 39 %
Sensor: Nr:Datum:Temp:Feuchte:
Aussen-T/F 3151 03-01-2020 21:03:17 8.2 C 37 %
3152 03-01-2020 21:13:17 7.8 C 35 %
3153 03-01-2020 21:23:17 7.5 C 35 %
3154 03-01-2020 21:33:18 7.4 C 36 %
3155 03-01-2020 21:43:18 7.2 C 35 %
3156 03-01-2020 21:53:17 6.8 C 35 %
3157 03-01-2020 22:03:18 6.8 C 34 %
3158 03-01-2020 22:13:18 6.7 C 35 %
3159 03-01-2020 22:23:17 6.5 C 33 %
3160 03-01-2020 22:33:17 6.4 C 34 %
3161 03-01-2020 22:43:17 6 C 33 %
3162 03-01-2020 22:53:17 6 C 34 %
3163 03-01-2020 23:03:17 5.7 C 35 %
3164 03-01-2020 23:13:17 5.9 C 34 %
3165 03-01-2020 23:23:17 5.8 C 35 %
3166 03-01-2020 23:33:17 5.8 C 33 %
3167 03-01-2020 23:43:17 5.7 C 35 %
3168 03-01-2020 23:53:17 5.8 C 35 %
3169 04-01-2020 00:03:18 5.7 C 35 %
3170 04-01-2020 00:13:18 5.6 C 35 %
3171 04-01-2020 00:23:17 5.4 C 35 %
3172 04-01-2020 00:33:17 5.6 C 33 %
3173 04-01-2020 00:43:17 5.6 C 33 %
3174 04-01-2020 00:53:17 5.4 C 34 %
3175 04-01-2020 01:03:17 5.3 C 34 %
Sensor: Nr:Datum:Temp:Feuchte:
Aussen-T/F 3176 04-01-2020 01:13:17 4.6 C 36 %
3177 04-01-2020 01:23:17 4.6 C 36 %
3178 04-01-2020 01:33:17 4.6 C 36 %
3179 04-01-2020 01:43:17 3.6 C 37 %
3180 04-01-2020 01:53:18 3.6 C 41 %
3181 04-01-2020 02:03:17 3.5 C 41 %
3182 04-01-2020 02:13:17 3.9 C 37 %
3183 04-01-2020 02:23:17 3.8 C 35 %
3184 04-01-2020 02:33:17 3.5 C 37 %
3185 04-01-2020 02:43:17 3.4 C 40 %
3186 04-01-2020 02:53:17 3.8 C 39 %
3187 04-01-2020 03:03:18 3.7 C 39 %
3188 04-01-2020 03:13:18 3.9 C 40 %
3189 04-01-2020 03:23:17 3.3 C 39 %
3190 04-01-2020 03:33:17 3 C 41 %
3191 04-01-2020 03:43:17 3.4 C 42 %
3192 04-01-2020 03:53:17 3.7 C 36 %
3193 04-01-2020 04:03:17 3.7 C 35 %
3194 04-01-2020 04:13:17 3.4 C 35 %
3195 04-01-2020 04:23:17 3.3 C 36 %
3196 04-01-2020 04:33:17 3.1 C 37 %
3197 04-01-2020 04:43:17 2.8 C 38 %
3198 04-01-2020 04:53:17 2.6 C 39 %
3199 04-01-2020 05:03:17 2.9 C 40 %
3200 04-01-2020 05:13:17 2.4 C 38 %
Sensor: Nr:Datum:Temp:Feuchte:
Aussen-T/F 3201 04-01-2020 05:23:17 2.5 C 40 %
3202 04-01-2020 05:33:17 1.8 C 40 %
3203 04-01-2020 05:43:18 2 C 41 %
3204 04-01-2020 05:53:17 2.3 C 40 %
3205 04-01-2020 06:03:17 2.2 C 39 %
3206 04-01-2020 06:13:17 2.8 C 36 %
3207 04-01-2020 06:23:17 2.6 C 35 %
3208 04-01-2020 06:33:17 2.4 C 37 %
3209 04-01-2020 06:43:17 2.7 C 37 %
3210 04-01-2020 06:53:17 2.7 C 34 %
3211 04-01-2020 07:03:17 2.7 C 34 %
3212 04-01-2020 07:13:17 2.5 C 34 %
3213 04-01-2020 07:23:17 2.5 C 34 %
3214 04-01-2020 07:33:17 2 C 36 %
3215 04-01-2020 07:43:17 2 C 36 %
3216 04-01-2020 07:53:17 2.1 C 37 %
3217 04-01-2020 08:03:17 1.7 C 39 %
3218 04-01-2020 08:13:17 1.6 C 41 %
3219 04-01-2020 08:23:17 1.3 C 41 %
3220 04-01-2020 08:33:17 1.2 C 43 %
3221 04-01-2020 08:43:17 1.3 C 42 %
3222 04-01-2020 08:53:17 1.2 C 41 %
3223 04-01-2020 09:03:17 1 C 41 %
3224 04-01-2020 09:13:17 0.8 C 44 %
3225 04-01-2020 09:23:17 1 C 44 %
Sensor: Nr:Datum:Temp:Feuchte:
Aussen-T/F 3226 04-01-2020 09:33:18 1.4 C 45 %
3227 04-01-2020 09:43:18 1.7 C 44 %
3228 04-01-2020 09:53:17 1.9 C 41 %
3229 04-01-2020 10:03:18 2.1 C 39 %
3230 04-01-2020 10:13:18 2.3 C 38 %
3231 04-01-2020 10:23:17 3.1 C 35 %
3232 04-01-2020 10:33:17 3.6 C 33 %
3233 04-01-2020 10:43:17 5.1 C 27 %
3234 04-01-2020 10:53:17 5.1 C 27 %
3235 04-01-2020 11:03:17 5.4 C 27 %
3236 04-01-2020 11:13:17 5.4 C 27 %
3237 04-01-2020 11:23:17 5.6 C 27 %
3238 04-01-2020 11:33:17 5.6 C 27 %
3239 04-01-2020 11:43:17 5.6 C 26 %
3240 04-01-2020 11:53:17 5.8 C 26 %
3241 04-01-2020 12:03:17 5.9 C 26 %
3242 04-01-2020 12:13:18 6 C 26 %
3243 04-01-2020 12:23:17 6.2 C 26 %
3244 04-01-2020 12:33:17 6.2 C 26 %
3245 04-01-2020 12:43:17 6.3 C 26 %
3246 04-01-2020 12:53:17 6.5 C 26 %
3247 04-01-2020 13:03:17 6.7 C 26 %
3248 04-01-2020 13:13:17 6.7 C 26 %
3249 04-01-2020 13:23:17 6.7 C 26 %
3250 04-01-2020 13:33:17 6.8 C 25 %
Sensor: Nr:Datum:Temp:Feuchte:
Aussen-T/F 3251 04-01-2020 13:43:17 7 C 25 %
3252 04-01-2020 13:53:18 7 C 25 %
3253 04-01-2020 14:03:18 7 C 25 %
3254 04-01-2020 14:13:18 7 C 25 %
3255 04-01-2020 14:23:18 7.1 C 25 %
3256 04-01-2020 14:33:17 7.1 C 25 %
3257 04-01-2020 14:43:18 7 C 25 %
3258 04-01-2020 14:53:17 7 C 25 %
3259 04-01-2020 15:03:17 7.1 C 25 %
3260 04-01-2020 15:13:17 7 C 25 %
3261 04-01-2020 15:23:17 7 C 25 %
3262 04-01-2020 15:33:18 7 C 25 %
3263 04-01-2020 15:43:18 7 C 25 %
3264 04-01-2020 15:53:18 6.9 C 25 %
3265 04-01-2020 16:03:17 6.9 C 25 %
3266 04-01-2020 16:13:18 6.9 C 25 %
3267 04-01-2020 16:23:17 6.9 C 25 %
3268 04-01-2020 16:33:17 6.8 C 25 %
3269 04-01-2020 16:43:17 6.8 C 25 %
3270 04-01-2020 16:53:17 6.8 C 25 %
3271 04-01-2020 17:03:17 6.8 C 25 %
3272 04-01-2020 17:13:17 6.8 C 25 %
3273 04-01-2020 17:23:17 6.7 C 25 %
3274 04-01-2020 17:33:18 6.7 C 25 %
3275 04-01-2020 17:43:18 6.6 C 25 %
Sensor: Nr:Datum:Temp:Feuchte:
Aussen-T/F 3276 04-01-2020 17:53:17 6.6 C 25 %
3277 04-01-2020 18:03:17 6.7 C 25 %
3278 04-01-2020 18:13:17 6.6 C 25 %
3279 04-01-2020 18:23:17 6.8 C 25 %
3280 04-01-2020 18:33:17 6.7 C 25 %
3281 04-01-2020 18:43:17 6.6 C 25 %
3282 04-01-2020 18:53:17 6.5 C 25 %
3283 04-01-2020 19:03:17 6.6 C 25 %
3284 04-01-2020 19:13:17 6.7 C 25 %
3285 04-01-2020 19:23:17 6.5 C 26 %
3286 04-01-2020 19:33:17 6 C 27 %
3287 04-01-2020 19:43:17 5.8 C 30 %
3288 04-01-2020 19:53:17 5.6 C 30 %
3289 04-01-2020 20:03:17 5.5 C 31 %
3290 04-01-2020 20:13:17 5.6 C 31 %
3291 04-01-2020 20:23:18 5.7 C 30 %
3292 04-01-2020 20:33:18 5.8 C 30 %
3293 04-01-2020 20:43:18 6 C 29 %
3294 04-01-2020 20:53:17 6.1 C 29 %
3295 04-01-2020 21:03:17 5.8 C 30 %
3296 04-01-2020 21:13:17 5.5 C 33 %
3297 04-01-2020 21:23:17 5.3 C 35 %
3298 04-01-2020 21:33:17 5.3 C 38 %
3299 04-01-2020 21:43:17 5.2 C 37 %
3300 04-01-2020 21:53:18 5.3 C 40 %
Sensor: Nr:Datum:Temp:Feuchte:
Aussen-T/F 3301 04-01-2020 22:03:17 5.3 C 40 %
3302 04-01-2020 22:13:17 5.3 C 39 %
3303 04-01-2020 22:23:17 5.3 C 37 %
3304 04-01-2020 22:33:17 5.4 C 37 %
3305 04-01-2020 22:43:17 5.4 C 37 %
3306 04-01-2020 22:53:17 5.4 C 36 %
3307 04-01-2020 23:03:17 5.5 C 35 %
3308 04-01-2020 23:13:17 5.6 C 35 %
3309 04-01-2020 23:23:17 5.6 C 34 %
3310 04-01-2020 23:33:18 5.6 C 35 %
3311 04-01-2020 23:43:18 5.7 C 34 %
3312 04-01-2020 23:53:17 5.6 C 35 %
3313 05-01-2020 00:03:17 5.6 C 33 %
3314 05-01-2020 00:13:17 5.5 C 35 %
3315 05-01-2020 00:23:17 5.4 C 35 %
3316 05-01-2020 00:33:18 5.4 C 35 %
3317 05-01-2020 00:43:18 5.3 C 36 %
3318 05-01-2020 00:53:17 5.3 C 36 %
3319 05-01-2020 01:03:17 5.1 C 37 %
3320 05-01-2020 01:13:17 5 C 40 %
3321 05-01-2020 01:23:17 4.9 C 42 %
3322 05-01-2020 01:33:17 4.8 C 41 %
3323 05-01-2020 01:43:18 4.8 C 42 %
3324 05-01-2020 01:53:17 4.7 C 42 %
3325 05-01-2020 02:03:18 4.8 C 41 %
Sensor: Nr:Datum:Temp:Feuchte:
Aussen-T/F 3326 05-01-2020 02:13:18 4.7 C 41 %
3327 05-01-2020 02:23:17 4.6 C 43 %
3328 05-01-2020 02:33:17 4.5 C 44 %
3329 05-01-2020 02:43:17 4.6 C 44 %
3330 05-01-2020 02:53:17 4.6 C 42 %
3331 05-01-2020 03:03:17 4.6 C 42 %
3332 05-01-2020 03:13:17 4.6 C 41 %
3333 05-01-2020 03:23:17 4.3 C 42 %
3334 05-01-2020 03:33:17 4.3 C 43 %
3335 05-01-2020 03:43:17 4.4 C 44 %
3336 05-01-2020 03:53:17 4.5 C 44 %
3337 05-01-2020 04:03:17 4.4 C 43 %
3338 05-01-2020 04:13:17 4.4 C 43 %
3339 05-01-2020 04:23:17 4.3 C 42 %
3340 05-01-2020 04:33:17 4.3 C 43 %
3341 05-01-2020 04:43:17 4.4 C 43 %
3342 05-01-2020 04:53:17 4.4 C 42 %
3343 05-01-2020 05:03:17 4.4 C 42 %
3344 05-01-2020 05:13:17 4.4 C 42 %
3345 05-01-2020 05:23:17 4.4 C 42 %
3346 05-01-2020 05:33:18 4.5 C 43 %
3347 05-01-2020 05:43:18 4.6 C 43 %
3348 05-01-2020 05:53:17 4.5 C 43 %
3349 05-01-2020 06:03:17 4.6 C 43 %
3350 05-01-2020 06:13:17 4.6 C 43 %
Sensor: Nr:Datum:Temp:Feuchte:
Aussen-T/F 3351 05-01-2020 06:23:17 4.6 C 42 %
3352 05-01-2020 06:33:17 4.7 C 41 %
3353 05-01-2020 06:43:17 4.7 C 40 %
3354 05-01-2020 06:53:17 4.6 C 41 %
3355 05-01-2020 07:03:17 4.6 C 41 %
3356 05-01-2020 07:13:17 4.6 C 42 %
3357 05-01-2020 07:23:17 4.5 C 42 %
3358 05-01-2020 07:33:17 4.5 C 41 %
3359 05-01-2020 07:43:17 4.4 C 41 %
3360 05-01-2020 07:53:17 4.4 C 41 %
3361 05-01-2020 08:03:18 4.3 C 42 %
3362 05-01-2020 08:13:18 4.3 C 42 %
3363 05-01-2020 08:23:17 4.3 C 41 %
3364 05-01-2020 08:33:17 4.4 C 42 %
3365 05-01-2020 08:43:17 4.4 C 41 %
3366 05-01-2020 08:53:17 4.6 C 40 %
3367 05-01-2020 09:03:18 4.6 C 39 %
3368 05-01-2020 09:13:18 4.6 C 40 %
3369 05-01-2020 09:23:17 4.7 C 38 %
3370 05-01-2020 09:33:18 4.8 C 38 %
3371 05-01-2020 09:43:18 5 C 36 %
3372 05-01-2020 09:53:17 5.1 C 35 %
3373 05-01-2020 10:03:17 5.3 C 35 %
3374 05-01-2020 10:13:18 5.4 C 34 %
3375 05-01-2020 10:23:18 5.4 C 34 %
Sensor: Nr:Datum:Temp:Feuchte:
Aussen-T/F 3376 05-01-2020 10:33:18 5.5 C 33 %
3377 05-01-2020 10:43:18 5.5 C 33 %
3378 05-01-2020 10:53:17 5.5 C 34 %
3379 05-01-2020 11:03:17 5.7 C 34 %
3380 05-01-2020 11:13:17 5.7 C 33 %
3381 05-01-2020 11:23:17 5.7 C 33 %
3382 05-01-2020 11:33:17 5.9 C 32 %
3383 05-01-2020 11:43:17 5.9 C 32 %
3384 05-01-2020 11:53:17 6 C 32 %
3385 05-01-2020 12:03:17 6 C 31 %
3386 05-01-2020 12:13:17 6 C 31 %
3387 05-01-2020 12:23:17 6.1 C 31 %
3388 05-01-2020 12:33:17 6.2 C 31 %
3389 05-01-2020 12:43:17 6.2 C 31 %
3390 05-01-2020 12:53:17 6.2 C 31 %
3391 05-01-2020 13:03:17 6.3 C 31 %
3392 05-01-2020 13:13:17 6.5 C 30 %
3393 05-01-2020 13:23:17 6.5 C 30 %
3394 05-01-2020 13:33:18 6.5 C 30 %
3395 05-01-2020 13:43:18 6.6 C 30 %
3396 05-01-2020 13:53:18 6.6 C 30 %
3397 05-01-2020 14:03:18 6.7 C 30 %
3398 05-01-2020 14:13:18 6.6 C 30 %
3399 05-01-2020 14:23:18 6.7 C 30 %
3400 05-01-2020 14:33:18 6.7 C 30 %
Sensor: Nr:Datum:Temp:Feuchte:
Aussen-T/F 3401 05-01-2020 14:43:18 6.7 C 30 %
3402 05-01-2020 14:53:17 6.7 C 30 %
3403 05-01-2020 15:03:18 6.6 C 30 %
3404 05-01-2020 15:13:18 6.6 C 30 %
3405 05-01-2020 15:23:18 6.5 C 31 %
3406 05-01-2020 15:33:18 6.3 C 33 %
3407 05-01-2020 15:43:18 6.1 C 34 %
3408 05-01-2020 15:53:18 6 C 35 %
3409 05-01-2020 16:03:18 6 C 35 %
3410 05-01-2020 16:13:18 5.9 C 36 %
3411 05-01-2020 16:23:17 5.8 C 36 %
3412 05-01-2020 16:33:17 5.7 C 36 %
3413 05-01-2020 16:43:17 5.7 C 35 %
3414 05-01-2020 16:53:18 5.6 C 36 %
3415 05-01-2020 17:03:18 5.6 C 35 %
3416 05-01-2020 17:13:18 5.6 C 34 %
3417 05-01-2020 17:23:18 5.7 C 31 %
3418 05-01-2020 17:33:18 5.6 C 31 %
3419 05-01-2020 17:43:18 5.6 C 31 %
3420 05-01-2020 17:53:17 5.7 C 31 %
3421 05-01-2020 18:03:17 5.6 C 31 %
3422 05-01-2020 18:13:17 5.5 C 31 %
3423 05-01-2020 18:23:17 5.6 C 30 %
3424 05-01-2020 18:33:17 5.7 C 29 %
3425 05-01-2020 18:43:17 5.5 C 30 %
Sensor: Nr:Datum:Temp:Feuchte:
Aussen-T/F 3426 05-01-2020 18:53:17 5.6 C 30 %
3427 05-01-2020 19:03:17 5.5 C 30 %
3428 05-01-2020 19:13:17 5.6 C 30 %
3429 05-01-2020 19:23:17 5.4 C 31 %
3430 05-01-2020 19:33:17 5.3 C 31 %
3431 05-01-2020 19:43:17 5.4 C 31 %
3432 05-01-2020 19:53:18 5.3 C 31 %
3433 05-01-2020 20:03:18 5.2 C 32 %
3434 05-01-2020 20:13:18 5.5 C 29 %
3435 05-01-2020 20:23:18 5.3 C 30 %
3436 05-01-2020 20:33:18 5.3 C 30 %
3437 05-01-2020 20:43:18 5.2 C 31 %
3438 05-01-2020 20:53:18 5.2 C 31 %
3439 05-01-2020 21:03:18 5 C 32 %
3440 05-01-2020 21:13:18 5.1 C 32 %
3441 05-01-2020 21:23:18 5 C 32 %
3442 05-01-2020 21:33:17 4.9 C 34 %
3443 05-01-2020 21:43:17 4.8 C 35 %
3444 05-01-2020 21:53:17 4.8 C 35 %
3445 05-01-2020 22:03:17 4.8 C 35 %
3446 05-01-2020 22:13:17 4.8 C 35 %
3447 05-01-2020 22:23:17 4.7 C 35 %
3448 05-01-2020 22:33:17 4.7 C 35 %
3449 05-01-2020 22:43:17 4.7 C 35 %
3450 05-01-2020 22:53:17 4.6 C 36 %
Sensor: Nr:Datum:Temp:Feuchte:
Aussen-T/F 3451 05-01-2020 23:03:17 4.5 C 36 %
3452 05-01-2020 23:13:17 4.4 C 37 %
3453 05-01-2020 23:23:17 4.4 C 36 %
3454 05-01-2020 23:33:17 4.5 C 36 %
3455 05-01-2020 23:43:17 4.4 C 35 %
3456 05-01-2020 23:53:17 4.5 C 33 %
3457 06-01-2020 00:03:18 4.4 C 33 %
3458 06-01-2020 00:13:18 4.5 C 33 %
3459 06-01-2020 00:23:18 4.4 C 32 %
3460 06-01-2020 00:33:18 4.4 C 34 %
3461 06-01-2020 00:43:18 4.4 C 32 %
3462 06-01-2020 00:53:18 4.3 C 33 %
3463 06-01-2020 01:03:18 4.3 C 32 %
3464 06-01-2020 01:13:18 4.3 C 32 %
3465 06-01-2020 01:23:17 4.4 C 31 %
3466 06-01-2020 01:33:18 4.2 C 32 %
3467 06-01-2020 01:43:18 4.2 C 32 %
3468 06-01-2020 01:53:17 4.1 C 33 %
3469 06-01-2020 02:03:18 4.2 C 31 %
3470 06-01-2020 02:13:18 4.2 C 32 %
3471 06-01-2020 02:23:18 4.3 C 32 %
3472 06-01-2020 02:33:18 4.1 C 32 %
3473 06-01-2020 02:43:18 4.2 C 31 %
3474 06-01-2020 02:53:18 4.1 C 30 %
3475 06-01-2020 03:03:18 4.2 C 30 %
Sensor: Nr:Datum:Temp:Feuchte:
Aussen-T/F 3476 06-01-2020 03:13:18 4.2 C 31 %
3477 06-01-2020 03:23:17 4.1 C 31 %
3478 06-01-2020 03:33:18 4.1 C 32 %
3479 06-01-2020 03:43:18 3.9 C 32 %
3480 06-01-2020 03:53:18 4.1 C 31 %
3481 06-01-2020 04:03:18 4.1 C 31 %
3482 06-01-2020 04:13:18 4.1 C 29 %
3483 06-01-2020 04:23:18 4.1 C 30 %
3484 06-01-2020 04:33:18 3.8 C 32 %
3485 06-01-2020 04:43:18 3.8 C 34 %
3486 06-01-2020 04:53:17 3.7 C 33 %
3487 06-01-2020 05:03:18 3.8 C 33 %
3488 06-01-2020 05:13:18 3.8 C 33 %
3489 06-01-2020 05:23:18 3.5 C 35 %
3490 06-01-2020 05:33:18 3.6 C 35 %
3491 06-01-2020 05:43:18 3.6 C 35 %
3492 06-01-2020 05:53:18 3.5 C 35 %
3493 06-01-2020 06:03:18 3.5 C 33 %
3494 06-01-2020 06:13:18 3.5 C 33 %
3495 06-01-2020 06:23:18 3.3 C 35 %
3496 06-01-2020 06:33:18 3.3 C 35 %
3497 06-01-2020 06:43:18 3.2 C 36 %
3498 06-01-2020 06:53:18 3 C 36 %
3499 06-01-2020 07:03:18 3 C 35 %
3500 06-01-2020 07:13:18 2.8 C 36 %
Sensor: Nr:Datum:Temp:Feuchte:
Aussen-T/F 3501 06-01-2020 07:23:18 2.9 C 37 %
3502 06-01-2020 07:33:17 2.7 C 38 %
3503 06-01-2020 07:43:17 2.6 C 38 %
3504 06-01-2020 07:53:18 2.6 C 38 %
3505 06-01-2020 08:03:17 2.7 C 35 %
3506 06-01-2020 08:13:17 2.6 C 35 %
3507 06-01-2020 08:23:17 2.4 C 35 %
3508 06-01-2020 08:33:17 2.2 C 36 %
3509 06-01-2020 08:43:17 2.3 C 38 %
3510 06-01-2020 08:53:17 2.4 C 38 %
3511 06-01-2020 09:03:17 2.6 C 38 %
3512 06-01-2020 09:13:17 2.8 C 36 %
3513 06-01-2020 09:23:18 3 C 35 %
3514 06-01-2020 09:33:18 3.2 C 32 %
3515 06-01-2020 09:43:18 2.7 C 33 %
3516 06-01-2020 09:53:17 2.7 C 34 %
3517 06-01-2020 10:03:18 3.4 C 35 %
3518 06-01-2020 10:13:18 3.3 C 31 %
3519 06-01-2020 10:23:17 3 C 31 %
3520 06-01-2020 10:33:18 2.7 C 32 %
3521 06-01-2020 10:43:18 2.4 C 34 %
3522 06-01-2020 10:53:17 1.9 C 37 %
3523 06-01-2020 11:03:17 1.6 C 40 %
3524 06-01-2020 11:13:17 1.6 C 41 %
3525 06-01-2020 11:23:17 1.7 C 42 %
Sensor: Nr:Datum:Temp:Feuchte:
Aussen-T/F 3526 06-01-2020 11:33:17 2.2 C 40 %
3527 06-01-2020 11:43:17 2 C 37 %
3528 06-01-2020 11:53:17 1.9 C 40 %
3529 06-01-2020 12:03:17 2 C 38 %
3530 06-01-2020 12:13:17 2 C 38 %
3531 06-01-2020 12:23:18 2.1 C 39 %
3532 06-01-2020 12:33:18 2.1 C 38 %
3533 06-01-2020 12:43:18 2.3 C 38 %
3534 06-01-2020 12:53:17 2.3 C 38 %
3535 06-01-2020 13:03:18 2.5 C 38 %
3536 06-01-2020 13:13:18 2.4 C 38 %
3537 06-01-2020 13:23:17 2.1 C 39 %
3538 06-01-2020 13:33:17 2.4 C 40 %
3539 06-01-2020 13:43:17 2.7 C 39 %
3540 06-01-2020 13:53:17 2.6 C 37 %
3541 06-01-2020 14:03:17 2.5 C 38 %
3542 06-01-2020 14:13:17 2.6 C 39 %
3543 06-01-2020 14:23:17 2.5 C 39 %
3544 06-01-2020 14:33:18 2.4 C 39 %
3545 06-01-2020 14:43:18 2.8 C 40 %
3546 06-01-2020 14:53:17 2.7 C 40 %
3547 06-01-2020 15:03:18 2.6 C 39 %
3548 06-01-2020 15:13:18 2.8 C 38 %
3549 06-01-2020 15:23:18 2.8 C 39 %
3550 06-01-2020 15:33:18 2.7 C 39 %
Sensor: Nr:Datum:Temp:Feuchte:
Aussen-T/F 3551 06-01-2020 15:43:18 2.6 C 40 %
3552 06-01-2020 15:53:18 2.4 C 39 %
3553 06-01-2020 16:03:18 2 C 40 %
3554 06-01-2020 16:13:18 1.7 C 42 %
3555 06-01-2020 16:23:17 1.8 C 43 %
3556 06-01-2020 16:33:17 1.8 C 42 %
3557 06-01-2020 16:43:17 1.2 C 41 %
3558 06-01-2020 16:53:18 1.2 C 44 %
3559 06-01-2020 17:03:18 1.3 C 43 %
3560 06-01-2020 17:13:18 0.5 C 43 %
3561 06-01-2020 17:23:18 0.8 C 45 %
3562 06-01-2020 17:33:18 0.8 C 45 %
3563 06-01-2020 17:43:18 0.5 C 43 %
3564 06-01-2020 17:53:17 0.1 C 44 %
3565 06-01-2020 18:03:18 0 C 45 %
3566 06-01-2020 18:13:18 -0.1 C 45 %
3567 06-01-2020 18:23:18 0 C 45 %
3568 06-01-2020 18:33:17 -0.4 C 45 %
3569 06-01-2020 18:43:17 -0.1 C 45 %
3570 06-01-2020 18:53:17 -0.2 C 45 %
3571 06-01-2020 19:03:18 -0.2 C 45 %
3572 06-01-2020 19:13:18 -0.5 C 44 %
3573 06-01-2020 19:23:17 -0.6 C 44 %
3574 06-01-2020 19:33:17 -1.3 C 43 %
3575 06-01-2020 19:43:17 -1 C 45 %
Sensor: Nr:Datum:Temp:Feuchte:
Aussen-T/F 3576 06-01-2020 19:53:18 -1.1 C 45 %
3577 06-01-2020 20:03:18 -1.5 C 44 %
3578 06-01-2020 20:13:18 -1 C 45 %
3579 06-01-2020 20:23:18 -0.8 C 45 %
3580 06-01-2020 20:33:18 -0.7 C 45 %
3581 06-01-2020 20:43:18 -0.8 C 45 %
3582 06-01-2020 20:53:18 -0.9 C 44 %
3583 06-01-2020 21:03:18 -1.1 C 44 %
3584 06-01-2020 21:13:18 -1.1 C 44 %
3585 06-01-2020 21:23:18 -1.3 C 44 %
3586 06-01-2020 21:33:18 -1.2 C 45 %
3587 06-01-2020 21:43:18 -0.8 C 45 %
3588 06-01-2020 21:53:18 -0.5 C 46 %
3589 06-01-2020 22:03:18 -0.3 C 46 %
3590 06-01-2020 22:13:18 0.2 C 46 %
3591 06-01-2020 22:23:17 0.5 C 45 %
3592 06-01-2020 22:33:17 0.6 C 42 %
3593 06-01-2020 22:43:17 0.5 C 42 %
3594 06-01-2020 22:53:18 0.6 C 42 %
3595 06-01-2020 23:03:18 0.7 C 44 %
3596 06-01-2020 23:13:18 0.8 C 44 %
3597 06-01-2020 23:23:18 0.7 C 43 %
3598 06-01-2020 23:33:18 0.6 C 44 %
3599 06-01-2020 23:43:18 0.8 C 45 %
3600 06-01-2020 23:53:18 1 C 43 %
Sensor: Nr:Datum:Temp:Feuchte:
Aussen-T/F 3601 07-01-2020 00:03:18 1.2 C 43 %
3602 07-01-2020 00:13:18 1.8 C 39 %
3603 07-01-2020 00:23:17 2 C 37 %
3604 07-01-2020 00:33:17 1.8 C 39 %
3605 07-01-2020 00:43:17 2.3 C 36 %
3606 07-01-2020 00:53:17 2.5 C 35 %
3607 07-01-2020 01:03:17 2.5 C 36 %
3608 07-01-2020 01:13:17 2.6 C 35 %
3609 07-01-2020 01:23:17 2.8 C 35 %
3610 07-01-2020 01:33:17 3 C 34 %
3611 07-01-2020 01:43:17 3 C 34 %
3612 07-01-2020 01:53:18 3 C 35 %
3613 07-01-2020 02:03:18 3.3 C 33 %
3614 07-01-2020 02:13:18 3.1 C 33 %
3615 07-01-2020 02:23:17 2.8 C 37 %
3616 07-01-2020 02:33:17 2.8 C 38 %
3617 07-01-2020 02:43:17 2.8 C 38 %
3618 07-01-2020 02:53:18 2.8 C 38 %
3619 07-01-2020 03:03:18 2.8 C 38 %
3620 07-01-2020 03:13:18 2.7 C 39 %
3621 07-01-2020 03:23:18 2.7 C 40 %
3622 07-01-2020 03:33:18 2.7 C 40 %
3623 07-01-2020 03:43:18 2.7 C 39 %
3624 07-01-2020 03:53:18 2.9 C 39 %
3625 07-01-2020 04:03:18 2.9 C 40 %
Sensor: Nr:Datum:Temp:Feuchte:
Aussen-T/F 3626 07-01-2020 04:13:18 3 C 37 %
3627 07-01-2020 04:23:18 3 C 37 %
3628 07-01-2020 04:33:18 3.2 C 36 %
3629 07-01-2020 04:43:18 3.2 C 36 %
3630 07-01-2020 04:53:18 3.3 C 38 %
3631 07-01-2020 05:03:18 3.5 C 37 %
3632 07-01-2020 05:13:18 3.3 C 37 %
3633 07-01-2020 05:23:17 3.4 C 37 %
3634 07-01-2020 05:33:17 3.5 C 37 %
3635 07-01-2020 05:43:17 3.5 C 38 %
3636 07-01-2020 05:53:18 3.6 C 37 %
3637 07-01-2020 06:03:18 3.6 C 37 %
3638 07-01-2020 06:13:18 3.7 C 36 %
3639 07-01-2020 06:23:18 3.9 C 36 %
3640 07-01-2020 06:33:18 4 C 35 %
3641 07-01-2020 06:43:18 4.3 C 34 %
3642 07-01-2020 06:53:17 4.3 C 34 %
3643 07-01-2020 07:03:18 4.3 C 34 %
3644 07-01-2020 07:13:18 4.4 C 34 %
3645 07-01-2020 07:23:18 4.4 C 34 %
3646 07-01-2020 07:33:18 4.4 C 34 %
3647 07-01-2020 07:43:18 4.3 C 34 %
3648 07-01-2020 07:53:18 4.3 C 35 %
3649 07-01-2020 08:03:18 4.4 C 35 %
3650 07-01-2020 08:13:18 4.4 C 35 %
Sensor: Nr:Datum:Temp:Feuchte:
Aussen-T/F 3651 07-01-2020 08:23:17 4.3 C 35 %
3652 07-01-2020 08:33:17 3.9 C 37 %
3653 07-01-2020 08:43:17 3.6 C 40 %
3654 07-01-2020 08:53:17 3.8 C 41 %
3655 07-01-2020 09:03:18 4 C 38 %
3656 07-01-2020 09:13:18 3.9 C 40 %
3657 07-01-2020 09:23:17 4 C 37 %
3658 07-01-2020 09:33:17 4.2 C 37 %
3659 07-01-2020 09:43:17 4.5 C 35 %
3660 07-01-2020 09:53:18 4.6 C 35 %
3661 07-01-2020 10:03:17 4.8 C 35 %
3662 07-01-2020 10:13:17 4.9 C 35 %
3663 07-01-2020 10:23:17 5.1 C 33 %
3664 07-01-2020 10:33:17 5.4 C 33 %
3665 07-01-2020 10:43:17 5.5 C 33 %
3666 07-01-2020 10:53:17 5.6 C 33 %
3667 07-01-2020 11:03:17 5.9 C 32 %
3668 07-01-2020 11:13:17 6.1 C 31 %
3669 07-01-2020 11:23:18 6.3 C 31 %
3670 07-01-2020 11:33:18 6.3 C 31 %
3671 07-01-2020 11:43:18 6.4 C 31 %
3672 07-01-2020 11:53:17 6.4 C 30 %
3673 07-01-2020 12:03:18 6.6 C 30 %
3674 07-01-2020 12:13:18 6.8 C 30 %
3675 07-01-2020 12:23:18 6.8 C 29 %
Sensor: Nr:Datum:Temp:Feuchte:
Aussen-T/F 3676 07-01-2020 12:33:17 6.7 C 29 %
3677 07-01-2020 12:43:17 6.5 C 30 %
3678 07-01-2020 12:53:18 6.5 C 30 %
3679 07-01-2020 13:03:17 6.8 C 29 %
3680 07-01-2020 13:13:17 7 C 27 %
3681 07-01-2020 13:23:17 6.9 C 29 %
3682 07-01-2020 13:33:17 6.9 C 28 %
3683 07-01-2020 13:43:17 6.8 C 29 %
3684 07-01-2020 13:53:17 7 C 27 %
3685 07-01-2020 14:03:18 7.1 C 27 %
3686 07-01-2020 14:13:18 7 C 27 %
3687 07-01-2020 14:23:17 7.1 C 27 %
3688 07-01-2020 14:33:17 7.3 C 26 %
3689 07-01-2020 14:43:17 6.8 C 28 %
3690 07-01-2020 14:53:17 7.2 C 26 %
3691 07-01-2020 15:03:17 6.7 C 28 %
3692 07-01-2020 15:13:17 6.4 C 28 %
3693 07-01-2020 15:23:17 6.3 C 28 %
3694 07-01-2020 15:33:17 6 C 29 %
3695 07-01-2020 15:43:17 5.7 C 30 %
3696 07-01-2020 15:53:17 5.5 C 31 %
3697 07-01-2020 16:03:17 5.3 C 31 %
3698 07-01-2020 16:13:17 5.4 C 31 %
3699 07-01-2020 16:23:17 5.4 C 31 %
3700 07-01-2020 16:33:17 4.5 C 35 %
Sensor: Nr:Datum:Temp:Feuchte:
Aussen-T/F 3701 07-01-2020 16:43:17 4 C 37 %
3702 07-01-2020 16:53:17 4.1 C 37 %
3703 07-01-2020 17:03:18 3.6 C 40 %
3704 07-01-2020 17:13:18 3.5 C 40 %
3705 07-01-2020 17:23:18 3.3 C 41 %
3706 07-01-2020 17:33:18 3.3 C 42 %
3707 07-01-2020 17:43:18 3.1 C 41 %
3708 07-01-2020 17:53:17 2.9 C 43 %
3709 07-01-2020 18:03:18 3.1 C 43 %
3710 07-01-2020 18:13:18 3.2 C 43 %
3711 07-01-2020 18:23:18 2.9 C 43 %
3712 07-01-2020 18:33:18 2.7 C 43 %
3713 07-01-2020 18:43:18 2.9 C 44 %
3714 07-01-2020 18:53:18 2.7 C 43 %
3715 07-01-2020 19:03:17 2.8 C 44 %
3716 07-01-2020 19:13:17 2.5 C 43 %
3717 07-01-2020 19:23:17 2.5 C 43 %
3718 07-01-2020 19:33:18 2.5 C 43 %
3719 07-01-2020 19:43:18 2.5 C 43 %
3720 07-01-2020 19:53:17 3 C 43 %
3721 07-01-2020 20:03:18 3.6 C 42 %
3722 07-01-2020 20:13:18 4.1 C 38 %
3723 07-01-2020 20:23:18 3.6 C 38 %
3724 07-01-2020 20:33:18 3.6 C 39 %
3725 07-01-2020 20:43:18 4 C 37 %
Sensor: Nr:Datum:Temp:Feuchte:
Aussen-T/F 3726 07-01-2020 20:53:17 4.7 C 35 %
3727 07-01-2020 21:03:18 5.1 C 32 %
3728 07-01-2020 21:13:18 5.1 C 32 %
3729 07-01-2020 21:23:18 5.3 C 31 %
3730 07-01-2020 21:33:18 5.7 C 31 %
3731 07-01-2020 21:43:18 5.7 C 30 %
3732 07-01-2020 21:53:17 5.7 C 30 %
3733 07-01-2020 22:03:18 6 C 28 %
3734 07-01-2020 22:13:18 5.8 C 29 %
3735 07-01-2020 22:24:17 5.9 C 29 %
3736 07-01-2020 22:33:17 5.7 C 29 %
3737 07-01-2020 22:43:17 5.7 C 30 %
3738 07-01-2020 22:53:17 5.9 C 29 %
3739 07-01-2020 23:03:18 6 C 28 %
3740 07-01-2020 23:13:18 6 C 28 %
3741 07-01-2020 23:23:18 6.1 C 28 %
3742 07-01-2020 23:33:18 5.9 C 28 %
3743 07-01-2020 23:43:18 5.6 C 30 %
3744 07-01-2020 23:53:18 5.7 C 29 %
3745 08-01-2020 00:04:17 5.7 C 29 %
3746 08-01-2020 00:14:17 5.4 C 30 %
3747 08-01-2020 00:24:17 5.6 C 29 %
3748 08-01-2020 00:34:17 5.6 C 28 %
3749 08-01-2020 00:44:17 5.5 C 29 %
3750 08-01-2020 00:53:18 5.7 C 28 %
Sensor: Nr:Datum:Temp:Feuchte:
Aussen-T/F 3751 08-01-2020 01:03:18 5.4 C 28 %
3752 08-01-2020 01:13:18 5.6 C 28 %
3753 08-01-2020 01:24:17 5.4 C 28 %
3754 08-01-2020 01:33:18 5.4 C 28 %
3755 08-01-2020 01:43:18 5.3 C 28 %
3756 08-01-2020 01:53:17 4.7 C 30 %
3757 08-01-2020 02:03:18 4.7 C 30 %
3758 08-01-2020 02:13:18 5 C 30 %
3759 08-01-2020 02:23:18 5 C 30 %
3760 08-01-2020 02:33:18 5.3 C 30 %
3761 08-01-2020 02:43:18 5.4 C 30 %
3762 08-01-2020 02:53:18 5.5 C 30 %
3763 08-01-2020 03:03:18 5.9 C 30 %
3764 08-01-2020 03:13:18 5.8 C 30 %
3765 08-01-2020 03:23:18 5.9 C 30 %
3766 08-01-2020 03:33:18 5.8 C 30 %
3767 08-01-2020 03:43:18 6 C 30 %
3768 08-01-2020 03:53:17 5.9 C 30 %
3769 08-01-2020 04:03:18 5.9 C 30 %
3770 08-01-2020 04:13:18 5.8 C 31 %
3771 08-01-2020 04:23:18 5.8 C 31 %
3772 08-01-2020 04:33:18 5.7 C 32 %
3773 08-01-2020 04:43:18 5.7 C 32 %
3774 08-01-2020 04:54:17 5.6 C 33 %
3775 08-01-2020 05:04:17 5.6 C 33 %
Sensor: Nr:Datum:Temp:Feuchte:
Aussen-T/F 3776 08-01-2020 05:14:17 5.7 C 33 %
3777 08-01-2020 05:24:17 5.8 C 34 %
3778 08-01-2020 05:34:17 5.7 C 34 %
3779 08-01-2020 05:44:17 5.8 C 35 %
3780 08-01-2020 05:54:17 5.8 C 35 %
3781 08-01-2020 06:04:17 6 C 35 %
3782 08-01-2020 06:14:17 5.9 C 35 %
3783 08-01-2020 06:24:17 6 C 35 %
3784 08-01-2020 06:34:17 6.2 C 35 %
3785 08-01-2020 06:44:17 6.1 C 36 %
3786 08-01-2020 06:54:17 6 C 39 %
3787 08-01-2020 07:04:17 5.8 C 41 %
3788 08-01-2020 07:14:17 5.9 C 42 %
3789 08-01-2020 07:24:18 6 C 42 %
3790 08-01-2020 07:34:18 6.1 C 42 %
3791 08-01-2020 07:44:18 6.2 C 42 %
3792 08-01-2020 07:54:17 6.2 C 42 %
3793 08-01-2020 08:04:17 6.3 C 42 %
3794 08-01-2020 08:14:17 6.2 C 42 %
3795 08-01-2020 08:24:17 6.2 C 42 %
3796 08-01-2020 08:34:18 6.1 C 42 %
3797 08-01-2020 08:44:18 6.6 C 41 %
3798 08-01-2020 08:54:17 6.7 C 39 %
3799 08-01-2020 09:04:17 6.8 C 39 %
3800 08-01-2020 09:14:17 6.8 C 39 %
Sensor: Nr:Datum:Temp:Feuchte:
Aussen-T/F 3801 08-01-2020 09:24:17 6.7 C 39 %
3802 08-01-2020 09:34:17 6.7 C 40 %
3803 08-01-2020 09:44:17 6.9 C 39 %
3804 08-01-2020 09:54:17 7.1 C 38 %
3805 08-01-2020 10:04:17 7.1 C 38 %
3806 08-01-2020 10:14:17 7.2 C 37 %
3807 08-01-2020 10:24:17 7.4 C 36 %
3808 08-01-2020 10:34:17 7.3 C 36 %
3809 08-01-2020 10:44:17 7.4 C 36 %
3810 08-01-2020 10:54:17 7.5 C 35 %
3811 08-01-2020 11:04:17 7.7 C 35 %
3812 08-01-2020 11:14:17 7.8 C 35 %
3813 08-01-2020 11:24:17 7.9 C 34 %
3814 08-01-2020 11:34:17 7.8 C 35 %
3815 08-01-2020 11:44:17 7.9 C 34 %
3816 08-01-2020 11:54:17 7.7 C 35 %
3817 08-01-2020 12:04:17 7.6 C 36 %
3818 08-01-2020 12:14:17 7.7 C 36 %
3819 08-01-2020 12:24:16 7.9 C 35 %
3820 08-01-2020 12:34:17 8 C 34 %
3821 08-01-2020 12:44:17 8.1 C 34 %
3822 08-01-2020 12:54:17 8.8 C 33 %
3823 08-01-2020 13:04:17 9 C 31 %
3824 08-01-2020 13:14:17 8.8 C 32 %
3825 08-01-2020 13:24:17 8.7 C 32 %
Sensor: Nr:Datum:Temp:Feuchte:
Aussen-T/F 3826 08-01-2020 13:34:17 8.8 C 32 %
3827 08-01-2020 13:44:17 8.8 C 32 %
3828 08-01-2020 13:54:17 8.7 C 32 %
3829 08-01-2020 14:04:16 8.9 C 32 %
3830 08-01-2020 14:14:16 9 C 32 %
3831 08-01-2020 14:24:16 9 C 32 %
3832 08-01-2020 14:34:16 9 C 32 %
3833 08-01-2020 14:44:16 9.1 C 32 %
3834 08-01-2020 14:54:16 9.3 C 31 %
3835 08-01-2020 15:04:16 9.4 C 31 %
3836 08-01-2020 15:14:16 9.4 C 31 %
3837 08-01-2020 15:24:16 9.4 C 31 %
3838 08-01-2020 15:34:16 9.3 C 32 %
3839 08-01-2020 15:44:16 9.3 C 32 %
3840 08-01-2020 15:54:16 9.4 C 32 %
3841 08-01-2020 16:04:17 9.3 C 32 %
3842 08-01-2020 16:14:17 9.3 C 32 %
3843 08-01-2020 16:24:17 9.2 C 33 %
3844 08-01-2020 16:34:17 9.2 C 33 %
3845 08-01-2020 16:44:17 9.3 C 33 %
3846 08-01-2020 16:54:17 9.3 C 34 %
3847 08-01-2020 17:04:17 9.3 C 34 %
3848 08-01-2020 17:14:17 9.3 C 34 %
3849 08-01-2020 17:24:17 9.3 C 34 %
3850 08-01-2020 17:34:17 9.2 C 35 %
Sensor: Nr:Datum:Temp:Feuchte:
Aussen-T/F 3851 08-01-2020 17:44:17 9.2 C 35 %
3852 08-01-2020 17:54:17 9.1 C 35 %
3853 08-01-2020 18:04:17 9.2 C 35 %
3854 08-01-2020 18:14:17 9.1 C 36 %
3855 08-01-2020 18:24:17 9.1 C 36 %
3856 08-01-2020 18:34:17 9.2 C 35 %
3857 08-01-2020 18:44:17 9.4 C 35 %
3858 08-01-2020 18:54:17 9.4 C 35 %
3859 08-01-2020 19:04:17 9.5 C 36 %
3860 08-01-2020 19:14:17 9.6 C 35 %
3861 08-01-2020 19:24:17 9.7 C 35 %
3862 08-01-2020 19:34:17 9.6 C 35 %
3863 08-01-2020 19:44:17 9.5 C 35 %
3864 08-01-2020 19:54:17 9.3 C 36 %
3865 08-01-2020 20:04:17 9.7 C 36 %
3866 08-01-2020 20:14:17 9.7 C 35 %
3867 08-01-2020 20:24:17 9.9 C 35 %
3868 08-01-2020 20:34:17 9.8 C 35 %
3869 08-01-2020 20:44:17 9.9 C 35 %
3870 08-01-2020 20:54:16 9.9 C 35 %
3871 08-01-2020 21:04:17 10 C 35 %
3872 08-01-2020 21:14:17 9.8 C 35 %
3873 08-01-2020 21:24:17 9.8 C 35 %
3874 08-01-2020 21:34:17 9.9 C 36 %
3875 08-01-2020 21:44:17 10 C 35 %
Sensor: Nr:Datum:Temp:Feuchte:
Aussen-T/F 3876 08-01-2020 21:54:16 9.6 C 37 %
3877 08-01-2020 22:04:16 9.5 C 37 %
3878 08-01-2020 22:14:16 9.6 C 38 %
3879 08-01-2020 22:24:16 9.9 C 36 %
3880 08-01-2020 22:34:16 9.8 C 36 %
3881 08-01-2020 22:44:16 9.6 C 37 %
3882 08-01-2020 22:54:16 9.6 C 38 %
3883 08-01-2020 23:04:16 9.7 C 38 %
3884 08-01-2020 23:14:16 9.5 C 38 %
3885 08-01-2020 23:24:16 9.5 C 39 %
3886 08-01-2020 23:34:16 9.5 C 39 %
3887 08-01-2020 23:44:16 9.5 C 39 %
3888 08-01-2020 23:54:16 9.5 C 40 %
3889 09-01-2020 00:04:16 9.1 C 40 %
3890 09-01-2020 00:14:16 9.2 C 40 %
3891 09-01-2020 00:24:16 9.2 C 40 %
3892 09-01-2020 00:34:16 9.1 C 41 %
3893 09-01-2020 00:44:16 9 C 41 %
3894 09-01-2020 00:54:16 9 C 41 %
3895 09-01-2020 01:04:16 9.1 C 42 %
3896 09-01-2020 01:14:16 9 C 41 %
3897 09-01-2020 01:24:16 9 C 42 %
3898 09-01-2020 01:34:16 8.9 C 42 %
3899 09-01-2020 01:44:16 8.9 C 42 %
3900 09-01-2020 01:54:16 8.9 C 42 %
Sensor: Nr:Datum:Temp:Feuchte:
Aussen-T/F 3901 09-01-2020 02:04:16 8.9 C 42 %
3902 09-01-2020 02:14:16 8.7 C 42 %
3903 09-01-2020 02:24:16 8.8 C 42 %
3904 09-01-2020 02:34:16 8.7 C 42 %
3905 09-01-2020 02:44:16 8.8 C 42 %
3906 09-01-2020 02:54:18 8.8 C 41 %
3907 09-01-2020 03:04:18 8.8 C 40 %
3908 09-01-2020 03:14:18 8.7 C 40 %
3909 09-01-2020 03:24:17 8.7 C 40 %
3910 09-01-2020 03:34:17 8.7 C 40 %
3911 09-01-2020 03:44:17 8.6 C 40 %
3912 09-01-2020 03:54:17 8.5 C 40 %
3913 09-01-2020 04:04:17 8.4 C 41 %
3914 09-01-2020 04:14:17 8.5 C 42 %
3915 09-01-2020 04:24:17 8.5 C 42 %
3916 09-01-2020 04:34:17 8.5 C 42 %
3917 09-01-2020 04:44:17 8.6 C 42 %
3918 09-01-2020 04:54:17 8.5 C 42 %
3919 09-01-2020 05:04:17 8.5 C 42 %
3920 09-01-2020 05:14:17 8.5 C 42 %
3921 09-01-2020 05:24:17 8.5 C 42 %
3922 09-01-2020 05:34:17 8.5 C 41 %
3923 09-01-2020 05:44:17 8.5 C 42 %
3924 09-01-2020 05:54:18 8.5 C 42 %
3925 09-01-2020 06:04:18 8.5 C 41 %
Sensor: Nr:Datum:Temp:Feuchte:
Aussen-T/F 3926 09-01-2020 06:14:18 8.5 C 41 %
3927 09-01-2020 06:24:18 8.6 C 41 %
3928 09-01-2020 06:34:18 8.6 C 41 %
3929 09-01-2020 06:44:18 8.6 C 41 %
3930 09-01-2020 06:54:18 8.7 C 41 %
3931 09-01-2020 07:04:18 8.7 C 41 %
3932 09-01-2020 07:14:18 8.8 C 41 %
3933 09-01-2020 07:24:18 8.8 C 41 %
3934 09-01-2020 07:34:18 9 C 41 %
3935 09-01-2020 07:44:18 9 C 41 %
3936 09-01-2020 07:54:18 9 C 41 %
3937 09-01-2020 08:04:18 9 C 41 %
3938 09-01-2020 08:14:18 9 C 41 %
3939 09-01-2020 08:24:18 9.3 C 41 %
3940 09-01-2020 08:34:18 9.2 C 41 %
3941 09-01-2020 08:44:18 9.5 C 41 %
3942 09-01-2020 08:54:18 9.6 C 41 %
3943 09-01-2020 09:04:18 9.8 C 40 %
3944 09-01-2020 09:14:18 10 C 40 %
3945 09-01-2020 09:24:18 9.8 C 40 %
3946 09-01-2020 09:34:17 9.8 C 39 %
3947 09-01-2020 09:44:17 10.1 C 39 %
3948 09-01-2020 09:54:17 10.3 C 37 %
3949 09-01-2020 10:04:17 10.7 C 35 %
3950 09-01-2020 10:14:17 10.8 C 35 %
Sensor: Nr:Datum:Temp:Feuchte:
Aussen-T/F 3951 09-01-2020 10:24:17 11.1 C 33 %
3952 09-01-2020 10:34:18 11.4 C 32 %
3953 09-01-2020 10:44:18 11.5 C 32 %
3954 09-01-2020 10:54:17 11.6 C 32 %
3955 09-01-2020 11:04:18 11.8 C 31 %
3956 09-01-2020 11:14:18 12 C 30 %
3957 09-01-2020 11:24:18 12.2 C 30 %
3958 09-01-2020 11:34:18 12.3 C 30 %
3959 09-01-2020 11:44:18 12.5 C 30 %
3960 09-01-2020 11:54:17 12.7 C 29 %
3961 09-01-2020 12:04:17 12.8 C 29 %
3962 09-01-2020 12:14:17 12.9 C 28 %
3963 09-01-2020 12:24:17 13 C 27 %
3964 09-01-2020 12:34:17 13 C 27 %
3965 09-01-2020 12:44:17 13.1 C 27 %
3966 09-01-2020 12:54:17 13.2 C 27 %
3967 09-01-2020 13:04:17 13.2 C 27 %
3968 09-01-2020 13:14:17 13.2 C 27 %
3969 09-01-2020 13:24:17 13.2 C 26 %
3970 09-01-2020 13:34:18 13.3 C 27 %
3971 09-01-2020 13:44:18 13.3 C 26 %
3972 09-01-2020 13:54:18 13.1 C 26 %
3973 09-01-2020 14:04:18 13 C 26 %
3974 09-01-2020 14:14:18 12.7 C 28 %
3975 09-01-2020 14:24:17 12.3 C 29 %
Sensor: Nr:Datum:Temp:Feuchte:
Aussen-T/F 3976 09-01-2020 14:34:17 12.2 C 29 %
3977 09-01-2020 14:44:17 12.1 C 30 %
3978 09-01-2020 14:54:17 12.2 C 30 %
3979 09-01-2020 15:04:17 12.3 C 30 %
3980 09-01-2020 15:14:18 12.1 C 29 %
3981 09-01-2020 15:24:18 12.4 C 28 %
3982 09-01-2020 15:34:17 12.4 C 29 %
3983 09-01-2020 15:44:17 12.4 C 29 %
3984 09-01-2020 15:54:17 12.4 C 29 %
3985 09-01-2020 16:04:17 12.4 C 29 %
3986 09-01-2020 16:14:17 12.5 C 28 %
3987 09-01-2020 16:24:17 12.1 C 29 %
3988 09-01-2020 16:34:17 12.3 C 28 %
3989 09-01-2020 16:44:17 12.2 C 29 %
3990 09-01-2020 16:54:17 12 C 29 %
3991 09-01-2020 17:04:17 12.2 C 29 %
3992 09-01-2020 17:14:17 12.3 C 28 %
3993 09-01-2020 17:24:18 12.1 C 28 %
3994 09-01-2020 17:34:17 12.1 C 28 %
3995 09-01-2020 17:44:17 12 C 28 %
3996 09-01-2020 17:54:18 11.7 C 30 %
3997 09-01-2020 18:04:18 11.4 C 30 %
3998 09-01-2020 18:14:18 11.3 C 31 %
3999 09-01-2020 18:24:17 10.9 C 32 %
4000 09-01-2020 18:34:17 11.1 C 30 %
Sensor: Nr:Datum:Temp:Feuchte:
Aussen-T/F 4001 09-01-2020 18:44:17 11 C 30 %
4002 09-01-2020 18:54:17 11 C 30 %
4003 09-01-2020 19:04:17 11.4 C 29 %
4004 09-01-2020 19:14:17 11.3 C 29 %
4005 09-01-2020 19:24:17 11 C 30 %
4006 09-01-2020 19:34:18 10.7 C 31 %
4007 09-01-2020 19:44:18 10.8 C 31 %
4008 09-01-2020 19:54:17 10.1 C 35 %
4009 09-01-2020 20:04:18 10 C 37 %
4010 09-01-2020 20:14:18 9.7 C 37 %
4011 09-01-2020 20:24:17 9.7 C 35 %
4012 09-01-2020 20:34:17 9.9 C 37 %
4013 09-01-2020 20:44:17 9.7 C 36 %
4014 09-01-2020 20:54:17 9.6 C 35 %
4015 09-01-2020 21:04:17 9.4 C 37 %
4016 09-01-2020 21:14:18 9.3 C 38 %
4017 09-01-2020 21:24:18 9.2 C 39 %
4018 09-01-2020 21:34:18 9.1 C 40 %
4019 09-01-2020 21:44:18 9.3 C 37 %
4020 09-01-2020 21:54:17 9.2 C 37 %
4021 09-01-2020 22:04:18 9.2 C 38 %
4022 09-01-2020 22:14:18 9.2 C 38 %
4023 09-01-2020 22:24:17 9.2 C 38 %
4024 09-01-2020 22:34:18 9.2 C 38 %
4025 09-01-2020 22:44:18 9.3 C 36 %
Sensor: Nr:Datum:Temp:Feuchte:
Aussen-T/F 4026 09-01-2020 22:54:18 9.4 C 34 %
4027 09-01-2020 23:04:18 9.8 C 32 %
4028 09-01-2020 23:14:18 9.8 C 31 %
4029 09-01-2020 23:24:18 9.7 C 31 %
4030 09-01-2020 23:34:18 9.6 C 32 %
4031 09-01-2020 23:44:18 10 C 30 %
4032 09-01-2020 23:54:17 10.2 C 30 %
4033 10-01-2020 00:04:17 10.1 C 30 %
4034 10-01-2020 00:14:17 10.1 C 30 %
4035 10-01-2020 00:24:17 9.9 C 30 %
4036 10-01-2020 00:34:17 9.8 C 31 %
4037 10-01-2020 00:44:17 9.6 C 32 %
4038 10-01-2020 00:54:17 9.5 C 32 %
4039 10-01-2020 01:04:17 9.9 C 30 %
4040 10-01-2020 01:14:17 9.7 C 31 %
4041 10-01-2020 01:24:17 9.7 C 31 %
4042 10-01-2020 01:34:17 9.6 C 31 %
4043 10-01-2020 01:44:17 9.3 C 31 %
4044 10-01-2020 01:54:17 9.6 C 31 %
4045 10-01-2020 02:04:17 9.5 C 31 %
4046 10-01-2020 02:14:17 9.7 C 31 %
4047 10-01-2020 02:24:18 9.7 C 30 %
4048 10-01-2020 02:34:17 9.8 C 30 %
4049 10-01-2020 02:44:17 9.8 C 30 %
4050 10-01-2020 02:54:18 9.6 C 30 %
Sensor: Nr:Datum:Temp:Feuchte:
Aussen-T/F 4051 10-01-2020 03:04:17 10.1 C 29 %
4052 10-01-2020 03:14:17 9.8 C 30 %
4053 10-01-2020 03:24:17 9.8 C 30 %
4054 10-01-2020 03:34:18 10.1 C 28 %
4055 10-01-2020 03:44:18 10 C 27 %
4056 10-01-2020 03:54:17 10 C 27 %
4057 10-01-2020 04:04:18 10.1 C 26 %
4058 10-01-2020 04:14:18 10.2 C 26 %
4059 10-01-2020 04:24:18 10 C 26 %
4060 10-01-2020 04:34:18 9.9 C 26 %
4061 10-01-2020 04:44:18 9.8 C 26 %
4062 10-01-2020 04:54:17 9.7 C 26 %
4063 10-01-2020 05:04:18 9.5 C 26 %
4064 10-01-2020 05:14:18 9.8 C 26 %
4065 10-01-2020 05:24:18 9.7 C 26 %
4066 10-01-2020 05:34:18 9.1 C 27 %
4067 10-01-2020 05:44:18 9.2 C 27 %
4068 10-01-2020 05:54:18 9.3 C 27 %
4069 10-01-2020 06:04:18 9.2 C 27 %
4070 10-01-2020 06:14:18 8.9 C 28 %
4071 10-01-2020 06:24:18 8.3 C 32 %
4072 10-01-2020 06:34:17 8 C 36 %
4073 10-01-2020 06:44:17 8 C 39 %
4074 10-01-2020 06:54:17 7.8 C 40 %
4075 10-01-2020 07:04:17 7.8 C 40 %
Sensor: Nr:Datum:Temp:Feuchte:
Aussen-T/F 4076 10-01-2020 07:14:17 7.8 C 40 %
4077 10-01-2020 07:24:17 7.8 C 41 %
4078 10-01-2020 07:34:17 7.7 C 41 %
4079 10-01-2020 07:44:17 7.7 C 40 %
4080 10-01-2020 07:54:18 7.7 C 40 %
4081 10-01-2020 08:04:18 7.7 C 40 %
4082 10-01-2020 08:14:18 7.8 C 38 %
4083 10-01-2020 08:24:17 7.6 C 38 %
4084 10-01-2020 08:34:17 7.7 C 39 %
4085 10-01-2020 08:44:17 8 C 35 %
4086 10-01-2020 08:54:17 8 C 35 %
4087 10-01-2020 09:04:17 8.5 C 32 %
4088 10-01-2020 09:14:17 8.4 C 32 %
4089 10-01-2020 09:24:17 8.7 C 31 %
4090 10-01-2020 09:34:17 8.9 C 31 %
4091 10-01-2020 09:44:17 9 C 30 %
4092 10-01-2020 09:54:17 9.1 C 30 %
4093 10-01-2020 10:04:18 9.1 C 30 %
4094 10-01-2020 10:14:18 9.1 C 30 %
4095 10-01-2020 10:24:18 9.2 C 30 %
4096 10-01-2020 10:34:17 9.2 C 30 %
4097 10-01-2020 10:44:17 9.5 C 30 %
4098 10-01-2020 10:54:18 9.5 C 29 %
4099 10-01-2020 11:04:18 10.2 C 26 %
4100 10-01-2020 11:14:18 10.2 C 26 %
Sensor: Nr:Datum:Temp:Feuchte:
Aussen-T/F 4101 10-01-2020 11:24:17 10.2 C 26 %
4102 10-01-2020 11:34:17 10.4 C 26 %
4103 10-01-2020 11:44:17 10.3 C 26 %
4104 10-01-2020 11:54:17 10.7 C 26 %
4105 10-01-2020 12:04:17 10.8 C 26 %
4106 10-01-2020 12:14:17 11 C 26 %
4107 10-01-2020 12:24:17 10.1 C 27 %
4108 10-01-2020 12:34:17 10.4 C 27 %
4109 10-01-2020 12:44:17 10.6 C 26 %
4110 10-01-2020 12:54:17 9.4 C 31 %
4111 10-01-2020 13:04:17 8.7 C 31 %
4112 10-01-2020 13:14:17 8.3 C 34 %
4113 10-01-2020 13:24:17 8.4 C 32 %
4114 10-01-2020 13:34:17 8.7 C 33 %
4115 10-01-2020 13:44:17 8.7 C 33 %
4116 10-01-2020 13:54:17 8.6 C 35 %
4117 10-01-2020 14:04:18 8.4 C 32 %
4118 10-01-2020 14:14:18 8.8 C 30 %
4119 10-01-2020 14:24:29 9 C 29 %
4120 10-01-2020 14:34:17 9 C 28 %
4121 10-01-2020 14:44:17 9 C 27 %
4122 10-01-2020 14:54:17 9 C 26 %
4123 10-01-2020 15:04:20 8.9 C 27 %
4124 10-01-2020 15:14:20 8.8 C 27 %
4125 10-01-2020 15:24:17 8.7 C 27 %
Sensor: Nr:Datum:Temp:Feuchte:
Aussen-T/F 4126 10-01-2020 15:34:18 8.6 C 27 %
4127 10-01-2020 15:44:18 8.6 C 27 %
4128 10-01-2020 15:54:17 8.6 C 27 %
4129 10-01-2020 16:04:17 8.3 C 28 %
4130 10-01-2020 16:14:17 7.6 C 31 %
4131 10-01-2020 16:24:17 7.5 C 34 %
4132 10-01-2020 16:34:18 7.4 C 32 %
4133 10-01-2020 16:44:18 7.2 C 33 %
4134 10-01-2020 16:54:17 7 C 32 %
4135 10-01-2020 17:04:18 6.7 C 34 %
4136 10-01-2020 17:14:18 6.8 C 34 %
4137 10-01-2020 17:24:17 6.9 C 32 %
4138 10-01-2020 17:34:18 6.7 C 32 %
4139 10-01-2020 17:44:18 6.6 C 32 %
4140 10-01-2020 17:54:17 6.9 C 31 %
4141 10-01-2020 18:04:17 7 C 31 %
4142 10-01-2020 18:14:17 7 C 30 %
4143 10-01-2020 18:24:18 6.8 C 31 %
4144 10-01-2020 18:34:17 7 C 30 %
4145 10-01-2020 18:44:17 7.1 C 30 %
4146 10-01-2020 18:54:17 6.6 C 32 %
4147 10-01-2020 19:04:17 6.5 C 33 %
4148 10-01-2020 19:14:18 6.3 C 35 %
4149 10-01-2020 19:24:17 6 C 37 %
4150 10-01-2020 19:34:17 6 C 36 %
Sensor: Nr:Datum:Temp:Feuchte:
Aussen-T/F 4151 10-01-2020 19:44:17 5.9 C 39 %
4152 10-01-2020 19:54:17 5.8 C 36 %
4153 10-01-2020 20:04:17 5.9 C 38 %
4154 10-01-2020 20:14:18 6 C 34 %
4155 10-01-2020 20:24:17 6 C 34 %
4156 10-01-2020 20:34:18 6 C 32 %
4157 10-01-2020 20:44:18 6 C 31 %
4158 10-01-2020 20:54:17 6 C 31 %
4159 10-01-2020 21:04:17 6.1 C 30 %
4160 10-01-2020 21:14:17 5.8 C 31 %
4161 10-01-2020 21:24:17 5.8 C 31 %
4162 10-01-2020 21:34:17 6 C 30 %
4163 10-01-2020 21:44:17 6.2 C 30 %
4164 10-01-2020 21:54:17 6 C 30 %
4165 10-01-2020 22:04:18 6.1 C 30 %
4166 10-01-2020 22:14:18 6.2 C 30 %
4167 10-01-2020 22:24:17 6.2 C 30 %
4168 10-01-2020 22:34:17 6.2 C 30 %
4169 10-01-2020 22:44:17 6.2 C 29 %
4170 10-01-2020 22:54:17 6.1 C 30 %
4171 10-01-2020 23:04:17 6.2 C 30 %
4172 10-01-2020 23:14:17 6.2 C 30 %
4173 10-01-2020 23:24:17 6.1 C 30 %
4174 10-01-2020 23:34:17 5.9 C 30 %
4175 10-01-2020 23:44:17 5.8 C 30 %
Sensor: Nr:Datum:Temp:Feuchte:
Aussen-T/F 4176 10-01-2020 23:54:18 5.8 C 30 %
Sensor: Nr:Datum:Temp:Feuchte:
G-T/H 1 13-12-2019 00:01:17 8.9 C 72 %
2 13-12-2019 00:11:17 8.9 C 72 %
3 13-12-2019 00:21:17 8.9 C 72 %
4 13-12-2019 00:31:18 8.9 C 72 %
5 13-12-2019 00:41:18 8.9 C 72 %
6 13-12-2019 00:51:17 8.9 C 72 %
7 13-12-2019 01:01:18 8.8 C 72 %
8 13-12-2019 01:11:18 8.8 C 72 %
9 13-12-2019 01:21:17 8.8 C 72 %
10 13-12-2019 01:31:17 8.8 C 72 %
11 13-12-2019 01:41:17 8.8 C 72 %
12 13-12-2019 01:51:17 8.8 C 72 %
13 13-12-2019 02:01:18 8.8 C 72 %
14 13-12-2019 02:11:18 8.8 C 72 %
15 13-12-2019 02:21:17 8.8 C 72 %
16 13-12-2019 02:31:17 8.8 C 72 %
17 13-12-2019 02:41:17 8.7 C 72 %
18 13-12-2019 02:51:17 8.7 C 72 %
19 13-12-2019 03:01:17 8.7 C 72 %
20 13-12-2019 03:11:17 8.7 C 72 %
21 13-12-2019 03:21:17 8.7 C 72 %
22 13-12-2019 03:31:17 8.7 C 72 %
23 13-12-2019 03:41:17 8.6 C 72 %
24 13-12-2019 03:51:17 8.6 C 72 %
25 13-12-2019 04:01:17 8.6 C 72 %
Sensor: Nr:Datum:Temp:Feuchte:
G-T/H 26 13-12-2019 04:11:17 8.6 C 72 %
27 13-12-2019 04:21:17 8.6 C 72 %
28 13-12-2019 04:31:17 8.6 C 72 %
29 13-12-2019 04:41:17 8.6 C 72 %
30 13-12-2019 04:51:17 8.6 C 72 %
31 13-12-2019 05:01:17 8.6 C 72 %
32 13-12-2019 05:11:17 8.6 C 72 %
33 13-12-2019 05:21:17 8.6 C 72 %
34 13-12-2019 05:31:18 8.6 C 72 %
35 13-12-2019 05:41:18 8.6 C 72 %
36 13-12-2019 05:51:17 8.6 C 72 %
37 13-12-2019 06:01:17 8.5 C 72 %
38 13-12-2019 06:11:17 8.5 C 72 %
39 13-12-2019 06:21:17 8.5 C 72 %
40 13-12-2019 06:31:17 8.5 C 72 %
41 13-12-2019 06:41:17 8.5 C 72 %
42 13-12-2019 06:51:17 8.5 C 72 %
43 13-12-2019 07:01:17 8.5 C 72 %
44 13-12-2019 07:11:18 8.5 C 72 %
45 13-12-2019 07:21:17 8.5 C 72 %
46 13-12-2019 07:31:17 8.5 C 72 %
47 13-12-2019 07:41:17 8.4 C 72 %
48 13-12-2019 07:51:17 8.3 C 71 %
49 13-12-2019 08:01:17 8.4 C 71 %
50 13-12-2019 08:11:17 8.4 C 71 %
Sensor: Nr:Datum:Temp:Feuchte:
G-T/H 51 13-12-2019 08:21:17 8.4 C 72 %
52 13-12-2019 08:31:17 8.4 C 72 %
53 13-12-2019 08:41:17 8.4 C 72 %
54 13-12-2019 08:51:17 8.4 C 72 %
55 13-12-2019 09:01:17 8.4 C 72 %
56 13-12-2019 09:11:17 8.4 C 72 %
57 13-12-2019 09:21:17 8.4 C 72 %
58 13-12-2019 09:31:17 8.4 C 72 %
59 13-12-2019 09:41:17 8.4 C 72 %
60 13-12-2019 09:51:18 8.4 C 72 %
61 13-12-2019 10:01:17 8.4 C 72 %
62 13-12-2019 10:11:17 8.4 C 72 %
63 13-12-2019 10:21:18 8.4 C 72 %
64 13-12-2019 10:31:17 8.4 C 72 %
65 13-12-2019 10:41:17 8.4 C 72 %
66 13-12-2019 10:51:18 8.4 C 72 %
67 13-12-2019 11:01:17 8.4 C 72 %
68 13-12-2019 11:11:17 8.4 C 72 %
69 13-12-2019 11:21:17 8.4 C 72 %
70 13-12-2019 11:31:17 8.4 C 72 %
71 13-12-2019 11:41:17 8.4 C 72 %
72 13-12-2019 11:51:18 8.4 C 72 %
73 13-12-2019 12:01:17 8.4 C 72 %
74 13-12-2019 12:11:17 8.4 C 72 %
75 13-12-2019 12:21:17 8.4 C 73 %
Sensor: Nr:Datum:Temp:Feuchte:
G-T/H 76 13-12-2019 12:31:17 8.4 C 73 %
77 13-12-2019 12:41:17 8.4 C 73 %
78 13-12-2019 12:51:18 8.4 C 73 %
79 13-12-2019 13:01:18 8.4 C 73 %
80 13-12-2019 13:11:18 8.5 C 73 %
81 13-12-2019 13:21:17 8.4 C 73 %
82 13-12-2019 13:31:17 8.4 C 73 %
83 13-12-2019 13:41:17 8.5 C 73 %
84 13-12-2019 13:51:17 8.5 C 73 %
85 13-12-2019 14:01:17 8.5 C 73 %
86 13-12-2019 14:11:17 8.5 C 73 %
87 13-12-2019 14:21:17 8.5 C 73 %
88 13-12-2019 14:31:17 8.5 C 73 %
89 13-12-2019 14:41:17 8.5 C 73 %
90 13-12-2019 14:51:18 8.5 C 73 %
91 13-12-2019 15:01:18 8.5 C 73 %
92 13-12-2019 15:11:18 8.5 C 73 %
93 13-12-2019 15:21:17 8.5 C 73 %
94 13-12-2019 15:31:17 8.5 C 73 %
95 13-12-2019 15:41:17 8.4 C 73 %
96 13-12-2019 15:51:17 8.4 C 73 %
97 13-12-2019 16:01:18 8.4 C 72 %
98 13-12-2019 16:11:18 8.4 C 72 %
99 13-12-2019 16:21:17 8.3 C 72 %
100 13-12-2019 16:31:17 8.3 C 71 %
Sensor: Nr:Datum:Temp:Feuchte:
G-T/H 101 13-12-2019 16:41:17 8.3 C 71 %
102 13-12-2019 16:51:17 8.2 C 71 %
103 13-12-2019 17:01:17 8.2 C 70 %
104 13-12-2019 17:11:17 8.2 C 70 %
105 13-12-2019 17:21:17 8.2 C 70 %
106 13-12-2019 17:31:18 8.2 C 70 %
107 13-12-2019 17:41:18 8.2 C 70 %
108 13-12-2019 17:51:17 8.2 C 70 %
109 13-12-2019 18:01:17 8.3 C 70 %
110 13-12-2019 18:11:17 8.4 C 71 %
111 13-12-2019 18:21:17 8.4 C 71 %
112 13-12-2019 18:31:17 8.4 C 71 %
113 13-12-2019 18:41:18 8.4 C 71 %
114 13-12-2019 18:51:17 8.5 C 72 %
115 13-12-2019 19:01:17 8.5 C 72 %
116 13-12-2019 19:11:17 8.5 C 72 %
117 13-12-2019 19:21:17 8.5 C 72 %
118 13-12-2019 19:31:17 8.5 C 72 %
119 13-12-2019 19:41:17 8.5 C 72 %
120 13-12-2019 19:51:17 8.5 C 72 %
121 13-12-2019 20:01:17 8.5 C 72 %
122 13-12-2019 20:11:17 8.6 C 73 %
123 13-12-2019 20:21:17 8.5 C 73 %
124 13-12-2019 20:31:17 8.5 C 73 %
125 13-12-2019 20:41:17 8.6 C 73 %
Sensor: Nr:Datum:Temp:Feuchte:
G-T/H 126 13-12-2019 20:51:17 8.6 C 73 %
127 13-12-2019 21:01:17 8.6 C 73 %
128 13-12-2019 21:11:17 8.6 C 73 %
129 13-12-2019 21:21:17 8.6 C 73 %
130 13-12-2019 21:31:18 8.6 C 73 %
131 13-12-2019 21:41:18 8.6 C 73 %
132 13-12-2019 21:51:17 8.6 C 73 %
133 13-12-2019 22:01:17 8.6 C 73 %
134 13-12-2019 22:11:17 8.6 C 73 %
135 13-12-2019 22:21:17 8.6 C 73 %
136 13-12-2019 22:31:18 8.6 C 73 %
137 13-12-2019 22:41:18 8.6 C 73 %
138 13-12-2019 22:51:17 8.6 C 73 %
139 13-12-2019 23:01:17 8.6 C 73 %
140 13-12-2019 23:11:17 8.6 C 73 %
141 13-12-2019 23:21:17 8.6 C 73 %
142 13-12-2019 23:31:17 8.6 C 73 %
143 13-12-2019 23:41:17 8.6 C 73 %
144 13-12-2019 23:51:17 8.6 C 73 %
145 14-12-2019 00:01:17 8.7 C 73 %
146 14-12-2019 00:11:17 8.7 C 73 %
147 14-12-2019 00:21:17 8.7 C 73 %
148 14-12-2019 00:31:18 8.7 C 73 %
149 14-12-2019 00:41:18 8.6 C 73 %
150 14-12-2019 00:51:17 8.7 C 73 %
Sensor: Nr:Datum:Temp:Feuchte:
G-T/H 151 14-12-2019 01:01:17 8.7 C 73 %
152 14-12-2019 01:11:17 8.7 C 74 %
153 14-12-2019 01:21:17 8.7 C 74 %
154 14-12-2019 01:31:17 8.7 C 74 %
155 14-12-2019 01:41:17 8.6 C 74 %
156 14-12-2019 01:51:17 8.7 C 74 %
157 14-12-2019 02:01:17 8.7 C 74 %
158 14-12-2019 02:11:17 8.7 C 74 %
159 14-12-2019 02:21:17 8.7 C 74 %
160 14-12-2019 02:31:18 8.7 C 74 %
161 14-12-2019 02:41:18 8.7 C 74 %
162 14-12-2019 02:51:17 8.7 C 74 %
163 14-12-2019 03:01:18 8.7 C 74 %
164 14-12-2019 03:11:18 8.7 C 74 %
165 14-12-2019 03:21:17 8.7 C 74 %
166 14-12-2019 03:31:17 8.7 C 74 %
167 14-12-2019 03:41:17 8.7 C 74 %
168 14-12-2019 03:51:18 8.7 C 74 %
169 14-12-2019 04:01:17 8.7 C 74 %
170 14-12-2019 04:11:17 8.7 C 74 %
171 14-12-2019 04:21:17 8.7 C 74 %
172 14-12-2019 04:31:18 8.7 C 74 %
173 14-12-2019 04:41:18 8.7 C 74 %
174 14-12-2019 04:51:17 8.7 C 74 %
175 14-12-2019 05:01:17 8.7 C 74 %
Sensor: Nr:Datum:Temp:Feuchte:
G-T/H 176 14-12-2019 05:11:17 8.7 C 74 %
177 14-12-2019 05:21:17 8.7 C 74 %
178 14-12-2019 05:31:18 8.7 C 74 %
179 14-12-2019 05:41:18 8.7 C 74 %
180 14-12-2019 05:51:17 8.7 C 74 %
181 14-12-2019 06:01:18 8.7 C 74 %
182 14-12-2019 06:11:18 8.7 C 74 %
183 14-12-2019 06:21:17 8.7 C 74 %
184 14-12-2019 06:31:17 8.7 C 74 %
185 14-12-2019 06:41:17 8.7 C 74 %
186 14-12-2019 06:51:18 8.7 C 74 %
187 14-12-2019 07:01:17 8.8 C 74 %
188 14-12-2019 07:11:18 8.8 C 74 %
189 14-12-2019 07:21:17 8.8 C 74 %
190 14-12-2019 07:31:17 8.8 C 74 %
191 14-12-2019 07:41:17 8.8 C 74 %
192 14-12-2019 07:51:17 8.8 C 74 %
193 14-12-2019 08:01:17 8.8 C 74 %
194 14-12-2019 08:11:17 8.8 C 74 %
195 14-12-2019 08:21:17 8.8 C 74 %
196 14-12-2019 08:31:18 8.8 C 74 %
197 14-12-2019 08:41:18 8.8 C 74 %
198 14-12-2019 08:51:17 8.8 C 74 %
199 14-12-2019 09:01:17 8.8 C 74 %
200 14-12-2019 09:11:17 8.8 C 74 %
Sensor: Nr:Datum:Temp:Feuchte:
G-T/H 201 14-12-2019 09:21:18 8.8 C 74 %
202 14-12-2019 09:31:18 8.8 C 74 %
203 14-12-2019 09:41:18 8.8 C 74 %
204 14-12-2019 09:51:17 8.8 C 74 %
205 14-12-2019 10:01:17 8.8 C 74 %
206 14-12-2019 10:11:17 8.8 C 74 %
207 14-12-2019 10:21:17 8.8 C 74 %
208 14-12-2019 10:31:17 8.8 C 74 %
209 14-12-2019 10:41:17 8.9 C 74 %
210 14-12-2019 10:51:17 8.9 C 74 %
211 14-12-2019 11:01:18 8.9 C 74 %
212 14-12-2019 11:11:18 8.9 C 74 %
213 14-12-2019 11:21:17 8.9 C 74 %
214 14-12-2019 11:31:17 8.9 C 74 %
215 14-12-2019 11:41:17 8.9 C 74 %
216 14-12-2019 11:51:17 9 C 73 %
217 14-12-2019 12:01:17 9.1 C 73 %
218 14-12-2019 12:11:17 9.1 C 73 %
219 14-12-2019 12:21:18 9 C 72 %
220 14-12-2019 12:31:17 8.9 C 70 %
221 14-12-2019 12:41:17 8.9 C 68 %
222 14-12-2019 12:51:17 8.9 C 68 %
223 14-12-2019 13:01:17 8.9 C 69 %
224 14-12-2019 13:11:17 8.9 C 69 %
225 14-12-2019 13:21:17 9 C 69 %
Sensor: Nr:Datum:Temp:Feuchte:
G-T/H 226 14-12-2019 13:31:17 8.9 C 70 %
227 14-12-2019 13:41:17 8.9 C 70 %
228 14-12-2019 13:51:17 8.9 C 71 %
229 14-12-2019 14:01:18 9 C 70 %
230 14-12-2019 14:11:18 9 C 70 %
231 14-12-2019 14:21:17 9 C 71 %
232 14-12-2019 14:31:18 9 C 71 %
233 14-12-2019 14:41:18 9 C 71 %
234 14-12-2019 14:51:18 8.9 C 72 %
235 14-12-2019 15:01:17 9 C 71 %
236 14-12-2019 15:11:17 9 C 71 %
237 14-12-2019 15:21:17 9 C 72 %
238 14-12-2019 15:31:17 9 C 72 %
239 14-12-2019 15:41:18 9 C 72 %
240 14-12-2019 15:51:17 9 C 72 %
241 14-12-2019 16:01:17 9 C 72 %
242 14-12-2019 16:11:17 9.1 C 72 %
243 14-12-2019 16:21:17 9.1 C 72 %
244 14-12-2019 16:31:18 9.1 C 72 %
245 14-12-2019 16:41:18 9.1 C 72 %
246 14-12-2019 16:51:17 9.1 C 72 %
247 14-12-2019 17:01:17 9.1 C 72 %
248 14-12-2019 17:11:17 9 C 73 %
249 14-12-2019 17:21:17 9.1 C 73 %
250 14-12-2019 17:31:18 9.1 C 73 %
Sensor: Nr:Datum:Temp:Feuchte:
G-T/H 251 14-12-2019 17:41:18 9.1 C 73 %
252 14-12-2019 17:51:17 9.1 C 73 %
253 14-12-2019 18:01:17 9.1 C 73 %
254 14-12-2019 18:11:17 9.1 C 73 %
255 14-12-2019 18:22:17 9.1 C 73 %
256 14-12-2019 18:31:17 9.1 C 73 %
257 14-12-2019 18:41:17 9.1 C 73 %
258 14-12-2019 18:52:17 9.2 C 73 %
259 14-12-2019 19:01:18 9.1 C 73 %
260 14-12-2019 19:11:18 9.1 C 73 %
261 14-12-2019 19:21:17 9.2 C 73 %
262 14-12-2019 19:31:17 9.2 C 73 %
263 14-12-2019 19:41:17 9.2 C 73 %
264 14-12-2019 19:52:17 9.1 C 73 %
265 14-12-2019 20:01:18 9.2 C 73 %
266 14-12-2019 20:11:18 9.2 C 73 %
267 14-12-2019 20:21:17 9.2 C 73 %
268 14-12-2019 20:31:17 9.2 C 73 %
269 14-12-2019 20:41:17 9.1 C 73 %
270 14-12-2019 20:52:17 9.2 C 73 %
271 14-12-2019 21:01:17 9.2 C 73 %
272 14-12-2019 21:11:17 9.2 C 73 %
273 14-12-2019 21:22:17 9.2 C 73 %
274 14-12-2019 21:31:18 9.2 C 73 %
275 14-12-2019 21:41:18 9.2 C 73 %
Sensor: Nr:Datum:Temp:Feuchte:
G-T/H 276 14-12-2019 21:52:17 9.2 C 73 %
277 14-12-2019 22:02:17 9.2 C 73 %
278 14-12-2019 22:11:17 9.2 C 73 %
279 14-12-2019 22:22:17 9.2 C 73 %
280 14-12-2019 22:31:17 9.2 C 74 %
281 14-12-2019 22:41:17 9.2 C 74 %
282 14-12-2019 22:52:17 9.2 C 74 %
283 14-12-2019 23:02:17 9.2 C 74 %
284 14-12-2019 23:12:17 9.2 C 74 %
285 14-12-2019 23:22:17 9.2 C 74 %
286 14-12-2019 23:31:18 9.2 C 74 %
287 14-12-2019 23:41:18 9.2 C 74 %
288 14-12-2019 23:51:18 9.2 C 74 %
289 15-12-2019 00:02:17 9.2 C 74 %
290 15-12-2019 00:11:17 9.2 C 74 %
291 15-12-2019 00:22:17 9.2 C 74 %
292 15-12-2019 00:31:18 9.2 C 74 %
293 15-12-2019 00:41:18 9.2 C 74 %
294 15-12-2019 00:52:17 9.2 C 74 %
295 15-12-2019 01:02:17 9.2 C 74 %
296 15-12-2019 01:12:17 9.2 C 74 %
297 15-12-2019 01:22:17 9.2 C 74 %
298 15-12-2019 01:31:18 9.2 C 74 %
299 15-12-2019 01:41:18 9.2 C 74 %
300 15-12-2019 01:52:17 9.2 C 74 %
Sensor: Nr:Datum:Temp:Feuchte:
G-T/H 301 15-12-2019 02:02:17 9.2 C 74 %
302 15-12-2019 02:12:17 9.3 C 74 %
303 15-12-2019 02:22:17 9.2 C 74 %
304 15-12-2019 02:32:18 9.3 C 74 %
305 15-12-2019 02:42:18 9.3 C 74 %
306 15-12-2019 02:52:17 9.2 C 74 %
307 15-12-2019 03:02:18 9.2 C 74 %
308 15-12-2019 03:12:18 9.3 C 74 %
309 15-12-2019 03:22:17 9.3 C 74 %
310 15-12-2019 03:32:17 9.3 C 74 %
311 15-12-2019 03:42:17 9.3 C 74 %
312 15-12-2019 03:52:17 9.3 C 74 %
313 15-12-2019 04:02:17 9.3 C 74 %
314 15-12-2019 04:12:17 9.3 C 74 %
315 15-12-2019 04:22:17 9.3 C 74 %
316 15-12-2019 04:32:17 9.3 C 74 %
317 15-12-2019 04:42:17 9.3 C 74 %
318 15-12-2019 04:52:17 9.2 C 74 %
319 15-12-2019 05:02:17 9.3 C 74 %
320 15-12-2019 05:12:17 9.3 C 74 %
321 15-12-2019 05:22:17 9.3 C 74 %
322 15-12-2019 05:32:18 9.3 C 74 %
323 15-12-2019 05:42:18 9.3 C 74 %
324 15-12-2019 05:52:17 9.3 C 74 %
325 15-12-2019 06:02:17 9.3 C 74 %
Sensor: Nr:Datum:Temp:Feuchte:
G-T/H 326 15-12-2019 06:12:17 9.4 C 74 %
327 15-12-2019 06:22:17 9.4 C 74 %
328 15-12-2019 06:32:17 9.4 C 74 %
329 15-12-2019 06:42:17 9.4 C 74 %
330 15-12-2019 06:52:17 9.4 C 74 %
331 15-12-2019 07:02:17 9.4 C 74 %
332 15-12-2019 07:12:17 9.5 C 75 %
333 15-12-2019 07:22:17 9.4 C 75 %
334 15-12-2019 07:32:17 9.5 C 75 %
335 15-12-2019 07:42:17 9.5 C 75 %
336 15-12-2019 07:52:17 9.5 C 75 %
337 15-12-2019 08:02:17 9.5 C 75 %
338 15-12-2019 08:12:17 9.5 C 75 %
339 15-12-2019 08:22:17 9.5 C 75 %
340 15-12-2019 08:32:18 9.5 C 75 %
341 15-12-2019 08:42:18 9.5 C 75 %
342 15-12-2019 08:52:17 9.5 C 75 %
343 15-12-2019 09:02:17 9.5 C 75 %
344 15-12-2019 09:12:17 9.5 C 75 %
345 15-12-2019 09:22:17 9.5 C 75 %
346 15-12-2019 09:32:17 9.5 C 75 %
347 15-12-2019 09:42:17 9.6 C 75 %
348 15-12-2019 09:52:18 9.6 C 75 %
349 15-12-2019 10:02:18 9.6 C 75 %
350 15-12-2019 10:12:18 9.6 C 75 %
Sensor: Nr:Datum:Temp:Feuchte:
G-T/H 351 15-12-2019 10:22:18 9.6 C 75 %
352 15-12-2019 10:32:17 9.6 C 75 %
353 15-12-2019 10:42:17 9.6 C 75 %
354 15-12-2019 10:52:17 9.6 C 75 %
355 15-12-2019 11:02:17 9.6 C 75 %
356 15-12-2019 11:12:17 9.6 C 75 %
357 15-12-2019 11:22:17 9.6 C 75 %
358 15-12-2019 11:32:17 9.6 C 75 %
359 15-12-2019 11:42:17 9.6 C 75 %
360 15-12-2019 11:52:17 9.6 C 75 %
361 15-12-2019 12:02:17 9.6 C 75 %
362 15-12-2019 12:12:17 9.7 C 75 %
363 15-12-2019 12:22:17 9.6 C 75 %
364 15-12-2019 12:32:17 9.6 C 75 %
365 15-12-2019 12:42:17 9.7 C 75 %
366 15-12-2019 12:52:18 9.7 C 75 %
367 15-12-2019 13:02:18 9.7 C 75 %
368 15-12-2019 13:12:18 9.7 C 75 %
369 15-12-2019 13:22:17 9.7 C 75 %
370 15-12-2019 13:32:17 9.7 C 75 %
371 15-12-2019 13:42:17 9.7 C 75 %
372 15-12-2019 13:52:18 9.7 C 75 %
373 15-12-2019 14:02:17 9.7 C 75 %
374 15-12-2019 14:12:17 9.7 C 75 %
375 15-12-2019 14:22:17 9.7 C 75 %
Sensor: Nr:Datum:Temp:Feuchte:
G-T/H 376 15-12-2019 14:32:17 9.8 C 75 %
377 15-12-2019 14:42:17 9.7 C 75 %
378 15-12-2019 14:52:17 9.7 C 75 %
379 15-12-2019 15:02:17 9.7 C 75 %
380 15-12-2019 15:12:17 9.7 C 75 %
381 15-12-2019 15:22:17 9.7 C 75 %
382 15-12-2019 15:32:17 9.8 C 75 %
383 15-12-2019 15:42:17 9.8 C 75 %
384 15-12-2019 15:52:17 9.8 C 75 %
385 15-12-2019 16:02:17 9.8 C 75 %
386 15-12-2019 16:12:17 9.8 C 75 %
387 15-12-2019 16:22:18 9.8 C 75 %
388 15-12-2019 16:32:17 9.8 C 75 %
389 15-12-2019 16:42:17 9.8 C 75 %
390 15-12-2019 16:52:17 9.8 C 75 %
391 15-12-2019 17:02:17 9.8 C 75 %
392 15-12-2019 17:12:17 9.8 C 75 %
393 15-12-2019 17:22:17 9.8 C 75 %
394 15-12-2019 17:32:17 9.8 C 75 %
395 15-12-2019 17:42:17 9.8 C 75 %
396 15-12-2019 17:52:17 9.8 C 75 %
397 15-12-2019 18:02:17 9.8 C 75 %
398 15-12-2019 18:12:17 9.8 C 75 %
399 15-12-2019 18:22:17 9.8 C 75 %
400 15-12-2019 18:32:17 9.8 C 75 %
Sensor: Nr:Datum:Temp:Feuchte:
G-T/H 401 15-12-2019 18:42:17 9.8 C 75 %
402 15-12-2019 18:52:18 9.8 C 75 %
403 15-12-2019 19:02:17 9.8 C 75 %
404 15-12-2019 19:12:17 9.8 C 75 %
405 15-12-2019 19:22:17 9.8 C 75 %
406 15-12-2019 19:32:18 9.8 C 75 %
407 15-12-2019 19:42:18 9.8 C 75 %
408 15-12-2019 19:52:17 9.8 C 75 %
409 15-12-2019 20:02:17 9.8 C 75 %
410 15-12-2019 20:12:17 9.8 C 75 %
411 15-12-2019 20:22:17 9.8 C 75 %
412 15-12-2019 20:32:17 9.8 C 75 %
413 15-12-2019 20:42:17 9.8 C 75 %
414 15-12-2019 20:52:17 9.8 C 75 %
415 15-12-2019 21:02:17 9.8 C 75 %
416 15-12-2019 21:12:17 9.8 C 75 %
417 15-12-2019 21:22:17 9.8 C 75 %
418 15-12-2019 21:32:18 9.8 C 75 %
419 15-12-2019 21:42:18 9.8 C 75 %
420 15-12-2019 21:52:17 9.8 C 75 %
421 15-12-2019 22:02:17 9.7 C 75 %
422 15-12-2019 22:12:17 9.7 C 75 %
423 15-12-2019 22:22:17 9.7 C 75 %
424 15-12-2019 22:32:17 9.7 C 75 %
425 15-12-2019 22:42:17 9.7 C 75 %
Sensor: Nr:Datum:Temp:Feuchte:
G-T/H 426 15-12-2019 22:52:18 9.7 C 75 %
427 15-12-2019 23:02:17 9.7 C 75 %
428 15-12-2019 23:12:18 9.7 C 74 %
429 15-12-2019 23:22:17 9.7 C 74 %
430 15-12-2019 23:32:18 9.7 C 74 %
431 15-12-2019 23:42:18 9.7 C 74 %
432 15-12-2019 23:52:17 9.7 C 74 %
433 16-12-2019 00:02:17 9.7 C 74 %
434 16-12-2019 00:12:17 9.7 C 74 %
435 16-12-2019 00:22:17 9.7 C 74 %
436 16-12-2019 00:32:17 9.7 C 74 %
437 16-12-2019 00:42:17 9.7 C 74 %
438 16-12-2019 00:52:18 9.7 C 74 %
439 16-12-2019 01:02:17 9.7 C 74 %
440 16-12-2019 01:12:17 9.7 C 74 %
441 16-12-2019 01:22:17 9.7 C 74 %
442 16-12-2019 01:32:17 9.7 C 74 %
443 16-12-2019 01:42:18 9.7 C 75 %
444 16-12-2019 01:52:17 9.7 C 75 %
445 16-12-2019 02:02:18 9.7 C 75 %
446 16-12-2019 02:12:18 9.7 C 75 %
447 16-12-2019 02:22:17 9.7 C 75 %
448 16-12-2019 02:32:17 9.7 C 75 %
449 16-12-2019 02:42:17 9.7 C 75 %
450 16-12-2019 02:52:18 9.7 C 75 %
Sensor: Nr:Datum:Temp:Feuchte:
G-T/H 451 16-12-2019 03:02:17 9.7 C 75 %
452 16-12-2019 03:12:17 9.7 C 75 %
453 16-12-2019 03:22:17 9.7 C 75 %
454 16-12-2019 03:32:18 9.7 C 75 %
455 16-12-2019 03:42:18 9.6 C 75 %
456 16-12-2019 03:52:17 9.7 C 75 %
457 16-12-2019 04:02:17 9.7 C 75 %
458 16-12-2019 04:12:17 9.7 C 75 %
459 16-12-2019 04:22:17 9.7 C 75 %
460 16-12-2019 04:32:17 9.7 C 75 %
461 16-12-2019 04:42:17 9.7 C 75 %
462 16-12-2019 04:52:17 9.7 C 75 %
463 16-12-2019 05:02:17 9.7 C 75 %
464 16-12-2019 05:12:17 9.7 C 75 %
465 16-12-2019 05:22:17 9.7 C 75 %
466 16-12-2019 05:32:17 9.7 C 75 %
467 16-12-2019 05:42:17 9.7 C 75 %
468 16-12-2019 05:52:17 9.7 C 75 %
469 16-12-2019 06:02:17 9.7 C 75 %
470 16-12-2019 06:12:17 9.7 C 75 %
471 16-12-2019 06:22:17 9.7 C 75 %
472 16-12-2019 06:32:17 9.7 C 75 %
473 16-12-2019 06:42:17 9.7 C 75 %
474 16-12-2019 06:52:17 9.7 C 75 %
475 16-12-2019 07:02:17 9.7 C 75 %
Sensor: Nr:Datum:Temp:Feuchte:
G-T/H 476 16-12-2019 07:12:17 9.7 C 75 %
477 16-12-2019 07:22:17 9.7 C 75 %
478 16-12-2019 07:32:18 9.7 C 75 %
479 16-12-2019 07:42:18 9.7 C 75 %
480 16-12-2019 07:52:17 9.7 C 75 %
481 16-12-2019 08:02:17 9.7 C 75 %
482 16-12-2019 08:12:17 9.7 C 75 %
483 16-12-2019 08:22:17 9.7 C 75 %
484 16-12-2019 08:32:17 9.7 C 75 %
485 16-12-2019 08:42:17 9.7 C 75 %
486 16-12-2019 08:52:17 9.7 C 75 %
487 16-12-2019 09:02:17 9.7 C 75 %
488 16-12-2019 09:12:17 9.8 C 76 %
489 16-12-2019 09:22:18 9.7 C 76 %
490 16-12-2019 09:32:17 9.7 C 76 %
491 16-12-2019 09:42:17 9.8 C 76 %
492 16-12-2019 09:52:17 9.8 C 76 %
493 16-12-2019 10:02:18 9.8 C 76 %
494 16-12-2019 10:12:18 9.7 C 76 %
495 16-12-2019 10:22:17 9.8 C 76 %
496 16-12-2019 10:32:17 9.8 C 76 %
497 16-12-2019 10:42:17 9.8 C 76 %
498 16-12-2019 10:52:17 9.8 C 76 %
499 16-12-2019 11:02:17 9.8 C 76 %
500 16-12-2019 11:12:17 9.8 C 76 %
Sensor: Nr:Datum:Temp:Feuchte:
G-T/H 501 16-12-2019 11:22:17 9.8 C 76 %
502 16-12-2019 11:32:18 9.8 C 76 %
503 16-12-2019 11:42:18 9.8 C 76 %
504 16-12-2019 11:52:17 9.8 C 76 %
505 16-12-2019 12:02:17 9.8 C 76 %
506 16-12-2019 12:12:17 9.8 C 76 %
507 16-12-2019 12:22:17 9.8 C 76 %
508 16-12-2019 12:32:17 9.9 C 76 %
509 16-12-2019 12:42:17 9.9 C 76 %
510